Provisional Data: Chiques Creek near Route 283


Please select a monitoring station.
Please select start date.
Please select start date.

Toggle Unit: C/F Toggle Unit: C/F
Sample Time Temperature (C) Temperature (F) Specific Conductivity (mS/cm) pH   Turbidity (NTU+) DO (mg/L)
5/4/2021 12:00:00 AM 16.47 61.646 0.272 8.07 4.34 9.49
5/4/2021 12:15:00 AM 16.48 61.664 0.287 8.07 3.55 9.48
5/4/2021 12:30:00 AM 16.48 61.664 0.174 8.06 3.61 9.45
5/4/2021 12:45:00 AM 16.49 61.682 0.289 8.06 3.74 9.42
5/4/2021 1:00:00 AM 16.48 61.664 0.274 8.06 3.7 9.39
5/4/2021 1:15:00 AM 16.48 61.664 0.201 8.05 3.63 9.35
5/4/2021 1:30:00 AM 16.48 61.664 0.27 8.04 3.43 9.33
5/4/2021 1:45:00 AM 16.48 61.664 0.275 8.03 3.61 9.29
5/4/2021 2:00:00 AM 16.47 61.646 0.469 8.02 3.41 9.24
5/4/2021 2:15:00 AM 16.47 61.646 0.282 8.01 3.48 9.21
5/4/2021 2:30:00 AM 16.45 61.61 0.47 8 3.76 9.16
5/4/2021 2:45:00 AM 16.43 61.574 0.28 7.99 3.61 9.13
5/4/2021 3:00:00 AM 16.41 61.538 0.221 7.98 4.02 9.09
5/4/2021 3:15:00 AM 16.39 61.502 0.224 7.98 3.88 9.07
5/4/2021 3:30:00 AM 16.37 61.466 0.216 7.95 4.03 9.03
5/4/2021 3:45:00 AM 16.34 61.412 0.278 7.95 5 9.01
5/4/2021 4:00:00 AM 16.32 61.376 0.518 7.92 5.49 9
5/4/2021 4:15:00 AM 16.28 61.304 0.274 7.91 5.21 8.99
5/4/2021 4:30:00 AM 16.24 61.232 0.263 7.9 4.49 8.95
5/4/2021 4:45:00 AM 16.21 61.178 0.259 7.88 4.45 8.92
5/4/2021 5:00:00 AM 16.17 61.106 0.225 7.87 4.64 8.9
5/4/2021 5:15:00 AM 16.12 61.016 0.256 7.87 4.42 8.89
5/4/2021 5:30:00 AM 16.08 60.944 0.256 7.86 4.06 8.88
5/4/2021 5:45:00 AM 16.04 60.872 0.21 7.85 4.26 8.87
5/4/2021 6:00:00 AM 15.98 60.764 0.191 7.85 3.86 8.88
5/4/2021 6:15:00 AM 15.94 60.692 0.271 7.85 4.18 8.9
5/4/2021 6:30:00 AM 15.9 60.62 0.228 7.84 4.2 8.91
5/4/2021 6:45:00 AM 15.86 60.548 0.197 7.85 4.26 8.94
5/4/2021 7:00:00 AM 15.82 60.476 0.252 7.85 4.3 8.97
5/4/2021 7:15:00 AM 15.79 60.422 0.202 7.85 3.88 9.01
5/4/2021 7:30:00 AM 15.76 60.368 0.446 7.86 3.68 9.05
5/4/2021 7:45:00 AM 15.75 60.35 0.157 7.85 4.24 9.09
5/4/2021 8:00:00 AM 15.75 60.35 0.204 7.87 3.97 9.15
5/4/2021 8:15:00 AM 15.74 60.332 0.241 7.87 4.48 9.16
5/4/2021 8:30:00 AM 15.75 60.35 0.177 7.88 4.91 9.22
5/4/2021 8:45:00 AM 15.77 60.386 0.213 7.88 4.63 9.28
5/4/2021 9:00:00 AM 15.79 60.422 0.185 7.9 4.78 9.33
5/4/2021 9:15:00 AM 15.82 60.476 0.194 7.91 4.92 9.37
5/4/2021 9:30:00 AM 15.87 60.566 0.191 7.91 4.97 9.42
5/4/2021 9:45:00 AM 15.91 60.638 0.21 7.92 5.3 9.46
5/4/2021 10:00:00 AM 15.96 60.728 0.147 7.93 5.58 9.5
5/4/2021 10:15:00 AM 16.02 60.836 0.166 7.94 6.12 9.54
5/4/2021 10:30:00 AM 16.11 60.998 0.22 7.96 5.85 9.59
5/4/2021 10:45:00 AM 16.19 61.142 0.479 7.98 5.79 9.64
5/4/2021 11:00:00 AM 16.27 61.286 0.227 7.99 5.77 9.67
5/4/2021 11:15:00 AM 16.35 61.43 0.141 8.01 6.01 9.7
5/4/2021 11:30:00 AM 16.43 61.574 0.218 8.02 6.96 9.73
5/4/2021 11:45:00 AM 16.51 61.718 0.206 8.03 5.72 9.73
5/4/2021 12:00:00 PM 16.61 61.898 0.22 8.04 6.4 9.74
5/4/2021 12:15:00 PM 16.67 62.006 0.223 8.04 6.37 9.72
5/4/2021 12:30:00 PM 16.81 62.258 0.316 8.05 6.19 9.74
5/4/2021 12:45:00 PM 16.92 62.456 0.195 8.05 6.62 9.72
5/4/2021 1:00:00 PM 17 62.6 0.2 8.04 6.79 9.7
5/4/2021 1:15:00 PM 17.09 62.762 0.317 8.04 6.96 9.69
5/4/2021 1:30:00 PM 17.21 62.978 0.191 8.05 7.56 9.7
5/4/2021 1:45:00 PM 17.29 63.122 0.138 8.05 8.03 9.65
5/4/2021 2:00:00 PM 17.4 63.32 0.225 8.06 8.32 9.69
5/4/2021 2:15:00 PM 17.47 63.446 0.22 8.06 8.21 9.69
5/4/2021 2:30:00 PM 17.55 63.59 0.186 8.07 8.26 9.68
5/4/2021 2:45:00 PM 17.64 63.752 0.303 8.08 8.01 9.7
5/4/2021 3:00:00 PM 17.75 63.95 0.224 8.09 8.4 9.72
5/4/2021 3:15:00 PM 17.81 64.058 0.226 8.1 8.68 9.69
5/4/2021 3:30:00 PM 17.82 64.076 0.3 8.09 8.88 9.61
5/4/2021 3:45:00 PM 17.9 64.22 0.185 8.09 9 9.65
5/4/2021 4:00:00 PM 18.04 64.472 0.209 8.12 9.11 9.7
5/4/2021 4:15:00 PM 18.15 64.67 0.234 8.13 9.39 9.69
5/4/2021 4:30:00 PM 18.23 64.814 0.193 8.13 9.82 9.65
5/4/2021 4:45:00 PM 18.28 64.904 0.224 8.11 10.25 9.59
5/4/2021 5:00:00 PM 18.33 64.994 0.222 8.09 11.05 9.55
5/4/2021 5:15:00 PM 18.37 65.066 0.205 8.09 11.39 9.52
5/4/2021 5:30:00 PM 18.43 65.174 0.211 8.08 11.01 9.48
5/4/2021 5:45:00 PM 18.49 65.282 0.288 8.09 10.76 9.46
5/4/2021 6:00:00 PM 18.52 65.336 0.216 8.07 11.79 9.43
5/4/2021 6:15:00 PM 18.52 65.336 0.213 8.05 12.18 9.37
5/4/2021 6:30:00 PM 18.51 65.318 0.207 8.03 11.68 9.3
5/4/2021 6:45:00 PM 18.5 65.3 0.176 8.02 11.87 9.25
5/4/2021 7:00:00 PM 18.5 65.3 0.173 8.01 11.52 9.22
5/4/2021 7:15:00 PM 18.5 65.3 0.201 7.99 12.1 9.2
5/4/2021 7:30:00 PM 18.49 65.282 0.197 7.98 12.7 9.14
5/4/2021 7:45:00 PM 18.49 65.282 0.285 7.97 11.28 9.09
5/4/2021 8:00:00 PM 18.5 65.3 0.214 7.96 11.21 9.07
5/4/2021 8:15:00 PM 18.5 65.3 0.221 7.94 11.66 9.03
5/4/2021 8:30:00 PM 18.51 65.318 0.213 7.93 11.8 9.01
5/4/2021 8:45:00 PM 18.52 65.336 0.198 7.93 11.64 8.97
5/4/2021 9:00:00 PM 18.52 65.336 0.226 7.92 11.93 8.94
5/4/2021 9:15:00 PM 18.53 65.354 0.186 7.91 11.7 8.9
5/4/2021 9:30:00 PM 18.53 65.354 0.227 7.9 12.72 8.87
5/4/2021 9:45:00 PM 18.53 65.354 0.215 7.88 10.56 8.84
5/4/2021 10:00:00 PM 18.54 65.372 0.187 7.88 11.75 8.8
5/4/2021 10:15:00 PM 18.55 65.39 0.228 7.88 12.42 8.77
5/4/2021 10:30:00 PM 18.54 65.372 0.228 7.87 12.65 8.74
5/4/2021 10:45:00 PM 18.54 65.372 0.178 7.85 12.17 8.71
5/4/2021 11:00:00 PM 18.53 65.354 0.232 7.85 11.98 8.67
5/4/2021 11:15:00 PM 18.51 65.318 0.222 7.84 12.96 8.64
5/4/2021 11:30:00 PM 18.51 65.318 0.298 7.84 12.28 8.62
5/4/2021 11:45:00 PM 18.49 65.282 0.242 7.83 12.54 8.6
5/5/2021 12:00:00 AM 18.48 65.264 0.235 7.83 11.79 8.57
5/5/2021 12:15:00 AM 18.46 65.228 0.209 7.83 12.3 8.55
5/5/2021 12:30:00 AM 18.44 65.192 0.196 7.81 12.19 8.52
5/5/2021 12:45:00 AM 18.42 65.156 0.172 7.81 12.36 8.5
5/5/2021 1:00:00 AM 18.4 65.12 0.181 7.8 12.86 8.48
5/5/2021 1:15:00 AM 18.38 65.084 0.192 7.79 13.14 8.45
5/5/2021 1:30:00 AM 18.37 65.066 0.222 7.79 13.38 8.43
5/5/2021 1:45:00 AM 18.35 65.03 0.159 7.8 13.12 8.42
5/5/2021 2:00:00 AM 18.33 64.994 0.228 7.78 11.92 8.38
5/5/2021 2:15:00 AM 18.31 64.958 0.186 7.78 12.97 8.37
5/5/2021 2:30:00 AM 18.28 64.904 0.23 7.77 11.37 8.35
5/5/2021 2:45:00 AM 18.26 64.868 0.309 7.77 12.2 8.34
5/5/2021 3:00:00 AM 18.23 64.814 0.218 7.77 12.96 8.33
5/5/2021 3:15:00 AM 18.2 64.76 0.118 7.75 11.54 8.31
5/5/2021 3:30:00 AM 18.17 64.706 0.215 7.76 11.63 8.3
5/5/2021 3:45:00 AM 18.15 64.67 0.178 7.75 12.63 8.3
5/5/2021 4:00:00 AM 18.12 64.616 0.23 7.76 12.69 8.28
5/5/2021 4:15:00 AM 18.08 64.544 0.183 7.75 12.28 8.28
5/5/2021 4:30:00 AM 18.05 64.49 0.219 7.75 12.21 8.28
5/5/2021 4:45:00 AM 18.02 64.436 0.183 7.75 11.29 8.27
5/5/2021 5:00:00 AM 17.99 64.382 0.312 7.75 12.38 8.27
5/5/2021 5:15:00 AM 17.96 64.328 0.18 7.74 12.76 8.26
5/5/2021 5:30:00 AM 17.93 64.274 0.226 7.75 12.64 8.26
5/5/2021 5:45:00 AM 17.9 64.22 0.196 7.74 11.5 8.26
5/5/2021 6:00:00 AM 17.88 64.184 0.228 7.74 12.14 8.25
5/5/2021 6:15:00 AM 17.85 64.13 0.162 7.75 12.29 8.25
5/5/2021 6:30:00 AM 17.82 64.076 0.155 7.75 11.89 8.26
5/5/2021 6:45:00 AM 17.8 64.04 0.202 7.74 11.85 8.28
5/5/2021 7:00:00 AM 17.77 63.986 0.203 7.74 11.85 8.27
5/5/2021 7:15:00 AM 17.74 63.932 0.197 7.75 11.76 8.29
5/5/2021 7:30:00 AM 17.72 63.896 0.176 7.75 11.6 8.3
5/5/2021 7:45:00 AM 17.7 63.86 0.152 7.75 11.24 8.31
5/5/2021 8:00:00 AM 17.67 63.806 0.211 7.75 11.54 8.3
5/5/2021 8:15:00 AM 17.65 63.77 0.213 7.76 11.1 8.34
5/5/2021 8:30:00 AM 17.64 63.752 0.169 7.76 10.94 8.35
5/5/2021 8:45:00 AM 17.62 63.716 0.185 7.76 11.49 8.39
5/5/2021 9:00:00 AM 17.6 63.68 0.118 7.77 10.93 8.41
5/5/2021 9:15:00 AM 17.59 63.662 0.314 7.77 10.35 8.44
5/5/2021 9:30:00 AM 17.58 63.644 0.16 7.77 10.52 8.47
5/5/2021 9:45:00 AM 17.56 63.608 0.158 7.78 9.88 8.47
5/5/2021 10:00:00 AM 17.58 63.644 0.199 7.79 9.93 8.57
5/5/2021 10:15:00 AM 17.56 63.608 0.208 7.79 9.67 8.53
5/5/2021 10:30:00 AM 17.53 63.554 0.16 7.79 9.21 8.48
5/5/2021 10:45:00 AM 17.51 63.518 0.151 7.79 9 8.53
5/5/2021 11:00:00 AM 17.48 63.464 0.132 7.8 8.5 8.56
5/5/2021 11:15:00 AM 17.49 63.482 0.135 7.81 8.24 8.67
5/5/2021 11:30:00 AM 17.52 63.536 0.192 7.82 8.23 8.73
5/5/2021 11:45:00 AM 17.53 63.554 0.183 7.83 8.19 8.77
5/5/2021 12:00:00 PM 17.63 63.734 0.192 7.85 7.88 8.86
5/5/2021 12:15:00 PM 17.68 63.824 0.313 7.85 7.68 8.89
5/5/2021 12:30:00 PM 17.75 63.95 0.21 7.85 7.29 8.93
5/5/2021 12:45:00 PM 17.77 63.986 0.219 7.87 7.33 8.93
5/5/2021 1:00:00 PM 17.86 64.148 0.193 7.88 7.12 8.97
5/5/2021 1:15:00 PM 17.89 64.202 0.235 7.88 6.68 8.95
5/5/2021 1:30:00 PM 17.87 64.166 0.208 7.89 6.7 9
5/5/2021 1:45:00 PM 17.92 64.256 0.188 7.9 6.53 9.03
5/5/2021 2:00:00 PM 17.97 64.346 0.194 7.91 6.8 9.04
5/5/2021 2:15:00 PM 18.02 64.436 0.2 7.93 6.36 9.12
5/5/2021 2:30:00 PM 18.05 64.49 0.348 7.94 6.46 9.15
5/5/2021 2:45:00 PM 18.14 64.652 0.187 7.97 6.66 9.3
5/5/2021 3:00:00 PM 18.22 64.796 0.226 7.99 7.3 9.34
5/5/2021 3:15:00 PM 18.28 64.904 0.223 8 6.49 9.31
5/5/2021 3:30:00 PM 18.33 64.994 0.233 8 6.51 9.32
5/5/2021 3:45:00 PM 18.42 65.156 0.2 8.02 6.67 9.4
5/5/2021 4:00:00 PM 18.47 65.246 0.247 8.03 6.26 9.41
5/5/2021 4:15:00 PM 18.51 65.318 0.23 8.04 6.36 9.39
5/5/2021 4:30:00 PM 18.48 65.264 0.244 8.04 6.41 9.37
5/5/2021 4:45:00 PM 18.5 65.3 0.21 8.06 6.33 9.4
5/5/2021 5:00:00 PM 18.5 65.3 0.206 8.07 7.14 9.44
5/5/2021 5:15:00 PM 18.51 65.318 0.3 8.08 6.01 9.47
5/5/2021 5:30:00 PM 18.53 65.354 0.229 8.1 6.67 9.5
5/5/2021 5:45:00 PM 18.55 65.39 0.206 8.12 6.54 9.53
5/5/2021 6:00:00 PM 18.52 65.336 0.212 8.13 6.67 9.53
5/5/2021 6:15:00 PM 18.47 65.246 0.2 8.1 6.45 9.49
5/5/2021 6:30:00 PM 18.45 65.21 0.21 8.11 6.37 9.51
5/5/2021 6:45:00 PM 18.45 65.21 0.201 8.11 6.62 9.5
5/5/2021 7:00:00 PM 18.42 65.156 0.189 8.1 6.9 9.44
5/5/2021 7:15:00 PM 18.41 65.138 0.241 8.1 7.25 9.45
5/5/2021 7:30:00 PM 18.42 65.156 0.197 8.09 7.09 9.44
5/5/2021 7:45:00 PM 18.41 65.138 0.249 8.09 6.72 9.4
5/5/2021 8:00:00 PM 18.42 65.156 0.208 8.08 6.99 9.39
5/5/2021 8:15:00 PM 18.43 65.174 0.258 8.07 7.24 9.36
5/5/2021 8:30:00 PM 18.43 65.174 0.211 8.06 7.28 9.33
5/5/2021 8:45:00 PM 18.43 65.174 0.201 8.05 7.2 9.3
5/5/2021 9:00:00 PM 18.43 65.174 0.21 8.03 7.29 9.26
5/5/2021 9:15:00 PM 18.41 65.138 0.246 8.02 6.6 9.22
5/5/2021 9:30:00 PM 18.4 65.12 0.22 8.01 6.74 9.19
5/5/2021 9:45:00 PM 18.38 65.084 0.186 8.01 6.79 9.14
5/5/2021 10:00:00 PM 18.36 65.048 0.21 7.99 7 9.1
5/5/2021 10:15:00 PM 18.33 64.994 0.246 7.98 7.01 9.06
5/5/2021 10:30:00 PM 18.27 64.886 0.245 7.96 6.84 9.04
5/5/2021 10:45:00 PM 18.19 64.742 0.208 7.95 6.97 9.01
5/5/2021 11:00:00 PM 18.12 64.616 0.205 7.94 6.68 8.99
5/5/2021 11:15:00 PM 18.04 64.472 0.202 7.92 6.75 8.97
5/5/2021 11:30:00 PM 17.96 64.328 0.195 7.92 6.5 8.95
5/5/2021 11:45:00 PM 17.88 64.184 0.201 7.91 6.93 8.94
5/6/2021 12:00:00 AM 17.81 64.058 0.24 7.9 6.76 8.92
5/6/2021 12:15:00 AM 17.74 63.932 0.223 7.9 7.36 8.92
5/6/2021 12:30:00 AM 17.67 63.806 0.228 7.9 7.21 8.91
5/6/2021 12:45:00 AM 17.6 63.68 0.197 7.89 7.42 8.91
5/6/2021 1:00:00 AM 17.54 63.572 0.238 7.89 6.68 8.9
5/6/2021 1:15:00 AM 17.47 63.446 0.19 7.87 6.78 8.9
5/6/2021 1:30:00 AM 17.4 63.32 0.227 7.88 6.33 8.89
5/6/2021 1:45:00 AM 17.33 63.194 0.187 7.86 7.44 8.89
5/6/2021 2:00:00 AM 17.27 63.086 0.315 7.87 6.65 8.9
5/6/2021 2:15:00 AM 17.21 62.978 0.168 7.87 7.25 8.89
5/6/2021 2:30:00 AM 17.14 62.852 0.233 7.86 6.94 8.9
5/6/2021 2:45:00 AM 17.08 62.744 0.217 7.86 7.13 8.89
5/6/2021 3:00:00 AM 17.02 62.636 0.202 7.86 7.14 8.89
5/6/2021 3:15:00 AM 16.96 62.528 0.225 7.86 7.12 8.9
5/6/2021 3:30:00 AM 16.9 62.42 0.21 7.85 7.06 8.89
5/6/2021 3:45:00 AM 16.85 62.33 0.178 7.85 7.04 8.9
5/6/2021 4:00:00 AM 16.8 62.24 0.213 7.85 7.08 8.9
5/6/2021 4:15:00 AM 16.74 62.132 0.153 7.84 6.98 8.9
5/6/2021 4:30:00 AM 16.69 62.042 0.192 7.84 7.12 8.91
5/6/2021 4:45:00 AM 16.63 61.934 0.225 7.84 7.14 8.92
5/6/2021 5:00:00 AM 16.57 61.826 0.149 7.84 7.67 8.92
5/6/2021 5:15:00 AM 16.51 61.718 0.222 7.85 7.67 8.94
5/6/2021 5:30:00 AM 16.46 61.628 0.16 7.84 7.23 8.94
5/6/2021 5:45:00 AM 16.39 61.502 0.205 7.83 7.82 8.95
5/6/2021 6:00:00 AM 16.32 61.376 0.121 7.83 7.53 8.97
5/6/2021 6:15:00 AM 16.26 61.268 0.221 7.84 7.75 8.99
5/6/2021 6:30:00 AM 16.19 61.142 0.2 7.83 7.89 9.02
5/6/2021 6:45:00 AM 16.12 61.016 0.19 7.84 8.06 9.03
5/6/2021 7:00:00 AM 16.06 60.908 0.207 7.84 7.89 9.06
5/6/2021 7:15:00 AM 15.99 60.782 0.163 7.84 7.69 9.08
5/6/2021 7:30:00 AM 15.93 60.674 0.199 7.85 7.69 9.11
5/6/2021 7:45:00 AM 15.85 60.53 0.229 7.85 7.85 9.11
5/6/2021 8:00:00 AM 15.78 60.404 0.197 7.84 7.68 9.15
5/6/2021 8:15:00 AM 15.72 60.296 0.193 7.85 7.79 9.19
5/6/2021 8:30:00 AM 15.68 60.224 0.244 7.86 7.96 9.24
5/6/2021 8:45:00 AM 15.64 60.152 0.323 7.87 8.29 9.29
5/6/2021 9:00:00 AM 15.62 60.116 0.242 7.88 8.21 9.35
5/6/2021 9:15:00 AM 15.55 59.99 0.32 7.87 7.81 9.33
5/6/2021 9:30:00 AM 15.53 59.954 0.234 7.88 7.9 9.4
5/6/2021 9:45:00 AM 15.52 59.936 0.236 7.89 8.35 9.45
5/6/2021 10:00:00 AM 15.5 59.9 0.237 7.9 8.2 9.48
5/6/2021 10:15:00 AM 15.5 59.9 0.237 7.91 8.36 9.52
5/6/2021 10:30:00 AM 15.46 59.828 0.241 7.91 7.99 9.54
5/6/2021 10:45:00 AM 15.51 59.918 0.23 7.92 8.36 9.62
5/6/2021 11:00:00 AM 15.5 59.9 0.238 7.94 8.22 9.65
5/6/2021 11:15:00 AM 15.57 60.026 0.241 7.96 8.45 9.72
5/6/2021 11:30:00 AM 15.55 59.99 0.238 7.97 8.57 9.71
5/6/2021 11:45:00 AM 15.64 60.152 0.321 7.98 8.36 9.78
5/6/2021 12:00:00 PM 15.67 60.206 0.191 8 8.84 9.83
5/6/2021 12:15:00 PM 15.71 60.278 0.318 8.02 8.25 9.86
5/6/2021 12:30:00 PM 15.76 60.368 0.144 8.02 8.69 9.91
5/6/2021 12:45:00 PM 15.81 60.458 0.184 8.05 8.74 9.94
5/6/2021 1:00:00 PM 15.87 60.566 0.16 8.07 8.57 9.98
5/6/2021 1:15:00 PM 15.94 60.692 0.186 8.07 8.95 10.03
5/6/2021 1:30:00 PM 15.97 60.746 0.231 8.1 8.73 10.05
5/6/2021 1:45:00 PM 16.04 60.872 0.148 8.13 8.84 10.09
5/6/2021 2:00:00 PM 16.11 60.998 0.205 8.15 7.28 10.15
5/6/2021 2:15:00 PM 16.22 61.196 0.209 8.17 8.6 10.18
5/6/2021 2:30:00 PM 16.3 61.34 0.204 8.18 8.25 10.21
5/6/2021 2:45:00 PM 16.37 61.466 0.151 8.19 8.65 10.23
5/6/2021 3:00:00 PM 16.38 61.484 0.32 8.2 8.56 10.24
5/6/2021 3:15:00 PM 16.47 61.646 0.196 8.23 9.06 10.27
5/6/2021 3:30:00 PM 16.53 61.754 0.202 8.25 9.13 10.29
5/6/2021 3:45:00 PM 16.59 61.862 0.153 8.27 8.79 10.3
5/6/2021 4:00:00 PM 16.65 61.97 0.201 8.27 8.7 10.32
5/6/2021 4:15:00 PM 16.7 62.06 0.181 8.29 9.09 10.33
5/6/2021 4:30:00 PM 16.74 62.132 0.224 8.31 9.09 10.35
5/6/2021 4:45:00 PM 16.76 62.168 0.15 8.31 9.1 10.33
5/6/2021 5:00:00 PM 16.78 62.204 0.228 8.31 9.15 10.33
5/6/2021 5:15:00 PM 16.8 62.24 0.144 8.32 9.08 10.31
5/6/2021 5:30:00 PM 16.82 62.276 0.204 8.31 8.89 10.31
5/6/2021 5:45:00 PM 16.85 62.33 0.203 8.32 8.86 10.3
5/6/2021 6:00:00 PM 16.84 62.312 0.154 8.31 9.09 10.26
5/6/2021 6:15:00 PM 16.83 62.294 0.209 8.31 8.88 10.25
5/6/2021 6:30:00 PM 16.82 62.276 0.225 8.3 9.18 10.22
5/6/2021 6:45:00 PM 16.82 62.276 0.154 8.28 9.08 10.18
5/6/2021 7:00:00 PM 16.81 62.258 0.176 8.28 9.41 10.13
5/6/2021 7:15:00 PM 16.8 62.24 0.206 8.26 9.19 10.08
5/6/2021 7:30:00 PM 16.79 62.222 0.208 8.23 9.28 10.03
5/6/2021 7:45:00 PM 16.79 62.222 0.15 8.21 9.12 9.99
5/6/2021 8:00:00 PM 16.78 62.204 0.196 8.21 9.22 9.96
5/6/2021 8:15:00 PM 16.77 62.186 0.206 8.19 9.17 9.91
5/6/2021 8:30:00 PM 16.76 62.168 0.194 8.17 9.28 9.88
5/6/2021 8:45:00 PM 16.75 62.15 0.172 8.16 9.43 9.85
5/6/2021 9:00:00 PM 16.73 62.114 0.311 8.15 9.37 9.82
5/6/2021 9:15:00 PM 16.71 62.078 0.217 8.14 8.97 9.77
5/6/2021 9:30:00 PM 16.69 62.042 0.195 8.12 8.9 9.76
5/6/2021 9:45:00 PM 16.67 62.006 0.208 8.11 9.37 9.72
5/6/2021 10:00:00 PM 16.64 61.952 0.221 8.1 8.79 9.68
5/6/2021 10:15:00 PM 16.61 61.898 0.224 8.09 8.75 9.67
5/6/2021 10:30:00 PM 16.59 61.862 0.165 8.08 8.88 9.63
5/6/2021 10:45:00 PM 16.56 61.808 0.217 8.07 8.57 9.61
5/6/2021 11:00:00 PM 16.52 61.736 0.197 8.04 8.77 9.59
5/6/2021 11:15:00 PM 16.49 61.682 0.192 8.05 8.7 9.57
5/6/2021 11:30:00 PM 16.45 61.61 0.197 8.03 8.99 9.53
5/6/2021 11:45:00 PM 16.42 61.556 0.189 8.03 8.54 9.51
5/7/2021 12:00:00 AM 16.38 61.484 0.171 8.02 8.78 9.48
5/7/2021 12:15:00 AM 16.34 61.412 0.223 8.01 8.74 9.46
5/7/2021 12:30:00 AM 16.3 61.34 0.182 7.98 8.64 9.44
5/7/2021 12:45:00 AM 16.26 61.268 0.222 7.99 8.56 9.41
5/7/2021 1:00:00 AM 16.21 61.178 0.207 7.98 8.11 9.38
5/7/2021 1:15:00 AM 16.16 61.088 0.181 7.98 8.07 9.35
5/7/2021 1:30:00 AM 16.11 60.998 0.237 7.97 8.26 9.33
5/7/2021 1:45:00 AM 16.05 60.89 0.153 7.95 8.14 9.31
5/7/2021 2:00:00 AM 15.99 60.782 0.231 7.95 7.66 9.28
5/7/2021 2:15:00 AM 15.93 60.674 0.212 7.94 8.11 9.25
5/7/2021 2:30:00 AM 15.87 60.566 0.133 7.93 7.87 9.24
5/7/2021 2:45:00 AM 15.81 60.458 0.25 7.92 7.68 9.21
5/7/2021 3:00:00 AM 15.75 60.35 0.223 7.92 7.91 9.2
5/7/2021 3:15:00 AM 15.68 60.224 0.185 7.91 7.62 9.18
5/7/2021 3:30:00 AM 15.62 60.116 0.329 7.91 7.39 9.17
5/7/2021 3:45:00 AM 15.54 59.972 0.175 7.91 7.58 9.15
5/7/2021 4:00:00 AM 15.47 59.846 0.203 7.89 7.32 9.14
5/7/2021 4:15:00 AM 15.41 59.738 0.173 7.88 7.12 9.14
5/7/2021 4:30:00 AM 15.33 59.594 0.216 7.88 7.29 9.13
5/7/2021 4:45:00 AM 15.26 59.468 0.207 7.87 7.28 9.12
5/7/2021 5:00:00 AM 15.18 59.324 0.217 7.87 7.42 9.12
5/7/2021 5:15:00 AM 15.11 59.198 0.33 7.86 7.19 9.12
5/7/2021 5:30:00 AM 15.04 59.072 0.333 7.85 6.68 9.12
5/7/2021 5:45:00 AM 14.96 58.928 0.125 7.85 7.31 9.12
5/7/2021 6:00:00 AM 14.89 58.802 0.196 7.85 6.98 9.13
5/7/2021 6:15:00 AM 14.82 58.676 0.179 7.85 6.69 9.14
5/7/2021 6:30:00 AM 14.75 58.55 0.22 7.85 7.07 9.15
5/7/2021 6:45:00 AM 14.68 58.424 0.171 7.84 6.84 9.16
5/7/2021 7:00:00 AM 14.62 58.316 0.219 7.84 8.07 9.18
5/7/2021 7:15:00 AM 14.57 58.226 0.183 7.85 6.76 9.19
5/7/2021 7:30:00 AM 14.52 58.136 0.239 7.85 7.07 9.23
5/7/2021 7:45:00 AM 14.49 58.082 0.154 7.85 6.99 9.3
5/7/2021 8:00:00 AM 14.44 57.992 0.203 7.86 6.81 9.31
5/7/2021 8:15:00 AM 14.4 57.92 0.226 7.87 6.73 9.34
5/7/2021 8:30:00 AM 14.36 57.848 0.336 7.88 6.87 9.34
5/7/2021 8:45:00 AM 14.33 57.794 0.178 7.87 6.69 9.39
5/7/2021 9:00:00 AM 14.32 57.776 0.246 7.88 7.03 9.45
5/7/2021 9:15:00 AM 14.34 57.812 0.156 7.88 6.32 9.49
5/7/2021 9:30:00 AM 14.35 57.83 0.216 7.9 6.09 9.54
5/7/2021 9:45:00 AM 14.37 57.866 0.236 7.9 6.56 9.59
5/7/2021 10:00:00 AM 14.4 57.92 0.211 7.91 6.34 9.64
5/7/2021 10:15:00 AM 14.44 57.992 0.165 7.92 6.35 9.68
5/7/2021 10:30:00 AM 14.47 58.046 0.192 7.94 6.44 9.74
5/7/2021 10:45:00 AM 14.45 58.01 0.336 7.95 5.76 9.76
5/7/2021 11:00:00 AM 14.47 58.046 0.168 7.96 6.24 9.83
5/7/2021 11:15:00 AM 14.46 58.028 0.224 7.96 6.26 9.84
5/7/2021 11:30:00 AM 14.45 58.01 0.336 7.98 5.92 9.9
5/7/2021 11:45:00 AM 14.42 57.956 0.242 8 6.72 9.91
5/7/2021 12:00:00 PM 14.43 57.974 0.231 8 6.36 9.97
5/7/2021 12:15:00 PM 14.47 58.046 0.198 8.02 5.86 10.06
5/7/2021 12:30:00 PM 14.47 58.046 0.242 8.03 6.4 10.06
5/7/2021 12:45:00 PM 14.46 58.028 0.201 8.04 6.37 10.11
5/7/2021 1:00:00 PM 14.48 58.064 0.214 8.05 6.29 10.17
5/7/2021 1:15:00 PM 14.52 58.136 0.206 8.07 6.17 10.25
5/7/2021 1:30:00 PM 14.53 58.154 0.259 8.08 5.86 10.24
5/7/2021 1:45:00 PM 14.54 58.172 0.207 8.1 8.24 10.3
5/7/2021 2:00:00 PM 14.53 58.154 0.25 8.11 6.2 10.29
5/7/2021 2:15:00 PM 14.51 58.118 0.14 8.1 5.9 10.26
5/7/2021 2:30:00 PM 14.5 58.1 0.25 8.12 5.86 10.27
5/7/2021 2:45:00 PM 14.51 58.118 0.148 8.13 6.39 10.3
5/7/2021 3:00:00 PM 14.53 58.154 0.264 8.14 5.76 10.36
5/7/2021 3:15:00 PM 14.56 58.208 0.153 8.16 6.2 10.41
5/7/2021 3:30:00 PM 14.59 58.262 0.451 8.18 5.51 10.45
5/7/2021 3:45:00 PM 14.61 58.298 0.206 8.2 5.91 10.52
5/7/2021 4:00:00 PM 14.64 58.352 0.248 8.21 6.21 10.58
5/7/2021 4:15:00 PM 14.66 58.388 0.221 8.23 5.91 10.58
5/7/2021 4:30:00 PM 14.66 58.388 0.455 8.23 5.62 10.58
5/7/2021 4:45:00 PM 14.66 58.388 0.143 8.22 5.93 10.56
5/7/2021 5:00:00 PM 14.67 58.406 0.268 8.23 5.44 10.57
5/7/2021 5:15:00 PM 14.68 58.424 0.161 8.23 5.82 10.55
5/7/2021 5:30:00 PM 14.69 58.442 0.206 8.24 5.97 10.55
5/7/2021 5:45:00 PM 14.7 58.46 0.189 8.24 5.92 10.56
5/7/2021 6:00:00 PM 14.71 58.478 0.136 8.25 6.05 10.55
5/7/2021 6:15:00 PM 14.73 58.514 0.205 8.26 5.77 10.55
5/7/2021 6:30:00 PM 14.74 58.532 0.325 8.26 5.7 10.55
5/7/2021 6:45:00 PM 14.76 58.568 0.273 8.27 5.66 10.54
5/7/2021 7:00:00 PM 14.77 58.586 0.222 8.26 5.92 10.53
5/7/2021 7:15:00 PM 14.78 58.604 0.211 8.27 5.94 10.51
5/7/2021 7:30:00 PM 14.79 58.622 0.46 8.27 5.46 10.5
5/7/2021 7:45:00 PM 14.81 58.658 0.461 8.26 5.4 10.47
5/7/2021 8:00:00 PM 14.82 58.676 0.237 8.25 5.78 10.45
5/7/2021 8:15:00 PM 14.82 58.676 0.196 8.25 5.57 10.42
5/7/2021 8:30:00 PM 14.82 58.676 0.262 8.25 5.7 10.39
5/7/2021 8:45:00 PM 14.82 58.676 0.215 8.23 6.23 10.36
5/7/2021 9:00:00 PM 14.82 58.676 0.225 8.23 5.89 10.33
5/7/2021 9:15:00 PM 14.81 58.658 0.202 8.22 5.88 10.29
5/7/2021 9:30:00 PM 14.8 58.64 0.255 8.21 5.49 10.26
5/7/2021 9:45:00 PM 14.79 58.622 0.252 8.2 5.93 10.22
5/7/2021 10:00:00 PM 14.78 58.604 0.225 8.19 5.78 10.19
5/7/2021 10:15:00 PM 14.76 58.568 0.255 8.18 5.73 10.15
5/7/2021 10:30:00 PM 14.75 58.55 0.15 8.16 6 10.11
5/7/2021 10:45:00 PM 14.73 58.514 0.139 8.15 5.69 10.08
5/7/2021 11:00:00 PM 14.7 58.46 0.203 8.15 5.82 10.05
5/7/2021 11:15:00 PM 14.68 58.424 0.233 8.12 5.97 10.02
5/7/2021 11:30:00 PM 14.65 58.37 0.272 8.12 5.38 9.99
5/7/2021 11:45:00 PM 14.62 58.316 0.266 8.11 5.91 9.96
5/8/2021 12:00:00 AM 14.59 58.262 0.331 8.1 5.53 9.93
5/8/2021 12:15:00 AM 14.57 58.226 0.266 8.09 6.22 9.9
5/8/2021 12:30:00 AM 14.53 58.154 0.183 8.08 5.61 9.87
5/8/2021 12:45:00 AM 14.49 58.082 0.221 8.07 5.93 9.84
5/8/2021 1:00:00 AM 14.45 58.01 0.253 8.06 5.87 9.81
5/8/2021 1:15:00 AM 14.41 57.938 0.256 8.06 5.87 9.79
5/8/2021 1:30:00 AM 14.37 57.866 0.17 8.04 5.97 9.77
5/8/2021 1:45:00 AM 14.33 57.794 0.165 8.03 5.9 9.73
5/8/2021 2:00:00 AM 14.28 57.704 0.227 8.03 5.98 9.71
5/8/2021 2:15:00 AM 14.23 57.614 0.236 8 5.9 9.68
5/8/2021 2:30:00 AM 14.18 57.524 0.24 8 5.93 9.66
5/8/2021 2:45:00 AM 14.12 57.416 0.241 7.98 6.1 9.63
5/8/2021 3:00:00 AM 14.07 57.326 0.274 7.98 5.69 9.61
5/8/2021 3:15:00 AM 14.01 57.218 0.159 7.97 6.24 9.59
5/8/2021 3:30:00 AM 13.95 57.11 0.259 7.97 6.21 9.57
5/8/2021 3:45:00 AM 13.89 57.002 0.217 7.96 6.13 9.56
5/8/2021 4:00:00 AM 13.83 56.894 0.197 7.95 6 9.54
5/8/2021 4:15:00 AM 13.76 56.768 0.242 7.94 5.63 9.52
5/8/2021 4:30:00 AM 13.7 56.66 0.259 7.94 6.02 9.51
5/8/2021 4:45:00 AM 13.64 56.552 0.276 7.93 6.03 9.52
5/8/2021 5:00:00 AM 13.58 56.444 0.262 7.93 5.71 9.5
5/8/2021 5:15:00 AM 13.51 56.318 0.34 7.92 5.88 9.5
5/8/2021 5:30:00 AM 13.45 56.21 0.209 7.93 6.75 9.5
5/8/2021 5:45:00 AM 13.39 56.102 0.285 7.91 5.82 9.5
5/8/2021 6:00:00 AM 13.33 55.994 0.23 7.91 5.98 9.5
5/8/2021 6:15:00 AM 13.27 55.886 0.285 7.92 5.73 9.52
5/8/2021 6:30:00 AM 13.22 55.796 0.227 7.91 6.16 9.54
5/8/2021 6:45:00 AM 13.17 55.706 0.241 7.91 5.96 9.57
5/8/2021 7:00:00 AM 13.13 55.634 0.25 7.91 6.06 9.59
5/8/2021 7:15:00 AM 13.07 55.526 0.29 7.91 5.8 9.6
5/8/2021 7:30:00 AM 13.03 55.454 0.251 7.91 5.95 9.61
5/8/2021 7:45:00 AM 12.99 55.382 0.29 7.91 5.96 9.67
5/8/2021 8:00:00 AM 12.97 55.346 0.278 7.92 6.41 9.75
5/8/2021 8:15:00 AM 12.96 55.328 0.293 7.93 6.23 9.78
5/8/2021 8:30:00 AM 12.93 55.274 0.268 7.93 6.31 9.8
5/8/2021 8:45:00 AM 12.89 55.202 0.26 7.93 6.07 9.79
5/8/2021 9:00:00 AM 12.85 55.13 0.351 7.94 6.04 9.79
5/8/2021 9:15:00 AM 12.84 55.112 0.265 7.95 5.9 9.88
5/8/2021 9:30:00 AM 12.83 55.094 0.214 7.96 6.11 9.95
5/8/2021 9:45:00 AM 12.83 55.094 0.318 7.97 5.81 10.02
5/8/2021 10:00:00 AM 12.88 55.184 0.267 7.98 6.12 10.12
5/8/2021 10:15:00 AM 12.91 55.238 0.309 7.99 5.78 10.19
5/8/2021 10:30:00 AM 12.9 55.22 0.248 8 6.09 10.2
5/8/2021 10:45:00 AM 12.9 55.22 0.424 8.01 5.64 10.25
5/8/2021 11:00:00 AM 12.97 55.346 0.261 8.03 5.98 10.34
5/8/2021 11:15:00 AM 12.95 55.31 0.296 8.04 6.3 10.36
5/8/2021 11:30:00 AM 12.97 55.346 0.261 8.05 5.95 10.4
5/8/2021 11:45:00 AM 13.01 55.418 0.206 8.07 5.78 10.46
5/8/2021 12:00:00 PM 13.03 55.454 0.251 8.08 5.7 10.51
5/8/2021 12:15:00 PM 13.03 55.454 0.236 8.09 7.37 10.52
5/8/2021 12:30:00 PM 13.11 55.598 0.284 8.12 5.85 10.63
5/8/2021 12:45:00 PM 13.05 55.49 0.271 8.13 5.78 10.61
5/8/2021 1:00:00 PM 13.06 55.508 0.269 8.14 5.86 10.67
5/8/2021 1:15:00 PM 13.21 55.778 0.203 8.17 5.61 10.79
5/8/2021 1:30:00 PM 13.19 55.742 0.239 8.18 5.65 10.81
5/8/2021 1:45:00 PM 13.17 55.706 0.285 8.18 5.37 10.78
5/8/2021 2:00:00 PM 13.25 55.85 0.22 8.21 5.49 10.86
5/8/2021 2:15:00 PM 13.29 55.922 0.22 8.22 5.59 10.93
5/8/2021 2:30:00 PM 13.36 56.048 0.473 8.24 5.29 10.93
5/8/2021 2:45:00 PM 13.46 56.228 0.152 8.26 5.34 11.04
5/8/2021 3:00:00 PM 13.42 56.156 0.222 8.27 5.19 10.98
5/8/2021 3:15:00 PM 13.38 56.084 0.263 8.27 5.41 10.9
5/8/2021 3:30:00 PM 13.34 56.012 0.212 8.27 5.76 10.89
5/8/2021 3:45:00 PM 13.36 56.048 0.164 8.29 5.8 11.02
5/8/2021 4:00:00 PM 13.39 56.102 0.209 8.31 6.23 11.05
5/8/2021 4:15:00 PM 13.44 56.192 0.289 8.32 5.92 11.12
5/8/2021 4:30:00 PM 13.57 56.426 0.261 8.35 5.53 11.24
5/8/2021 4:45:00 PM 13.66 56.588 0.284 8.36 5.69 11.25
5/8/2021 5:00:00 PM 13.69 56.642 0.268 8.39 5.85 11.24
5/8/2021 5:15:00 PM 13.7 56.66 0.227 8.39 5.76 11.23
5/8/2021 5:30:00 PM 13.69 56.642 0.28 8.39 5.85 11.2
5/8/2021 5:45:00 PM 13.62 56.516 0.241 8.37 5.71 11.08
5/8/2021 6:00:00 PM 13.58 56.444 0.282 8.37 5.55 11.09
5/8/2021 6:15:00 PM 13.62 56.516 0.217 8.39 5.59 11.19
5/8/2021 6:30:00 PM 13.67 56.606 0.28 8.4 5.64 11.2
5/8/2021 6:45:00 PM 13.68 56.624 0.236 8.41 5.69 11.16
5/8/2021 7:00:00 PM 13.71 56.678 0.481 8.42 5.48 11.15
5/8/2021 7:15:00 PM 13.71 56.678 0.481 8.43 5.36 11.15
5/8/2021 7:30:00 PM 13.69 56.642 0.48 8.43 5.73 11.14
5/8/2021 7:45:00 PM 13.67 56.606 0.283 8.42 5.56 11.11
5/8/2021 8:00:00 PM 13.63 56.534 0.233 8.4 5.7 11.06
5/8/2021 8:15:00 PM 13.61 56.498 0.481 8.39 5.57 11.01
5/8/2021 8:30:00 PM 13.59 56.462 0.271 8.38 5.8 10.98
5/8/2021 8:45:00 PM 13.57 56.426 0.159 8.37 5.84 10.95
5/8/2021 9:00:00 PM 13.55 56.39 0.289 8.35 5.59 10.91
5/8/2021 9:15:00 PM 13.54 56.372 0.479 8.33 5.38 10.87
5/8/2021 9:30:00 PM 13.52 56.336 0.285 8.32 5.8 10.84
5/8/2021 9:45:00 PM 13.5 56.3 0.248 8.3 5.8 10.8
5/8/2021 10:00:00 PM 13.48 56.264 0.232 8.29 5.62 10.76
5/8/2021 10:15:00 PM 13.45 56.21 0.209 8.27 5.95 10.71
5/8/2021 10:30:00 PM 13.42 56.156 0.217 8.25 6.09 10.67
5/8/2021 10:45:00 PM 13.39 56.102 0.245 8.24 6.26 10.63
5/8/2021 11:00:00 PM 13.36 56.048 0.27 8.22 5.71 10.59
5/8/2021 11:15:00 PM 13.32 55.976 0.431 8.21 5.7 10.56
5/8/2021 11:30:00 PM 13.29 55.922 0.272 8.2 6.05 10.52
5/8/2021 11:45:00 PM 13.25 55.85 0.247 8.18 5.83 10.5
5/9/2021 12:00:00 AM 13.21 55.778 0.345 8.17 5.4 10.47
5/9/2021 12:15:00 AM 13.16 55.688 0.28 8.16 6.13 10.45
5/9/2021 12:30:00 AM 13.12 55.616 0.206 8.15 6.22 10.42
5/9/2021 12:45:00 AM 13.07 55.526 0.227 8.14 6.38 10.39
5/9/2021 1:00:00 AM 13.03 55.454 0.276 8.13 5.75 10.37
5/9/2021 1:15:00 AM 12.98 55.364 0.241 8.11 5.97 10.34
5/9/2021 1:30:00 AM 12.94 55.292 0.282 8.1 5.75 10.32
5/9/2021 1:45:00 AM 12.9 55.22 0.24 8.09 6.25 10.29
5/9/2021 2:00:00 AM 12.86 55.148 0.472 8.09 5.88 10.26
5/9/2021 2:15:00 AM 12.82 55.076 0.351 8.08 5.73 10.24
5/9/2021 2:30:00 AM 12.77 54.986 0.259 8.07 5.95 10.21
5/9/2021 2:45:00 AM 12.73 54.914 0.22 8.06 6.13 10.19
5/9/2021 3:00:00 AM 12.68 54.824 0.205 8.05 5.92 10.16
5/9/2021 3:15:00 AM 12.64 54.752 0.235 8.03 6.09 10.14
5/9/2021 3:30:00 AM 12.59 54.662 0.334 8.03 6.02 10.12
5/9/2021 3:45:00 AM 12.55 54.59 0.169 8.01 5.9 10.11
5/9/2021 4:00:00 AM 12.5 54.5 0.286 8.01 6.21 10.08
5/9/2021 4:15:00 AM 12.45 54.41 0.348 8.01 5.81 10.07
5/9/2021 4:30:00 AM 12.4 54.32 0.33 7.99 5.93 10.06
5/9/2021 4:45:00 AM 12.34 54.212 0.305 7.99 5.85 10.04
5/9/2021 5:00:00 AM 12.29 54.122 0.329 7.98 5.72 10.04
5/9/2021 5:15:00 AM 12.24 54.032 0.304 7.98 6.09 10.02
5/9/2021 5:30:00 AM 12.19 53.942 0.327 7.97 6.36 10.01
5/9/2021 5:45:00 AM 12.14 53.852 0.314 7.97 6.27 10
5/9/2021 6:00:00 AM 12.09 53.762 0.315 7.96 6.16 10
5/9/2021 6:15:00 AM 12.04 53.672 0.268 7.96 5.78 10
5/9/2021 6:30:00 AM 12 53.6 0.308 7.95 5.75 10.03
5/9/2021 6:45:00 AM 11.96 53.528 0.235 7.95 5.81 10.04
5/9/2021 7:00:00 AM 11.92 53.456 0.295 7.95 6.19 10.07
5/9/2021 7:15:00 AM 11.88 53.384 0.312 7.95 6.19 10.08
5/9/2021 7:30:00 AM 11.84 53.312 0.301 7.94 5.82 10.09
5/9/2021 7:45:00 AM 11.8 53.24 0.477 7.94 5.65 10.1
5/9/2021 8:00:00 AM 11.76 53.168 0.268 7.95 5.82 10.13
5/9/2021 8:15:00 AM 11.73 53.114 0.316 7.95 5.93 10.17
5/9/2021 8:30:00 AM 11.71 53.078 0.312 7.96 5.93 10.21
5/9/2021 8:45:00 AM 11.69 53.042 0.303 7.96 5.46 10.25
5/9/2021 9:00:00 AM 11.67 53.006 0.292 7.97 5.81 10.27
5/9/2021 9:15:00 AM 11.65 52.97 0.319 7.97 5.99 10.32
5/9/2021 9:30:00 AM 11.63 52.934 0.256 7.97 5.78 10.35
5/9/2021 9:45:00 AM 11.6 52.88 0.309 7.98 5.3 10.35
5/9/2021 10:00:00 AM 11.58 52.844 0.312 7.98 5.67 10.38
5/9/2021 10:15:00 AM 11.56 52.808 0.267 7.99 5.56 10.41
5/9/2021 10:30:00 AM 11.56 52.808 0.314 8 5.63 10.48
5/9/2021 10:45:00 AM 11.59 52.862 0.29 8.02 5.56 10.61
5/9/2021 11:00:00 AM 11.6 52.88 0.301 8.03 5.69 10.65
5/9/2021 11:15:00 AM 11.57 52.826 0.308 8.03 6.06 10.62
5/9/2021 11:30:00 AM 11.56 52.808 0.252 8.04 5.44 10.65
5/9/2021 11:45:00 AM 11.56 52.808 0.475 8.05 5.46 10.7
5/9/2021 12:00:00 PM 11.56 52.808 0.297 8.06 5.26 10.73
5/9/2021 12:15:00 PM 11.55 52.79 0.299 8.06 5.37 10.72
5/9/2021 12:30:00 PM 11.54 52.772 0.306 8.07 5.26 10.75
5/9/2021 12:45:00 PM 11.54 52.772 0.475 8.07 5.23 10.73
5/9/2021 1:00:00 PM 11.53 52.754 0.364 8.07 5.26 10.72
5/9/2021 1:15:00 PM 11.53 52.754 0.229 8.08 5.36 10.8
5/9/2021 1:30:00 PM 11.55 52.79 0.293 8.09 5.56 10.89
5/9/2021 1:45:00 PM 11.55 52.79 0.303 8.1 5.22 10.9
5/9/2021 2:00:00 PM 11.56 52.808 0.3 8.12 5.47 10.94
5/9/2021 2:15:00 PM 11.59 52.862 0.296 8.13 5.37 11.04
5/9/2021 2:30:00 PM 11.59 52.862 0.307 8.14 5.19 11
5/9/2021 2:45:00 PM 11.57 52.826 0.271 8.13 5.34 10.95
5/9/2021 3:00:00 PM 11.59 52.862 0.311 8.13 5.01 11.03
5/9/2021 3:15:00 PM 11.62 52.916 0.243 8.15 5.14 11.1
5/9/2021 3:30:00 PM 11.63 52.934 0.473 8.15 5.02 11.09
5/9/2021 3:45:00 PM 11.66 52.988 0.301 8.17 5.02 11.15
5/9/2021 4:00:00 PM 11.67 53.006 0.313 8.17 5.09 11.14
5/9/2021 4:15:00 PM 11.68 53.024 0.3 8.19 5.17 11.14
5/9/2021 4:30:00 PM 11.71 53.078 0.292 8.2 4.98 11.2
5/9/2021 4:45:00 PM 11.72 53.096 0.302 8.21 4.68 11.18
5/9/2021 5:00:00 PM 11.74 53.132 0.302 8.22 4.78 11.22
5/9/2021 5:15:00 PM 11.76 53.168 0.309 8.23 4.88 11.19
5/9/2021 5:30:00 PM 11.78 53.204 0.284 8.23 4.68 11.21
5/9/2021 5:45:00 PM 11.79 53.222 0.481 8.24 4.59 11.2
5/9/2021 6:00:00 PM 11.8 53.24 0.32 8.25 5.21 11.23
5/9/2021 6:15:00 PM 11.82 53.276 0.483 8.26 4.47 11.24
5/9/2021 6:30:00 PM 11.82 53.276 0.324 8.26 4.8 11.24
5/9/2021 6:45:00 PM 11.83 53.294 0.308 8.26 5.06 11.23
5/9/2021 7:00:00 PM 11.83 53.294 0.317 8.27 5.05 11.22
5/9/2021 7:15:00 PM 11.83 53.294 0.312 8.26 5.08 11.2
5/9/2021 7:30:00 PM 11.83 53.294 0.288 8.25 5.08 11.18
5/9/2021 7:45:00 PM 11.83 53.294 0.439 8.26 4.49 11.15
5/9/2021 8:00:00 PM 11.83 53.294 0.281 8.24 5.04 11.13
5/9/2021 8:15:00 PM 11.83 53.294 0.319 8.23 5.19 11.08
5/9/2021 8:30:00 PM 11.82 53.276 0.286 8.23 4.89 11.06
5/9/2021 8:45:00 PM 11.82 53.276 0.277 8.22 5.34 11.03
5/9/2021 9:00:00 PM 11.82 53.276 0.313 8.21 5.36 11.01
5/9/2021 9:15:00 PM 11.82 53.276 0.321 8.21 5.11 10.99
5/9/2021 9:30:00 PM 11.82 53.276 0.489 8.19 4.89 10.96
5/9/2021 9:45:00 PM 11.81 53.258 0.487 8.19 4.81 10.95
5/9/2021 10:00:00 PM 11.81 53.258 0.287 8.19 5.15 10.92
5/9/2021 10:15:00 PM 11.8 53.24 0.288 8.18 5.02 10.91
5/9/2021 10:30:00 PM 11.8 53.24 0.326 8.17 5.11 10.88
5/9/2021 10:45:00 PM 11.79 53.222 0.291 8.17 5.23 10.86
5/9/2021 11:00:00 PM 11.79 53.222 0.304 8.16 5.23 10.83
5/9/2021 11:15:00 PM 11.78 53.204 0.293 8.16 5.38 10.81
5/9/2021 11:30:00 PM 11.78 53.204 0.329 8.15 5.41 10.79
5/9/2021 11:45:00 PM 11.78 53.204 0.228 8.15 5.39 10.76
5/10/2021 12:00:00 AM 11.77 53.186 0.324 8.14 5.13 10.74
5/10/2021 12:15:00 AM 11.76 53.168 0.482 8.13 5.14 10.7
5/10/2021 12:30:00 AM 11.76 53.168 0.289 8.12 5.3 10.68
5/10/2021 12:45:00 AM 11.75 53.15 0.262 8.12 5.36 10.65
5/10/2021 1:00:00 AM 11.74 53.132 0.315 8.12 5.31 10.62
5/10/2021 1:15:00 AM 11.72 53.096 0.308 8.11 4.87 10.59
5/10/2021 1:30:00 AM 11.71 53.078 0.259 8.09 5.55 10.55
5/10/2021 1:45:00 AM 11.7 53.06 0.282 8.09 5.41 10.53
5/10/2021 2:00:00 AM 11.68 53.024 0.299 8.08 5.4 10.5
5/10/2021 2:15:00 AM 11.67 53.006 0.3 8.07 5.26 10.47
5/10/2021 2:30:00 AM 11.65 52.97 0.307 8.06 5.55 10.44
5/10/2021 2:45:00 AM 11.64 52.952 0.315 8.06 5.36 10.42
5/10/2021 3:00:00 AM 11.62 52.916 0.261 8.05 5.62 10.39
5/10/2021 3:15:00 AM 11.59 52.862 0.232 8.04 5.85 10.38
5/10/2021 3:30:00 AM 11.57 52.826 0.266 8.03 5.56 10.35
5/10/2021 3:45:00 AM 11.56 52.808 0.303 8.03 5.58 10.34
5/10/2021 4:00:00 AM 11.54 52.772 0.264 8.02 5.41 10.32
5/10/2021 4:15:00 AM 11.52 52.736 0.313 8.01 5.57 10.31
5/10/2021 4:30:00 AM 11.49 52.682 0.296 8 5.72 10.29
5/10/2021 4:45:00 AM 11.47 52.646 0.311 7.99 5.53 10.27
5/10/2021 5:00:00 AM 11.45 52.61 0.311 8 5.69 10.27
5/10/2021 5:15:00 AM 11.43 52.574 0.261 7.99 5.69 10.24
5/10/2021 5:30:00 AM 11.41 52.538 0.291 7.98 5.84 10.24
5/10/2021 5:45:00 AM 11.39 52.502 0.285 7.98 6.48 10.24
5/10/2021 6:00:00 AM 11.37 52.466 0.291 7.98 5.63 10.22
5/10/2021 6:15:00 AM 11.34 52.412 0.307 7.97 5.36 10.23
5/10/2021 6:30:00 AM 11.33 52.394 0.294 7.97 5.24 10.23
5/10/2021 6:45:00 AM 11.32 52.376 0.253 7.97 5.45 10.24
5/10/2021 7:00:00 AM 11.3 52.34 0.308 7.97 5.36 10.27
5/10/2021 7:15:00 AM 11.29 52.322 0.274 7.98 5.43 10.31
5/10/2021 7:30:00 AM 11.28 52.304 0.302 7.97 5.68 10.3
5/10/2021 7:45:00 AM 11.27 52.286 0.298 7.98 5.39 10.3
5/10/2021 8:00:00 AM 11.26 52.268 0.269 7.98 5.64 10.32
5/10/2021 8:15:00 AM 11.26 52.268 0.278 7.98 5.43 10.34
5/10/2021 8:30:00 AM 11.25 52.25 0.294 7.99 5.42 10.32
5/10/2021 8:45:00 AM 11.27 52.286 0.3 7.99 5.41 10.43
5/10/2021 9:00:00 AM 11.32 52.376 0.3 8 5.43 10.51
5/10/2021 9:15:00 AM 11.36 52.448 0.302 8.01 5.16 10.55
5/10/2021 9:30:00 AM 11.31 52.358 0.286 8 5.32 10.49
5/10/2021 9:45:00 AM 11.35 52.43 0.223 8.02 5.26 10.57
5/10/2021 10:00:00 AM 11.45 52.61 0.272 8.03 5.22 10.65
5/10/2021 10:15:00 AM 11.52 52.736 0.286 8.04 5.21 10.68
5/10/2021 10:30:00 AM 11.6 52.88 0.288 8.06 4.99 10.71
5/10/2021 10:45:00 AM 11.58 52.844 0.278 8.05 5.27 10.7
5/10/2021 11:00:00 AM 11.59 52.862 0.294 8.07 5.19 10.74
5/10/2021 11:15:00 AM 11.63 52.934 0.288 8.08 5.21 10.81
5/10/2021 11:30:00 AM 11.7 53.06 0.272 8.1 5.11 10.89
5/10/2021 11:45:00 AM 11.76 53.168 0.272 8.12 5.13 10.94
5/10/2021 12:00:00 PM 11.86 53.348 0.302 8.13 5.35 11
5/10/2021 12:15:00 PM 11.96 53.528 0.298 8.15 5.12 11.03
5/10/2021 12:30:00 PM 12.05 53.69 0.226 8.17 5.4 11.07
5/10/2021 12:45:00 PM 12.05 53.69 0.273 8.17 5.16 11.06
5/10/2021 1:00:00 PM 12.13 53.834 0.294 8.19 5.34 11.11
5/10/2021 1:15:00 PM 12.23 54.014 0.313 8.21 5.17 11.18
5/10/2021 1:30:00 PM 12.29 54.122 0.229 8.22 5.24 11.16
5/10/2021 1:45:00 PM 12.41 54.338 0.299 8.24 5.34 11.23
5/10/2021 2:00:00 PM 12.46 54.428 0.305 8.25 5.57 11.25
5/10/2021 2:15:00 PM 12.55 54.59 0.31 8.27 5.16 11.28
5/10/2021 2:30:00 PM 12.65 54.77 0.301 8.28 5.07 11.33
5/10/2021 2:45:00 PM 12.74 54.932 0.284 8.31 5.35 11.37
5/10/2021 3:00:00 PM 12.8 55.04 0.313 8.33 5.23 11.4
5/10/2021 3:15:00 PM 12.83 55.094 0.297 8.33 5.02 11.36
5/10/2021 3:30:00 PM 13 55.4 0.257 8.36 5.13 11.46
5/10/2021 3:45:00 PM 13.14 55.652 0.3 8.38 5.13 11.5
5/10/2021 4:00:00 PM 13.22 55.796 0.256 8.4 5.03 11.52
5/10/2021 4:15:00 PM 13.27 55.886 0.28 8.42 5.27 11.5
5/10/2021 4:30:00 PM 13.35 56.03 0.243 8.43 5.22 11.53
5/10/2021 4:45:00 PM 13.46 56.228 0.173 8.46 5.48 11.57
5/10/2021 5:00:00 PM 13.54 56.372 0.225 8.47 5.73 11.57
5/10/2021 5:15:00 PM 13.59 56.462 0.225 8.48 5.22 11.58
5/10/2021 5:30:00 PM 13.65 56.57 0.272 8.5 5.76 11.57
5/10/2021 5:45:00 PM 13.69 56.642 0.227 8.5 5.94 11.58
5/10/2021 6:00:00 PM 13.74 56.732 0.217 8.53 5 11.59
5/10/2021 6:15:00 PM 13.78 56.804 0.143 8.53 5.37 11.59
5/10/2021 6:30:00 PM 13.78 56.804 0.274 8.54 5.57 11.57
5/10/2021 6:45:00 PM 13.76 56.768 0.227 8.53 5.83 11.54
5/10/2021 7:00:00 PM 13.74 56.732 0.279 8.54 5.6 11.53
5/10/2021 7:15:00 PM 13.73 56.714 0.249 8.55 5.97 11.53
5/10/2021 7:30:00 PM 13.7 56.66 0.267 8.54 6.27 11.5
5/10/2021 7:45:00 PM 13.66 56.588 0.231 8.54 6.08 11.48
5/10/2021 8:00:00 PM 13.62 56.516 0.436 8.54 5.91 11.45
5/10/2021 8:15:00 PM 13.6 56.48 0.245 8.52 6.58 11.4
5/10/2021 8:30:00 PM 13.59 56.462 0.27 8.51 6.44 11.35
5/10/2021 8:45:00 PM 13.59 56.462 0.25 8.49 6.5 11.33
5/10/2021 9:00:00 PM 13.6 56.48 0.222 8.48 6.56 11.28
5/10/2021 9:15:00 PM 13.61 56.498 0.249 8.47 6.82 11.25
5/10/2021 9:30:00 PM 13.62 56.516 0.249 8.46 6.27 11.2
5/10/2021 9:45:00 PM 13.63 56.534 0.241 8.44 7.29 11.13
5/10/2021 10:00:00 PM 13.64 56.552 0.243 8.43 6.97 11.12
5/10/2021 10:15:00 PM 13.66 56.588 0.236 8.41 6.52 11.06
5/10/2021 10:30:00 PM 13.67 56.606 0.246 8.4 6.67 11.01
5/10/2021 10:45:00 PM 13.68 56.624 0.252 8.38 6.57 10.97
5/10/2021 11:00:00 PM 13.69 56.642 0.26 8.38 6.24 10.9
5/10/2021 11:15:00 PM 13.69 56.642 0.23 8.34 6.66 10.86
5/10/2021 11:30:00 PM 13.69 56.642 0.241 8.34 6.12 10.82
5/10/2021 11:45:00 PM 13.7 56.66 0.215 8.33 6.01 10.77
5/11/2021 12:00:00 AM 13.7 56.66 0.485 8.32 6.25 10.73
5/11/2021 12:15:00 AM 13.7 56.66 0.255 8.3 6.27 10.69
5/11/2021 12:30:00 AM 13.7 56.66 0.273 8.29 6.37 10.64
5/11/2021 12:45:00 AM 13.69 56.642 0.484 8.27 6.31 10.61
5/11/2021 1:00:00 AM 13.68 56.624 0.237 8.26 6.69 10.56
5/11/2021 1:15:00 AM 13.67 56.606 0.255 8.25 6.65 10.51
5/11/2021 1:30:00 AM 13.66 56.588 0.48 8.22 6.31 10.48
5/11/2021 1:45:00 AM 13.64 56.552 0.256 8.22 6.53 10.44
5/11/2021 2:00:00 AM 13.62 56.516 0.215 8.19 6.51 10.39
5/11/2021 2:15:00 AM 13.6 56.48 0.276 8.19 5.96 10.36
5/11/2021 2:30:00 AM 13.58 56.444 0.248 8.18 5.98 10.31
5/11/2021 2:45:00 AM 13.55 56.39 0.278 8.17 6.2 10.27
5/11/2021 3:00:00 AM 13.52 56.336 0.222 8.15 5.78 10.23
5/11/2021 3:15:00 AM 13.49 56.282 0.234 8.13 5.93 10.19
5/11/2021 3:30:00 AM 13.46 56.228 0.152 8.11 6.24 10.16
5/11/2021 3:45:00 AM 13.43 56.174 0.23 8.1 6.31 10.12
5/11/2021 4:00:00 AM 13.38 56.084 0.343 8.08 5.61 10.08
5/11/2021 4:15:00 AM 13.35 56.03 0.206 8.08 6.37 10.04
5/11/2021 4:30:00 AM 13.3 55.94 0.218 8.06 6.33 10.01
5/11/2021 4:45:00 AM 13.25 55.85 0.202 8.07 6.29 9.99
5/11/2021 5:00:00 AM 13.21 55.778 0.165 8.04 6.49 9.97
5/11/2021 5:15:00 AM 13.16 55.688 0.145 8.04 5.95 9.94
5/11/2021 5:30:00 AM 13.11 55.598 0.259 8.03 6.05 9.9
5/11/2021 5:45:00 AM 13.06 55.508 0.347 8.02 5.74 9.89
5/11/2021 6:00:00 AM 13.01 55.418 0.336 7.99 5.9 9.87
5/11/2021 6:15:00 AM 12.96 55.328 0.269 8 6.36 9.87
5/11/2021 6:30:00 AM 12.91 55.238 0.268 7.99 6.33 9.88
5/11/2021 6:45:00 AM 12.86 55.148 0.308 7.99 6.42 9.88
5/11/2021 7:00:00 AM 12.82 55.076 0.306 7.97 6.4 9.88
5/11/2021 7:15:00 AM 12.78 55.004 0.282 7.97 6.32 9.89
5/11/2021 7:30:00 AM 12.74 54.932 0.219 7.97 6.8 9.89
5/11/2021 7:45:00 AM 12.7 54.86 0.427 7.96 6.51 9.9
5/11/2021 8:00:00 AM 12.67 54.806 0.26 7.97 6.79 9.92
5/11/2021 8:15:00 AM 12.64 54.752 0.236 7.96 6.5 9.96
5/11/2021 8:30:00 AM 12.62 54.716 0.3 7.97 6.79 9.98
5/11/2021 8:45:00 AM 12.6 54.68 0.286 7.97 6.11 10.03
5/11/2021 9:00:00 AM 12.6 54.68 0.307 7.98 6.19 10.07
5/11/2021 9:15:00 AM 12.62 54.716 0.3 7.98 6.2 10.12
5/11/2021 9:30:00 AM 12.67 54.806 0.297 7.99 6.06 10.17
5/11/2021 9:45:00 AM 12.72 54.896 0.296 7.99 5.88 10.21
5/11/2021 10:00:00 AM 12.77 54.986 0.26 8 5.41 10.26
5/11/2021 10:15:00 AM 12.81 55.058 0.229 8.01 5.72 10.32
5/11/2021 10:30:00 AM 12.86 55.148 0.311 8.02 6.02 10.38
5/11/2021 10:45:00 AM 12.94 55.292 0.28 8.03 5.8 10.43
5/11/2021 11:00:00 AM 12.99 55.382 0.312 8.03 5.96 10.48
5/11/2021 11:15:00 AM 13.02 55.436 0.303 8.06 5.95 10.54
5/11/2021 11:30:00 AM 13.07 55.526 0.469 8.05 5.4 10.59
5/11/2021 11:45:00 AM 13.14 55.652 0.279 8.07 5.75 10.63
5/11/2021 12:00:00 PM 13.2 55.76 0.259 8.1 5.54 10.69
5/11/2021 12:15:00 PM 13.12 55.616 0.272 8.1 5.52 10.63
5/11/2021 12:30:00 PM 13.12 55.616 0.266 8.12 5.32 10.7
5/11/2021 12:45:00 PM 13.08 55.544 0.299 8.12 5.57 10.7
5/11/2021 1:00:00 PM 13.26 55.868 0.299 8.15 5.39 10.87
5/11/2021 1:15:00 PM 13.24 55.832 0.23 8.15 5.58 10.83
5/11/2021 1:30:00 PM 13.27 55.886 0.418 8.18 5.25 10.94
5/11/2021 1:45:00 PM 13.39 56.102 0.244 8.2 5.54 11.03
5/11/2021 2:00:00 PM 13.5 56.3 0.157 8.22 5.94 11.07
5/11/2021 2:15:00 PM 13.39 56.102 0.309 8.21 5.87 10.97
5/11/2021 2:30:00 PM 13.34 56.012 0.28 8.21 5.71 10.92
5/11/2021 2:45:00 PM 13.33 55.994 0.323 8.22 5.82 10.92
5/11/2021 3:00:00 PM 13.33 55.994 0.233 8.23 5.91 10.98
5/11/2021 3:15:00 PM 13.36 56.048 0.227 8.24 5.96 11.02
5/11/2021 3:30:00 PM 13.49 56.282 0.283 8.27 5.64 11.22
5/11/2021 3:45:00 PM 13.59 56.462 0.226 8.28 5.81 11.23
5/11/2021 4:00:00 PM 13.66 56.588 0.262 8.31 5.98 11.27
5/11/2021 4:15:00 PM 13.74 56.732 0.214 8.33 6.07 11.28
5/11/2021 4:30:00 PM 13.79 56.822 0.249 8.33 5.86 11.3
5/11/2021 4:45:00 PM 13.8 56.84 0.219 8.34 6.42 11.28
5/11/2021 5:00:00 PM 13.76 56.768 0.26 8.36 6.2 11.28
5/11/2021 5:15:00 PM 13.79 56.822 0.263 8.36 6.27 11.33
5/11/2021 5:30:00 PM 13.86 56.948 0.26 8.38 6.32 11.33
5/11/2021 5:45:00 PM 13.92 57.056 0.223 8.38 6.02 11.27
5/11/2021 6:00:00 PM 13.95 57.11 0.175 8.39 5.8 11.24
5/11/2021 6:15:00 PM 13.99 57.182 0.255 8.41 6.02 11.24
5/11/2021 6:30:00 PM 14.03 57.254 0.222 8.41 5.89 11.26
5/11/2021 6:45:00 PM 14.07 57.326 0.161 8.43 6.21 11.29
5/11/2021 7:00:00 PM 14.08 57.344 0.156 8.44 5.98 11.3
5/11/2021 7:15:00 PM 14.09 57.362 0.215 8.45 6.15 11.28
5/11/2021 7:30:00 PM 14.1 57.38 0.162 8.46 6.48 11.29
5/11/2021 7:45:00 PM 14.12 57.416 0.154 8.47 6.89 11.29
5/11/2021 8:00:00 PM 14.12 57.416 0.233 8.46 6.25 11.26
5/11/2021 8:15:00 PM 14.12 57.416 0.144 8.45 6.48 11.22
5/11/2021 8:30:00 PM 14.11 57.398 0.222 8.46 6.6 11.2
5/11/2021 8:45:00 PM 14.09 57.362 0.152 8.46 6.85 11.18
5/11/2021 9:00:00 PM 14.09 57.362 0.208 8.46 7.07 11.15
5/11/2021 9:15:00 PM 14.09 57.362 0.238 8.44 6.85 11.12
5/11/2021 9:30:00 PM 14.09 57.362 0.221 8.41 6.78 11.08
5/11/2021 9:45:00 PM 14.1 57.38 0.218 8.41 6.84 11.04
5/11/2021 10:00:00 PM 14.11 57.398 0.178 8.42 6.59 11.01
5/11/2021 10:15:00 PM 14.11 57.398 0.484 8.41 6.28 10.97
5/11/2021 10:30:00 PM 14.11 57.398 0.257 8.4 6.55 10.93
5/11/2021 10:45:00 PM 14.11 57.398 0.238 8.37 6.01 10.89
5/11/2021 11:00:00 PM 14.11 57.398 0.245 8.36 5.95 10.85
5/11/2021 11:15:00 PM 14.09 57.362 0.177 8.34 6.8 10.81
5/11/2021 11:30:00 PM 14.08 57.344 0.194 8.35 6.38 10.78
5/11/2021 11:45:00 PM 14.07 57.326 0.489 8.32 7.14 10.74
5/12/2021 12:00:00 AM 14.05 57.29 0.49 8.32 6.64 10.7
5/12/2021 12:15:00 AM 14.03 57.254 0.231 8.32 6.8 10.67
5/12/2021 12:30:00 AM 14.01 57.218 0.255 8.32 6.22 10.65
5/12/2021 12:45:00 AM 13.98 57.164 0.241 8.3 6.42 10.61
5/12/2021 1:00:00 AM 13.95 57.11 0.203 8.3 6.46 10.57
5/12/2021 1:15:00 AM 13.92 57.056 0.252 8.28 6.32 10.55
5/12/2021 1:30:00 AM 13.88 56.984 0.161 8.27 6.46 10.51
5/12/2021 1:45:00 AM 13.85 56.93 0.253 8.26 6.35 10.48
5/12/2021 2:00:00 AM 13.83 56.894 0.252 8.25 6.53 10.45
5/12/2021 2:15:00 AM 13.79 56.822 0.252 8.23 6.81 10.4
5/12/2021 2:30:00 AM 13.76 56.768 0.261 8.22 6.59 10.36
5/12/2021 2:45:00 AM 13.72 56.696 0.249 8.2 6.6 10.33
5/12/2021 3:00:00 AM 13.68 56.624 0.198 8.17 6.25 10.3
5/12/2021 3:15:00 AM 13.65 56.57 0.288 8.18 6.81 10.26
5/12/2021 3:30:00 AM 13.6 56.48 0.227 8.16 6.79 10.22
5/12/2021 3:45:00 AM 13.56 56.408 0.449 8.16 6.31 10.19
5/12/2021 4:00:00 AM 13.52 56.336 0.243 8.15 6.65 10.15
5/12/2021 4:15:00 AM 13.47 56.246 0.449 8.13 6.72 10.12
5/12/2021 4:30:00 AM 13.42 56.156 0.236 8.12 7.11 10.08
5/12/2021 4:45:00 AM 13.37 56.066 0.249 8.09 6.91 10.05
5/12/2021 5:00:00 AM 13.31 55.958 0.436 8.09 6.37 10.01
5/12/2021 5:15:00 AM 13.26 55.868 0.203 8.08 6.25 9.98
5/12/2021 5:30:00 AM 13.2 55.76 0.339 8.07 6.56 9.96
5/12/2021 5:45:00 AM 13.15 55.67 0.315 8.05 6.36 9.93
5/12/2021 6:00:00 AM 13.09 55.562 0.294 8.04 6.43 9.91
5/12/2021 6:15:00 AM 13.03 55.454 0.299 8.03 6.58 9.9
5/12/2021 6:30:00 AM 12.97 55.346 0.269 8.02 6.26 9.89
5/12/2021 6:45:00 AM 12.92 55.256 0.265 8.01 6.45 9.9
5/12/2021 7:00:00 AM 12.86 55.148 0.308 8.01 6.24 9.89
5/12/2021 7:15:00 AM 12.8 55.04 0.316 8.01 6.04 9.9
5/12/2021 7:30:00 AM 12.75 54.95 0.292 8 6.37 9.89
5/12/2021 7:45:00 AM 12.7 54.86 0.297 8 6.45 9.91
5/12/2021 8:00:00 AM 12.65 54.77 0.304 8 6.25 9.92
5/12/2021 8:15:00 AM 12.61 54.698 0.308 8 6.67 9.95
5/12/2021 8:30:00 AM 12.56 54.608 0.452 7.99 5.82 9.99
5/12/2021 8:45:00 AM 12.53 54.554 0.28 8 5.77 10.04
5/12/2021 9:00:00 AM 12.52 54.536 0.278 8.01 5.67 10.08
5/12/2021 9:15:00 AM 12.54 54.572 0.303 8 5.94 10.14
5/12/2021 9:30:00 AM 12.57 54.626 0.325 8.01 5.97 10.19
5/12/2021 9:45:00 AM 12.61 54.698 0.279 8.02 6.42 10.24
5/12/2021 10:00:00 AM 12.65 54.77 0.3 8.02 5.53 10.29
5/12/2021 10:15:00 AM 12.69 54.842 0.244 8.04 5.42 10.36
5/12/2021 10:30:00 AM 12.73 54.914 0.335 8.04 5.32 10.42
5/12/2021 10:45:00 AM 12.78 55.004 0.237 8.05 5.81 10.47
5/12/2021 11:00:00 AM 12.82 55.076 0.337 8.06 5.63 10.53
5/12/2021 11:15:00 AM 12.87 55.166 0.297 8.07 5.53 10.58
5/12/2021 11:30:00 AM 12.91 55.238 0.335 8.08 5.23 10.62
5/12/2021 11:45:00 AM 12.97 55.346 0.266 8.09 5.3 10.65
5/12/2021 12:00:00 PM 13.04 55.472 0.339 8.1 5.34 10.71
5/12/2021 12:15:00 PM 13.07 55.526 0.25 8.12 5.64 10.77
5/12/2021 12:30:00 PM 13.09 55.562 0.296 8.13 5.2 10.83
5/12/2021 12:45:00 PM 13.09 55.562 0.264 8.14 4.99 10.84
5/12/2021 1:00:00 PM 13.2 55.76 0.258 8.15 5.17 10.91
5/12/2021 1:15:00 PM 13.24 55.832 0.254 8.16 5.18 10.93
5/12/2021 1:30:00 PM 13.28 55.904 0.301 8.17 5.54 11.02
5/12/2021 1:45:00 PM 13.3 55.94 0.286 8.2 5.58 11.08
5/12/2021 2:00:00 PM 13.38 56.084 0.291 8.23 5.16 11.14
5/12/2021 2:15:00 PM 13.33 55.994 0.298 8.23 4.97 11.08
5/12/2021 2:30:00 PM 13.41 56.138 0.287 8.25 5.22 11.21
5/12/2021 2:45:00 PM 13.51 56.318 0.18 8.27 5.02 11.29
5/12/2021 3:00:00 PM 13.53 56.354 0.302 8.27 5.06 11.26
5/12/2021 3:15:00 PM 13.58 56.444 0.308 8.3 5.08 11.25
5/12/2021 3:30:00 PM 13.68 56.624 0.441 8.32 4.81 11.36
5/12/2021 3:45:00 PM 13.68 56.624 0.489 8.34 4.77 11.3
5/12/2021 4:00:00 PM 13.73 56.714 0.237 8.33 5.09 11.35
5/12/2021 4:15:00 PM 13.79 56.822 0.487 8.35 5 11.38
5/12/2021 4:30:00 PM 13.86 56.948 0.258 8.38 5.69 11.43
5/12/2021 4:45:00 PM 13.94 57.092 0.184 8.39 5.04 11.49
5/12/2021 5:00:00 PM 14.01 57.218 0.154 8.42 5.31 11.54
5/12/2021 5:15:00 PM 13.99 57.182 0.219 8.42 5.24 11.51
5/12/2021 5:30:00 PM 14.02 57.236 0.286 8.43 5.11 11.5
5/12/2021 5:45:00 PM 14.02 57.236 0.296 8.42 5.4 11.44
5/12/2021 6:00:00 PM 14.08 57.344 0.228 8.46 5.41 11.47
5/12/2021 6:15:00 PM 14.11 57.398 0.256 8.47 5.3 11.47
5/12/2021 6:30:00 PM 14.11 57.398 0.247 8.47 5.25 11.46
5/12/2021 6:45:00 PM 14.11 57.398 0.149 8.46 5.32 11.41
5/12/2021 7:00:00 PM 14.12 57.416 0.261 8.48 5.39 11.42
5/12/2021 7:15:00 PM 14.11 57.398 0.268 8.46 5.64 11.42
5/12/2021 7:30:00 PM 14.1 57.38 0.225 8.47 5.66 11.42
5/12/2021 7:45:00 PM 14.09 57.362 0.275 8.46 5.24 11.41
5/12/2021 8:00:00 PM 14.08 57.344 0.209 8.47 5.8 11.39
5/12/2021 8:15:00 PM 14.06 57.308 0.185 8.46 5.8 11.39
5/12/2021 8:30:00 PM 14.04 57.272 0.288 8.47 5.75 11.37
5/12/2021 8:45:00 PM 14.03 57.254 0.265 8.46 5.63 11.34
5/12/2021 9:00:00 PM 14.02 57.236 0.249 8.45 6.05 11.32
5/12/2021 9:15:00 PM 14.02 57.236 0.243 8.43 6.3 11.3
5/12/2021 9:30:00 PM 14.02 57.236 0.244 8.44 6 11.27
5/12/2021 9:45:00 PM 14.03 57.254 0.225 8.41 6.49 11.23
5/12/2021 10:00:00 PM 14.05 57.29 0.515 8.4 6.1 11.19
5/12/2021 10:15:00 PM 14.08 57.344 0.272 8.41 6.5 11.16
5/12/2021 10:30:00 PM 14.1 57.38 0.469 8.4 6.17 11.12
5/12/2021 10:45:00 PM 14.13 57.434 0.275 8.4 6.43 11.08
5/12/2021 11:00:00 PM 14.15 57.47 0.277 8.39 6.08 11.04
5/12/2021 11:15:00 PM 14.18 57.524 0.266 8.38 6.53 10.99
5/12/2021 11:30:00 PM 14.2 57.56 0.236 8.36 6.64 10.95
5/12/2021 11:45:00 PM 14.22 57.596 0.289 8.36 6.57 10.9
5/13/2021 12:00:00 AM 14.24 57.632 0.296 8.35 6.25 10.84
5/13/2021 12:15:00 AM 14.25 57.65 0.276 8.34 6.29 10.8
5/13/2021 12:30:00 AM 14.26 57.668 0.484 8.33 6.67 10.75
5/13/2021 12:45:00 AM 14.27 57.686 0.267 8.32 6.46 10.71
5/13/2021 1:00:00 AM 14.26 57.668 0.255 8.29 6.66 10.65
5/13/2021 1:15:00 AM 14.26 57.668 0.228 8.28 6.47 10.61
5/13/2021 1:30:00 AM 14.26 57.668 0.272 8.27 6.55 10.58
5/13/2021 1:45:00 AM 14.24 57.632 0.267 8.26 6.94 10.53
5/13/2021 2:00:00 AM 14.23 57.614 0.286 8.25 6.57 10.48
5/13/2021 2:15:00 AM 14.21 57.578 0.203 8.25 6.14 10.44
5/13/2021 2:30:00 AM 14.19 57.542 0.271 8.23 6.52 10.4
5/13/2021 2:45:00 AM 14.17 57.506 0.2 8.22 6.33 10.35
5/13/2021 3:00:00 AM 14.14 57.452 0.301 8.21 6.74 10.31
5/13/2021 3:15:00 AM 14.12 57.416 0.28 8.19 6.12 10.26
5/13/2021 3:30:00 AM 14.09 57.362 0.325 8.18 6.04 10.22
5/13/2021 3:45:00 AM 14.06 57.308 0.299 8.17 6.8 10.17
5/13/2021 4:00:00 AM 14.03 57.254 0.31 8.15 6.37 10.13
5/13/2021 4:15:00 AM 13.99 57.182 0.208 8.15 6.25 10.09
5/13/2021 4:30:00 AM 13.96 57.128 0.298 8.13 6.51 10.05
5/13/2021 4:45:00 AM 13.92 57.056 0.275 8.11 6.28 10.01
5/13/2021 5:00:00 AM 13.88 56.984 0.46 8.11 6.11 9.98
5/13/2021 5:15:00 AM 13.84 56.912 0.327 8.09 6.36 9.93
5/13/2021 5:30:00 AM 13.8 56.84 0.297 8.09 6.04 9.91
5/13/2021 5:45:00 AM 13.75 56.75 0.332 8.07 6.26 9.87
5/13/2021 6:00:00 AM 13.71 56.678 0.291 8.06 6.84 9.84
5/13/2021 6:15:00 AM 13.66 56.588 0.29 8.05 6.51 9.83
5/13/2021 6:30:00 AM 13.62 56.516 0.297 8.04 6.56 9.82
5/13/2021 6:45:00 AM 13.57 56.426 0.456 8.03 6.2 9.8
5/13/2021 7:00:00 AM 13.54 56.372 0.272 8.02 6.43 9.8
5/13/2021 7:15:00 AM 13.5 56.3 0.323 8.02 6.68 9.78
5/13/2021 7:30:00 AM 13.46 56.228 0.274 8.01 6.7 9.77
5/13/2021 7:45:00 AM 13.42 56.156 0.32 8.01 6.22 9.78
5/13/2021 8:00:00 AM 13.39 56.102 0.332 8.01 6.32 9.79
5/13/2021 8:15:00 AM 13.36 56.048 0.344 8 6.48 9.82
5/13/2021 8:30:00 AM 13.34 56.012 0.3 8 6.07 9.83
5/13/2021 8:45:00 AM 13.33 55.994 0.319 8 5.97 9.89
5/13/2021 9:00:00 AM 13.32 55.976 0.316 8 6.29 9.91
5/13/2021 9:15:00 AM 13.34 56.012 0.311 8 6.36 9.97
5/13/2021 9:30:00 AM 13.38 56.084 0.321 8 5.85 10.03
5/13/2021 9:45:00 AM 13.42 56.156 0.312 8.02 5.75 10.08
5/13/2021 10:00:00 AM 13.47 56.246 0.308 8.02 5.94 10.13
5/13/2021 10:15:00 AM 13.51 56.318 0.327 8.03 5.78 10.19
5/13/2021 10:30:00 AM 13.56 56.408 0.252 8.04 6.3 10.25
5/13/2021 10:45:00 AM 13.59 56.462 0.284 8.05 6.1 10.32
5/13/2021 11:00:00 AM 13.64 56.552 0.308 8.06 6.11 10.39
5/13/2021 11:15:00 AM 13.68 56.624 0.268 8.05 5.91 10.44
5/13/2021 11:30:00 AM 13.72 56.696 0.296 8.08 5.89 10.49
5/13/2021 11:45:00 AM 13.77 56.786 0.258 8.09 5.82 10.55
5/13/2021 12:00:00 PM 13.79 56.822 0.341 8.1 5.92 10.58
5/13/2021 12:15:00 PM 13.81 56.858 0.321 8.09 5.59 10.61
5/13/2021 12:30:00 PM 13.82 56.876 0.309 8.12 5.49 10.64
5/13/2021 12:45:00 PM 13.84 56.912 0.309 8.12 5.77 10.69
5/13/2021 1:00:00 PM 13.93 57.074 0.316 8.15 5.71 10.78
5/13/2021 1:15:00 PM 14 57.2 0.324 8.16 5.82 10.83
5/13/2021 1:30:00 PM 14.03 57.254 0.279 8.18 6.33 10.86
5/13/2021 1:45:00 PM 14.02 57.236 0.278 8.19 5.62 10.88
5/13/2021 2:00:00 PM 14.07 57.326 0.26 8.21 5.82 10.96
5/13/2021 2:15:00 PM 14.11 57.398 0.278 8.23 5.48 11.05
5/13/2021 2:30:00 PM 14.11 57.398 0.46 8.24 5.48 11.08
5/13/2021 2:45:00 PM 14.17 57.506 0.246 8.26 5.69 11.18
5/13/2021 3:00:00 PM 14.17 57.506 0.24 8.26 5.78 11.08
5/13/2021 3:15:00 PM 14.18 57.524 0.313 8.27 5.69 11.12
5/13/2021 3:30:00 PM 14.21 57.578 0.332 8.29 5.54 11.16
5/13/2021 3:45:00 PM 14.32 57.776 0.309 8.31 5.7 11.26
5/13/2021 4:00:00 PM 14.31 57.758 0.443 8.32 5.51 11.27
5/13/2021 4:15:00 PM 14.36 57.848 0.272 8.34 5.6 11.25
5/13/2021 4:30:00 PM 14.4 57.92 0.282 8.33 5.77 11.1
5/13/2021 4:45:00 PM 14.43 57.974 0.267 8.34 5.65 11.12
5/13/2021 5:00:00 PM 14.44 57.992 0.455 8.35 5.31 11.18
5/13/2021 5:15:00 PM 14.41 57.938 0.313 8.37 5.74 11.22
5/13/2021 5:30:00 PM 14.44 57.992 0.251 8.39 5.6 11.36
5/13/2021 5:45:00 PM 14.48 58.064 0.299 8.4 5.46 11.36
5/13/2021 6:00:00 PM 14.48 58.064 0.499 8.41 5.11 11.35
5/13/2021 6:15:00 PM 14.52 58.136 0.3 8.43 5.63 11.4
5/13/2021 6:30:00 PM 14.53 58.154 0.198 8.43 5.98 11.36
5/13/2021 6:45:00 PM 14.52 58.136 0.282 8.44 6.05 11.37
5/13/2021 7:00:00 PM 14.52 58.136 0.183 8.45 5.77 11.37
5/13/2021 7:15:00 PM 14.5 58.1 0.229 8.44 5.86 11.32
5/13/2021 7:30:00 PM 14.49 58.082 0.224 8.44 5.73 11.31
5/13/2021 7:45:00 PM 14.48 58.064 0.18 8.44 6.22 11.28
5/13/2021 8:00:00 PM 14.48 58.064 0.196 8.43 6.01 11.25
5/13/2021 8:15:00 PM 14.47 58.046 0.207 8.43 6.47 11.23
5/13/2021 8:30:00 PM 14.48 58.064 0.251 8.43 6.53 11.22
5/13/2021 8:45:00 PM 14.5 58.1 0.204 8.42 6.4 11.2
5/13/2021 9:00:00 PM 14.51 58.118 0.174 8.42 7.11 11.18
5/13/2021 9:15:00 PM 14.53 58.154 0.269 8.43 6.78 11.18
5/13/2021 9:30:00 PM 14.56 58.208 0.237 8.42 6.75 11.14
5/13/2021 9:45:00 PM 14.59 58.262 0.286 8.42 7.18 11.12
5/13/2021 10:00:00 PM 14.61 58.298 0.259 8.42 6.49 11.1
5/13/2021 10:15:00 PM 14.63 58.334 0.255 8.42 6.42 11.06
5/13/2021 10:30:00 PM 14.66 58.388 0.243 8.41 6.34 11.02
5/13/2021 10:45:00 PM 14.69 58.442 0.448 8.4 6.42 10.99
5/13/2021 11:00:00 PM 14.71 58.478 0.245 8.4 6.59 10.95
5/13/2021 11:15:00 PM 14.73 58.514 0.273 8.4 6.5 10.91
5/13/2021 11:30:00 PM 14.76 58.568 0.161 8.38 6.68 10.86
5/13/2021 11:45:00 PM 14.78 58.604 0.213 8.37 7.06 10.82
5/14/2021 12:00:00 AM 14.81 58.658 0.265 8.37 6.73 10.76
5/14/2021 12:15:00 AM 14.84 58.712 0.232 8.35 7 10.72
5/14/2021 12:30:00 AM 14.86 58.748 0.455 8.34 6.75 10.68
5/14/2021 12:45:00 AM 14.87 58.766 0.25 8.33 6.5 10.63
5/14/2021 1:00:00 AM 14.88 58.784 0.279 8.32 7.05 10.58
5/14/2021 1:15:00 AM 14.88 58.784 0.506 8.31 6.29 10.54
5/14/2021 1:30:00 AM 14.88 58.784 0.46 8.31 6.3 10.49
5/14/2021 1:45:00 AM 14.87 58.766 0.246 8.29 6.53 10.46
5/14/2021 2:00:00 AM 14.86 58.748 0.252 8.27 6.8 10.41
5/14/2021 2:15:00 AM 14.86 58.748 0.44 8.27 10.86 10.36
5/14/2021 2:30:00 AM 14.84 58.712 0.436 8.25 6.68 10.31
5/14/2021 2:45:00 AM 14.83 58.694 0.261 8.24 6.67 10.27
5/14/2021 3:00:00 AM 14.82 58.676 0.511 8.22 6.59 10.22
5/14/2021 3:15:00 AM 14.8 58.64 0.516 8.21 6.81 10.18
5/14/2021 3:30:00 AM 14.78 58.604 0.306 8.19 6.8 10.13
5/14/2021 3:45:00 AM 14.76 58.568 0.468 8.18 6.94 10.09
5/14/2021 4:00:00 AM 14.73 58.514 0.282 8.18 6.99 10.05
5/14/2021 4:15:00 AM 14.7 58.46 0.265 8.16 7.01 10
5/14/2021 4:30:00 AM 14.67 58.406 0.216 8.14 6.46 9.96
5/14/2021 4:45:00 AM 14.64 58.352 0.221 8.13 6.58 9.92
5/14/2021 5:00:00 AM 14.61 58.298 0.228 8.12 6.77 9.89
5/14/2021 5:15:00 AM 14.58 58.244 0.256 8.11 6.58 9.84
5/14/2021 5:30:00 AM 14.54 58.172 0.186 8.08 6.84 9.8
5/14/2021 5:45:00 AM 14.5 58.1 0.219 8.08 7 9.76
5/14/2021 6:00:00 AM 14.47 58.046 0.222 8.06 8.24 9.73
5/14/2021 6:15:00 AM 14.43 57.974 0.283 8.07 6.66 9.71
5/14/2021 6:30:00 AM 14.39 57.902 0.197 8.05 7.12 9.7
5/14/2021 6:45:00 AM 14.36 57.848 0.472 8.04 6.65 9.68
5/14/2021 7:00:00 AM 14.32 57.776 0.223 8.03 7.22 9.66
5/14/2021 7:15:00 AM 14.29 57.722 0.522 8.03 6.88 9.65
5/14/2021 7:30:00 AM 14.25 57.65 0.271 8.03 7.42 9.63
5/14/2021 7:45:00 AM 14.23 57.614 0.256 8.02 7.93 9.63
5/14/2021 8:00:00 AM 14.2 57.56 0.471 8.01 6.57 9.63
5/14/2021 8:15:00 AM 14.19 57.542 0.226 8.01 6.83 9.66
5/14/2021 8:30:00 AM 14.17 57.506 0.265 8.01 7.16 9.69
5/14/2021 8:45:00 AM 14.17 57.506 0.471 8 6.6 9.73
5/14/2021 9:00:00 AM 14.17 57.506 0.324 8 6.24 9.77
5/14/2021 9:15:00 AM 14.21 57.578 0.25 8.01 6.58 9.82
5/14/2021 9:30:00 AM 14.25 57.65 0.312 8.01 6.41 9.87
5/14/2021 9:45:00 AM 14.3 57.74 0.256 8.02 6.1 9.91
5/14/2021 10:00:00 AM 14.36 57.848 0.305 8.03 6.61 9.97
5/14/2021 10:15:00 AM 14.4 57.92 0.47 8.03 5.8 10.02
5/14/2021 10:30:00 AM 14.45 58.01 0.296 8.05 6.27 10.08
5/14/2021 10:45:00 AM 14.55 58.19 0.282 8.05 6.02 10.14
5/14/2021 11:00:00 AM 14.65 58.37 0.26 8.06 5.92 10.2
5/14/2021 11:15:00 AM 14.73 58.514 0.23 8.07 5.57 10.24
5/14/2021 11:30:00 AM 14.72 58.496 0.281 8.08 5.38 10.3
5/14/2021 11:45:00 AM 14.73 58.514 0.277 8.09 5.64 10.37
5/14/2021 12:00:00 PM 14.81 58.658 0.252 8.1 6.05 10.43
5/14/2021 12:15:00 PM 14.9 58.82 0.258 8.12 5.92 10.51
5/14/2021 12:30:00 PM 14.8 58.64 0.191 8.12 5.94 10.36
5/14/2021 12:45:00 PM 14.64 58.352 0.288 8.11 6.1 10.25
5/14/2021 1:00:00 PM 14.62 58.316 0.311 8.12 5.93 10.42
5/14/2021 1:15:00 PM 14.6 58.28 0.467 8.13 5.59 10.45
5/14/2021 1:30:00 PM 14.54 58.172 0.453 8.13 5.59 10.43
5/14/2021 1:45:00 PM 14.63 58.334 0.279 8.16 6.2 10.63
5/14/2021 2:00:00 PM 14.65 58.37 0.248 8.17 5.81 10.65
5/14/2021 2:15:00 PM 14.74 58.532 0.268 8.2 5.61 10.8
5/14/2021 2:30:00 PM 14.96 58.928 0.249 8.22 6.36 10.9
5/14/2021 2:45:00 PM 15.04 59.072 0.253 8.24 6.26 10.91
5/14/2021 3:00:00 PM 15.06 59.108 0.467 8.26 5.61 10.95
5/14/2021 3:15:00 PM 15.1 59.18 0.181 8.27 5.95 11.04
5/14/2021 3:30:00 PM 15.01 59.018 0.274 8.28 6.1 10.95
5/14/2021 3:45:00 PM 14.95 58.91 0.279 8.28 6.15 11.03
5/14/2021 4:00:00 PM 15 59 0.25 8.3 6.26 11.09
5/14/2021 4:15:00 PM 15.05 59.09 0.28 8.3 6.19 10.98
5/14/2021 4:30:00 PM 15.03 59.054 0.186 8.3 6.01 10.96
5/14/2021 4:45:00 PM 15.16 59.288 0.29 8.33 6 11.1
5/14/2021 5:00:00 PM 15.24 59.432 0.264 8.35 5.93 11.13
5/14/2021 5:15:00 PM 15.24 59.432 0.278 8.36 6.03 11.09
5/14/2021 5:30:00 PM 15.27 59.486 0.259 8.36 5.86 11.13
5/14/2021 5:45:00 PM 15.31 59.558 0.514 8.38 5.24 11.09
5/14/2021 6:00:00 PM 15.4 59.72 0.271 8.4 5.59 11.14
5/14/2021 6:15:00 PM 15.5 59.9 0.226 8.43 5.72 11.24
5/14/2021 6:30:00 PM 15.54 59.972 0.255 8.44 6.2 11.24
5/14/2021 6:45:00 PM 15.55 59.99 0.28 8.45 5.52 11.24
5/14/2021 7:00:00 PM 15.56 60.008 0.272 8.46 6.06 11.25
5/14/2021 7:15:00 PM 15.55 59.99 0.286 8.47 5.93 11.21
5/14/2021 7:30:00 PM 15.53 59.954 0.274 8.46 5.79 11.16
5/14/2021 7:45:00 PM 15.5 59.9 0.264 8.46 5.79 11.13
5/14/2021 8:00:00 PM 15.5 59.9 0.204 8.46 6.23 11.12
5/14/2021 8:15:00 PM 15.49 59.882 0.467 8.46 5.51 11.1
5/14/2021 8:30:00 PM 15.46 59.828 0.227 8.44 6.36 11.09
5/14/2021 8:45:00 PM 15.45 59.81 0.468 8.45 5.91 11.07
5/14/2021 9:00:00 PM 15.45 59.81 0.277 8.44 6.64 11.04
5/14/2021 9:15:00 PM 15.45 59.81 0.468 8.43 6.48 11.02
5/14/2021 9:30:00 PM 15.46 59.828 0.235 8.43 7.08 11
5/14/2021 9:45:00 PM 15.47 59.846 0.469 8.43 6.55 10.97
5/14/2021 10:00:00 PM 15.48 59.864 0.265 8.42 7.38 10.95
5/14/2021 10:15:00 PM 15.49 59.882 0.223 8.41 7.04 10.92
5/14/2021 10:30:00 PM 15.51 59.918 0.265 8.4 7.51 10.88
5/14/2021 10:45:00 PM 15.54 59.972 0.271 8.4 7.31 10.83
5/14/2021 11:00:00 PM 15.56 60.008 0.47 8.38 7.2 10.79
5/14/2021 11:15:00 PM 15.58 60.044 0.272 8.38 6.86 10.74
5/14/2021 11:30:00 PM 15.6 60.08 0.255 8.36 6.7 10.7
5/14/2021 11:45:00 PM 15.62 60.116 0.265 8.36 7.17 10.65
5/15/2021 12:00:00 AM 15.64 60.152 0.18 8.35 7.72 10.6
5/15/2021 12:15:00 AM 15.66 60.188 0.186 8.34 7.39 10.56
5/15/2021 12:30:00 AM 15.68 60.224 0.2 8.33 6.92 10.51
5/15/2021 12:45:00 AM 15.7 60.26 0.182 8.32 6.77 10.48
5/15/2021 1:00:00 AM 15.71 60.278 0.279 8.32 7.09 10.44
5/15/2021 1:15:00 AM 15.72 60.296 0.231 8.3 6.84 10.4
5/15/2021 1:30:00 AM 15.72 60.296 0.298 8.29 7.07 10.34
5/15/2021 1:45:00 AM 15.73 60.314 0.237 8.28 7.68 10.31
5/15/2021 2:00:00 AM 15.73 60.314 0.233 8.27 5.29 10.26
5/15/2021 2:15:00 AM 15.73 60.314 0.239 8.26 7.37 10.22
5/15/2021 2:30:00 AM 15.73 60.314 0.297 8.25 7.14 10.17
5/15/2021 2:45:00 AM 15.72 60.296 0.274 8.24 7.09 10.13
5/15/2021 3:00:00 AM 15.71 60.278 0.302 8.23 7.05 10.07
5/15/2021 3:15:00 AM 15.71 60.278 0.249 8.22 7.64 10.03
5/15/2021 3:30:00 AM 15.7 60.26 0.302 8.21 7.2 9.99
5/15/2021 3:45:00 AM 15.68 60.224 0.206 8.2 7.35 9.94
5/15/2021 4:00:00 AM 15.66 60.188 0.228 8.18 6.16 9.89
5/15/2021 4:15:00 AM 15.64 60.152 0.197 8.17 7.22 9.86
5/15/2021 4:30:00 AM 15.62 60.116 0.273 8.16 7.39 9.81
5/15/2021 4:45:00 AM 15.6 60.08 0.273 8.14 7.82 9.75
5/15/2021 5:00:00 AM 15.57 60.026 0.244 8.12 8.07 9.72
5/15/2021 5:15:00 AM 15.54 59.972 0.231 8.11 7.54 9.67
5/15/2021 5:30:00 AM 15.52 59.936 0.482 8.1 8.61 9.63
5/15/2021 5:45:00 AM 15.48 59.864 0.265 8.08 7.69 9.58
5/15/2021 6:00:00 AM 15.45 59.81 0.281 8.07 7.35 9.54
5/15/2021 6:15:00 AM 15.42 59.756 0.291 8.07 7.21 9.52
5/15/2021 6:30:00 AM 15.38 59.684 0.212 8.05 7.28 9.49
5/15/2021 6:45:00 AM 15.35 59.63 0.246 8.04 7.01 9.48
5/15/2021 7:00:00 AM 15.32 59.576 0.272 8.04 7.02 9.46
5/15/2021 7:15:00 AM 15.29 59.522 0.267 8.03 6.89 9.45
5/15/2021 7:30:00 AM 15.26 59.468 0.238 8.02 6.98 9.43
5/15/2021 7:45:00 AM 15.23 59.414 0.242 8.02 7.06 9.42
5/15/2021 8:00:00 AM 15.21 59.378 0.267 8.02 6.58 9.43
5/15/2021 8:15:00 AM 15.19 59.342 0.242 8.01 7.25 9.44
5/15/2021 8:30:00 AM 15.18 59.324 0.226 8.01 7.03 9.47
5/15/2021 8:45:00 AM 15.18 59.324 0.222 8.01 6.51 9.5
5/15/2021 9:00:00 AM 15.18 59.324 0.294 8.01 7.12 9.54
5/15/2021 9:15:00 AM 15.21 59.378 0.261 8 6.74 9.6
5/15/2021 9:30:00 AM 15.26 59.468 0.198 8.01 6.76 9.64
5/15/2021 9:45:00 AM 15.31 59.558 0.258 8.02 6.82 9.69
5/15/2021 10:00:00 AM 15.35 59.63 0.288 8.03 6.3 9.74
5/15/2021 10:15:00 AM 15.41 59.738 0.212 8.04 6.37 9.8
5/15/2021 10:30:00 AM 15.46 59.828 0.263 8.04 6.83 9.85
5/15/2021 10:45:00 AM 15.59 60.062 0.305 8.05 7.35 9.91
5/15/2021 11:00:00 AM 15.74 60.332 0.24 8.06 7.44 9.96
5/15/2021 11:15:00 AM 15.81 60.458 0.23 8.07 7.26 9.99
5/15/2021 11:30:00 AM 15.84 60.512 0.261 8.08 7.34 10.08
5/15/2021 11:45:00 AM 15.87 60.566 0.46 8.1 6.95 10.14
5/15/2021 12:00:00 PM 15.9 60.62 0.473 8.11 6.26 10.19
5/15/2021 12:15:00 PM 15.85 60.53 0.283 8.11 7.07 10.12
5/15/2021 12:30:00 PM 15.75 60.35 0.27 8.11 6.66 10.15
5/15/2021 12:45:00 PM 15.81 60.458 0.233 8.13 6.91 10.36
5/15/2021 1:00:00 PM 15.88 60.584 0.472 8.15 6.6 10.43
5/15/2021 1:15:00 PM 15.76 60.368 0.255 8.12 6.99 10.17
5/15/2021 1:30:00 PM 15.73 60.314 0.22 8.14 7.07 10.29
5/15/2021 1:45:00 PM 15.83 60.494 0.313 8.18 8.58 10.54
5/15/2021 2:00:00 PM 15.89 60.602 0.235 8.2 7.45 10.64
5/15/2021 2:15:00 PM 15.91 60.638 0.29 8.22 8.69 10.72
5/15/2021 2:30:00 PM 15.83 60.494 0.227 8.22 7.54 10.71
5/15/2021 2:45:00 PM 15.87 60.566 0.292 8.24 7.18 10.76
5/15/2021 3:00:00 PM 15.83 60.494 0.23 8.24 6.51 10.71
5/15/2021 3:15:00 PM 15.84 60.512 0.455 8.25 7.04 10.71
5/15/2021 3:30:00 PM 15.84 60.512 0.469 8.24 6.25 10.62
5/15/2021 3:45:00 PM 15.92 60.656 0.454 8.28 6.52 10.8
5/15/2021 4:00:00 PM 16.04 60.872 0.235 8.3 6.74 10.94
5/15/2021 4:15:00 PM 16.07 60.926 0.223 8.32 7.17 10.93
5/15/2021 4:30:00 PM 16.16 61.088 0.258 8.34 6.26 10.96
5/15/2021 4:45:00 PM 16.16 61.088 0.274 8.34 6.69 10.9
5/15/2021 5:00:00 PM 16.14 61.052 0.278 8.37 6.52 11
5/15/2021 5:15:00 PM 16.15 61.07 0.259 8.37 6.38 11.05
5/15/2021 5:30:00 PM 16.1 60.98 0.216 8.38 6.98 11.02
5/15/2021 5:45:00 PM 16.09 60.962 0.203 8.4 7.15 11.04
5/15/2021 6:00:00 PM 16.11 60.998 0.239 8.4 6.9 11.06
5/15/2021 6:15:00 PM 16.14 61.052 0.27 8.42 6.4 11.03
5/15/2021 6:30:00 PM 16.2 61.16 0.272 8.42 6.79 11
5/15/2021 6:45:00 PM 16.23 61.214 0.468 8.43 6.15 11.03
5/15/2021 7:00:00 PM 16.24 61.232 0.263 8.43 6.65 11.04
5/15/2021 7:15:00 PM 16.23 61.214 0.258 8.45 6.56 11.02
5/15/2021 7:30:00 PM 16.2 61.16 0.467 8.44 6.1 10.99
5/15/2021 7:45:00 PM 16.19 61.142 0.252 8.44 6.6 10.97
5/15/2021 8:00:00 PM 16.18 61.124 0.229 8.45 6.71 10.95
5/15/2021 8:15:00 PM 16.17 61.106 0.515 8.44 6.07 10.93
5/15/2021 8:30:00 PM 16.14 61.052 0.272 8.44 6.83 10.91
5/15/2021 8:45:00 PM 16.13 61.034 0.23 8.43 7.2 10.89
5/15/2021 9:00:00 PM 16.12 61.016 0.28 8.43 6.87 10.87
5/15/2021 9:15:00 PM 16.13 61.034 0.26 8.42 7.19 10.85
5/15/2021 9:30:00 PM 16.14 61.052 0.273 8.42 6.93 10.83
5/15/2021 9:45:00 PM 16.16 61.088 0.229 8.41 7.31 10.8
5/15/2021 10:00:00 PM 16.19 61.142 0.278 8.41 6.93 10.77
5/15/2021 10:15:00 PM 16.21 61.178 0.224 8.39 7.3 10.76
5/15/2021 10:30:00 PM 16.24 61.232 0.283 8.41 7.5 10.72
5/15/2021 10:45:00 PM 16.27 61.286 0.261 8.39 6.67 10.68
5/15/2021 11:00:00 PM 16.32 61.376 0.23 8.39 6.77 10.63
5/15/2021 11:15:00 PM 16.36 61.448 0.274 8.39 6.89 10.59
5/15/2021 11:30:00 PM 16.4 61.52 0.235 8.37 7.32 10.55
5/15/2021 11:45:00 PM 16.44 61.592 0.464 8.37 7 10.51
5/16/2021 12:00:00 AM 16.48 61.664 0.207 8.37 7.6 10.47
5/16/2021 12:15:00 AM 16.52 61.736 0.23 8.35 7.78 10.43
5/16/2021 12:30:00 AM 16.55 61.79 0.292 8.35 6.05 10.39
5/16/2021 12:45:00 AM 16.58 61.844 0.465 8.36 7.69 10.36
5/16/2021 1:00:00 AM 16.61 61.898 0.221 8.34 8.17 10.32
5/16/2021 1:15:00 AM 16.64 61.952 0.232 8.33 7.76 10.28
5/16/2021 1:30:00 AM 16.66 61.988 0.273 8.33 7.91 10.24
5/16/2021 1:45:00 AM 16.67 62.006 0.224 8.3 8.39 10.2
5/16/2021 2:00:00 AM 16.69 62.042 0.292 8.3 8.09 10.16
5/16/2021 2:15:00 AM 16.7 62.06 0.254 8.29 8.28 10.11
5/16/2021 2:30:00 AM 16.7 62.06 0.281 8.28 6.89 10.08
5/16/2021 2:45:00 AM 16.7 62.06 0.224 8.27 6.22 10.02
5/16/2021 3:00:00 AM 16.7 62.06 0.222 8.27 7.99 9.98
5/16/2021 3:15:00 AM 16.69 62.042 0.279 8.26 8.1 9.94
5/16/2021 3:30:00 AM 16.69 62.042 0.269 8.25 8.09 9.89
5/16/2021 3:45:00 AM 16.69 62.042 0.18 8.22 8.27 9.85
5/16/2021 4:00:00 AM 16.67 62.006 0.271 8.22 7.74 9.79
5/16/2021 4:15:00 AM 16.66 61.988 0.188 8.2 8.06 9.75
5/16/2021 4:30:00 AM 16.64 61.952 0.186 8.18 7.16 9.7
5/16/2021 4:45:00 AM 16.61 61.898 0.26 8.17 8.26 9.65
5/16/2021 5:00:00 AM 16.59 61.862 0.27 8.16 8.08 9.61
5/16/2021 5:15:00 AM 16.56 61.808 0.203 8.15 8.18 9.55
5/16/2021 5:30:00 AM 16.53 61.754 0.206 8.13 6.09 9.51
5/16/2021 5:45:00 AM 16.5 61.7 0.26 8.11 6.94 9.47
5/16/2021 6:00:00 AM 16.47 61.646 0.232 8.1 7.72 9.43
5/16/2021 6:15:00 AM 16.45 61.61 0.284 8.09 8.07 9.4
5/16/2021 6:30:00 AM 16.43 61.574 0.19 8.08 7.96 9.39
5/16/2021 6:45:00 AM 16.41 61.538 0.476 8.08 7.31 9.38
5/16/2021 7:00:00 AM 16.39 61.502 0.303 8.06 6.35 9.37
5/16/2021 7:15:00 AM 16.37 61.466 0.463 8.06 7.36 9.37
5/16/2021 7:30:00 AM 16.35 61.43 0.233 8.05 7.26 9.38
5/16/2021 7:45:00 AM 16.34 61.412 0.285 8.06 6.62 9.39
5/16/2021 8:00:00 AM 16.33 61.394 0.237 8.04 7.94 9.41
5/16/2021 8:15:00 AM 16.33 61.394 0.465 8.04 7.49 9.4
5/16/2021 8:30:00 AM 16.31 61.358 0.229 8.03 7.74 9.38
5/16/2021 8:45:00 AM 16.3 61.34 0.276 8.03 5.62 9.36
5/16/2021 9:00:00 AM 16.28 61.304 0.482 8.03 7.45 9.36
5/16/2021 9:15:00 AM 16.27 61.286 0.253 8.01 7.47 9.36
5/16/2021 9:30:00 AM 16.26 61.268 0.48 8.02 7.1 9.38
5/16/2021 9:45:00 AM 16.25 61.25 0.238 8.02 7.4 9.42
5/16/2021 10:00:00 AM 16.23 61.214 0.291 8.02 7.46 9.38
5/16/2021 10:15:00 AM 16.22 61.196 0.221 8.01 7.41 9.37
5/16/2021 10:30:00 AM 16.21 61.178 0.276 8.02 7.11 9.41
5/16/2021 10:45:00 AM 16.2 61.16 0.269 8.03 6.71 9.47
5/16/2021 11:00:00 AM 16.21 61.178 0.272 8.02 8 9.57
5/16/2021 11:15:00 AM 16.24 61.232 0.243 8.04 7.72 9.7
5/16/2021 11:30:00 AM 16.24 61.232 0.264 8.05 5.84 9.71
5/16/2021 11:45:00 AM 16.22 61.196 0.465 8.06 7.6 9.69
5/16/2021 12:00:00 PM 16.23 61.214 0.273 8.07 7.48 9.81
5/16/2021 12:15:00 PM 16.23 61.214 0.267 8.08 7.09 9.82
5/16/2021 12:30:00 PM 16.23 61.214 0.243 8.07 7.29 9.87
5/16/2021 12:45:00 PM 16.24 61.232 0.234 8.1 7.21 9.97
5/16/2021 1:00:00 PM 16.23 61.214 0.296 8.1 7.44 9.97
5/16/2021 1:15:00 PM 16.25 61.25 0.187 8.11 6.77 10.06
5/16/2021 1:30:00 PM 16.24 61.232 0.301 8.12 7.25 10.04
5/16/2021 1:45:00 PM 16.26 61.268 0.218 8.14 7.11 10.17
5/16/2021 2:00:00 PM 16.29 61.322 0.275 8.16 5.46 10.3
5/16/2021 2:15:00 PM 16.31 61.358 0.238 8.17 7.48 10.33
5/16/2021 2:30:00 PM 16.32 61.376 0.462 8.17 6.04 10.35
5/16/2021 2:45:00 PM 16.29 61.322 0.243 8.18 7.57 10.43
5/16/2021 3:00:00 PM 16.29 61.322 0.23 8.2 7.26 10.51
5/16/2021 3:15:00 PM 16.23 61.214 0.239 8.19 7.29 10.4
5/16/2021 3:30:00 PM 16.16 61.088 0.298 8.2 7.09 10.38
5/16/2021 3:45:00 PM 16.11 60.998 0.238 8.19 7.19 10.32
5/16/2021 4:00:00 PM 16.1 60.98 0.302 8.2 7.02 10.35
5/16/2021 4:15:00 PM 16.09 60.962 0.264 8.19 7.33 10.33
5/16/2021 4:30:00 PM 16.09 60.962 0.462 8.2 7.02 10.26
5/16/2021 4:45:00 PM 16.07 60.926 0.23 8.2 4.85 10.26
5/16/2021 5:00:00 PM 16.03 60.854 0.301 8.21 6.76 10.29
5/16/2021 5:15:00 PM 16 60.8 0.261 8.23 6.48 10.4
5/16/2021 5:30:00 PM 15.97 60.746 0.259 8.25 4.82 10.46
5/16/2021 5:45:00 PM 15.94 60.692 0.226 8.25 6.59 10.54
5/16/2021 6:00:00 PM 15.92 60.656 0.298 8.27 5.01 10.56
5/16/2021 6:15:00 PM 15.89 60.602 0.237 8.27 7.03 10.57
5/16/2021 6:30:00 PM 15.86 60.548 0.461 8.28 6.41 10.56
5/16/2021 6:45:00 PM 15.82 60.476 0.264 8.28 6.48 10.58
5/16/2021 7:00:00 PM 15.77 60.386 0.304 8.28 5.57 10.58
5/16/2021 7:15:00 PM 15.73 60.314 0.475 8.28 6.73 10.56
5/16/2021 7:30:00 PM 15.69 60.242 0.235 8.27 7 10.49
5/16/2021 7:45:00 PM 15.66 60.188 0.229 8.26 7.19 10.47
5/16/2021 8:00:00 PM 15.63 60.134 0.298 8.25 6.9 10.45
5/16/2021 8:15:00 PM 15.61 60.098 0.266 8.26 7.32 10.43
5/16/2021 8:30:00 PM 15.6 60.08 0.267 8.25 5.95 10.42
5/16/2021 8:45:00 PM 15.58 60.044 0.237 8.24 6.22 10.41
5/16/2021 9:00:00 PM 15.58 60.044 0.281 8.24 6.1 10.41
5/16/2021 9:15:00 PM 15.57 60.026 0.236 8.24 6.69 10.41
5/16/2021 9:30:00 PM 15.57 60.026 0.289 8.24 6.59 10.42
5/16/2021 9:45:00 PM 15.56 60.008 0.282 8.25 5.69 10.42
5/16/2021 10:00:00 PM 15.56 60.008 0.279 8.25 7.81 10.43
5/16/2021 10:15:00 PM 15.56 60.008 0.216 8.25 8.03 10.43
5/16/2021 10:30:00 PM 15.55 59.99 0.272 8.25 7.76 10.43
5/16/2021 10:45:00 PM 15.56 60.008 0.257 8.25 6.5 10.42
5/16/2021 11:00:00 PM 15.55 59.99 0.296 8.24 6.22 10.42
5/16/2021 11:15:00 PM 15.56 60.008 0.281 8.25 6.38 10.39
5/16/2021 11:30:00 PM 15.57 60.026 0.236 8.25 7.89 10.39
5/16/2021 11:45:00 PM 15.58 60.044 0.298 8.25 7.76 10.38
5/17/2021 12:00:00 AM 15.58 60.044 0.257 8.23 7.11 10.37
5/17/2021 12:15:00 AM 15.59 60.062 0.292 8.24 6.43 10.36
5/17/2021 12:30:00 AM 15.59 60.062 0.278 8.24 6.34 10.36
5/17/2021 12:45:00 AM 15.59 60.062 0.223 8.24 6.15 10.33
5/17/2021 1:00:00 AM 15.58 60.044 0.269 8.25 6.26 10.31
5/17/2021 1:15:00 AM 15.58 60.044 0.229 8.24 6.39 10.29
5/17/2021 1:30:00 AM 15.57 60.026 0.309 8.23 6.28 10.27
5/17/2021 1:45:00 AM 15.57 60.026 0.266 8.22 6.34 10.24
5/17/2021 2:00:00 AM 15.57 60.026 0.317 8.22 6.46 10.21
5/17/2021 2:15:00 AM 15.56 60.008 0.228 8.21 6.53 10.17
5/17/2021 2:30:00 AM 15.54 59.972 0.306 8.2 6.43 10.14
5/17/2021 2:45:00 AM 15.52 59.936 0.261 8.19 6.98 10.11
5/17/2021 3:00:00 AM 15.5 59.9 0.293 8.2 5.59 10.07
5/17/2021 3:15:00 AM 15.49 59.882 0.276 8.19 6.42 10.03
5/17/2021 3:30:00 AM 15.46 59.828 0.234 8.18 6.15 9.99
5/17/2021 3:45:00 AM 15.43 59.774 0.229 8.16 6.37 9.95
5/17/2021 4:00:00 AM 15.4 59.72 0.291 8.15 6.72 9.91
5/17/2021 4:15:00 AM 15.37 59.666 0.212 8.15 7.73 9.86
5/17/2021 4:30:00 AM 15.33 59.594 0.26 8.13 6.37 9.83
5/17/2021 4:45:00 AM 15.3 59.54 0.298 8.12 6.54 9.8
5/17/2021 5:00:00 AM 15.26 59.468 0.318 8.11 7.93 9.76
5/17/2021 5:15:00 AM 15.23 59.414 0.276 8.09 7.88 9.72
5/17/2021 5:30:00 AM 15.2 59.36 0.477 8.08 5.72 9.67
5/17/2021 5:45:00 AM 15.17 59.306 0.257 8.06 6.46 9.64
5/17/2021 6:00:00 AM 15.13 59.234 0.272 8.06 6.29 9.61
5/17/2021 6:15:00 AM 15.09 59.162 0.226 8.05 6.68 9.59
5/17/2021 6:30:00 AM 15.06 59.108 0.264 8.04 7.97 9.57
5/17/2021 6:45:00 AM 15.03 59.054 0.466 8.05 7.71 9.58
5/17/2021 7:00:00 AM 15.01 59.018 0.297 8.04 7.61 9.59
5/17/2021 7:15:00 AM 15 59 0.231 8.04 7.41 9.63
5/17/2021 7:30:00 AM 14.98 58.964 0.263 8.03 7.42 9.63
5/17/2021 7:45:00 AM 14.96 58.928 0.323 8.03 7.24 9.62
5/17/2021 8:00:00 AM 14.95 58.91 0.47 8.03 5.6 9.62
5/17/2021 8:15:00 AM 14.94 58.892 0.302 8.03 5.71 9.63
5/17/2021 8:30:00 AM 14.94 58.892 0.286 8.03 5.83 9.63
5/17/2021 8:45:00 AM 14.95 58.91 0.268 8.03 7.54 9.67
5/17/2021 9:00:00 AM 14.97 58.946 0.251 8.03 5.87 9.73
5/17/2021 9:15:00 AM 15 59 0.222 8.03 7.25 9.78
5/17/2021 9:30:00 AM 15.06 59.108 0.189 8.03 7.33 9.81
5/17/2021 9:45:00 AM 15.13 59.234 0.223 8.05 7.44 9.88
5/17/2021 10:00:00 AM 15.18 59.324 0.234 8.05 6.48 9.94
5/17/2021 10:15:00 AM 15.23 59.414 0.267 8.06 7.09 10.01
5/17/2021 10:30:00 AM 15.28 59.504 0.248 8.07 6.97 10.07
5/17/2021 10:45:00 AM 15.3 59.54 0.287 8.08 6.65 10.11
5/17/2021 11:00:00 AM 15.35 59.63 0.308 8.09 7.05 10.2
5/17/2021 11:15:00 AM 15.42 59.756 0.296 8.11 7.06 10.24
5/17/2021 11:30:00 AM 15.48 59.864 0.225 8.12 6.64 10.27
5/17/2021 11:45:00 AM 15.56 60.008 0.279 8.13 5.39 10.34
5/17/2021 12:00:00 PM 15.6 60.08 0.247 8.13 7.16 10.42
5/17/2021 12:15:00 PM 15.55 59.99 0.251 8.14 7.46 10.43
5/17/2021 12:30:00 PM 15.57 60.026 0.277 8.15 6.95 10.46
5/17/2021 12:45:00 PM 15.57 60.026 0.292 8.17 7.45 10.5
5/17/2021 1:00:00 PM 15.7 60.26 0.265 8.18 7.1 10.61
5/17/2021 1:15:00 PM 15.76 60.368 0.29 8.21 7.05 10.66
5/17/2021 1:30:00 PM 15.81 60.458 0.278 8.22 5.48 10.73
5/17/2021 1:45:00 PM 15.79 60.422 0.26 8.22 7.49 10.74
5/17/2021 2:00:00 PM 15.91 60.638 0.226 8.25 7.21 10.84
5/17/2021 2:15:00 PM 15.96 60.728 0.239 8.27 7.68 10.88
5/17/2021 2:30:00 PM 16 60.8 0.29 8.29 5.63 10.96
5/17/2021 2:45:00 PM 16.03 60.854 0.26 8.31 6.91 11.02
5/17/2021 3:00:00 PM 15.94 60.692 0.286 8.3 5.83 10.83
5/17/2021 3:15:00 PM 16.06 60.908 0.475 8.31 6.7 10.98
5/17/2021 3:30:00 PM 16.17 61.106 0.282 8.34 7.59 11.02
5/17/2021 3:45:00 PM 16.32 61.376 0.244 8.34 5.17 11.02
5/17/2021 4:00:00 PM 16.35 61.43 0.288 8.36 7.49 11.02
5/17/2021 4:15:00 PM 16.35 61.43 0.236 8.37 7.6 11.05
5/17/2021 4:30:00 PM 16.41 61.538 0.232 8.39 5.93 11.08
5/17/2021 4:45:00 PM 16.33 61.394 0.473 8.4 6.56 11.09
5/17/2021 5:00:00 PM 16.28 61.304 0.301 8.41 6.61 11.1
5/17/2021 5:15:00 PM 16.26 61.268 0.261 8.43 5.6 11.12
5/17/2021 5:30:00 PM 16.21 61.178 0.293 8.43 5.05 11.11
5/17/2021 5:45:00 PM 16.22 61.196 0.288 8.44 5.81 11.12
5/17/2021 6:00:00 PM 16.24 61.232 0.262 8.45 7.15 11.12
5/17/2021 6:15:00 PM 16.26 61.268 0.299 8.46 5.27 11.12
5/17/2021 6:30:00 PM 16.28 61.304 0.188 8.47 6.91 11.15
5/17/2021 6:45:00 PM 16.29 61.322 0.291 8.48 5.58 11.1
5/17/2021 7:00:00 PM 16.31 61.358 0.229 8.48 6.7 11.07
5/17/2021 7:15:00 PM 16.3 61.34 0.222 8.49 6.85 11.07
5/17/2021 7:30:00 PM 16.26 61.268 0.47 8.49 4.77 11.1
5/17/2021 7:45:00 PM 16.22 61.196 0.293 8.49 5.41 11.06
5/17/2021 8:00:00 PM 16.18 61.124 0.278 8.49 6.11 11.07
5/17/2021 8:15:00 PM 16.14 61.052 0.29 8.48 5.43 11.05
5/17/2021 8:30:00 PM 16.1 60.98 0.47 8.47 5.22 11.01
5/17/2021 8:45:00 PM 16.05 60.89 0.283 8.46 7.51 10.98
5/17/2021 9:00:00 PM 16.01 60.818 0.272 8.45 7.67 10.96
5/17/2021 9:15:00 PM 15.98 60.764 0.233 8.44 7.91 10.94
5/17/2021 9:30:00 PM 15.95 60.71 0.289 8.44 6.24 10.92
5/17/2021 9:45:00 PM 15.93 60.674 0.257 8.42 7.19 10.9
5/17/2021 10:00:00 PM 15.92 60.656 0.228 8.42 8.41 10.87
5/17/2021 10:15:00 PM 15.92 60.656 0.286 8.42 6.5 10.85
5/17/2021 10:30:00 PM 15.93 60.674 0.277 8.41 5.71 10.82
5/17/2021 10:45:00 PM 15.93 60.674 0.211 8.4 7.05 10.8
5/17/2021 11:00:00 PM 15.93 60.674 0.23 8.4 7.59 10.77
5/17/2021 11:15:00 PM 15.94 60.692 0.257 8.39 8.26 10.75
5/17/2021 11:30:00 PM 15.95 60.71 0.452 8.39 5.59 10.72
5/17/2021 11:45:00 PM 15.96 60.728 0.274 8.38 6.1 10.68
5/18/2021 12:00:00 AM 15.98 60.764 0.312 8.37 6.99 10.67
5/18/2021 12:15:00 AM 15.99 60.782 0.211 8.38 6.65 10.66
5/18/2021 12:30:00 AM 16.01 60.818 0.287 8.37 7.89 10.62
5/18/2021 12:45:00 AM 16.02 60.836 0.261 8.37 7.9 10.59
5/18/2021 1:00:00 AM 16.04 60.872 0.261 8.37 5.71 10.57
5/18/2021 1:15:00 AM 16.05 60.89 0.235 8.36 6.45 10.53
5/18/2021 1:30:00 AM 16.06 60.908 0.181 8.35 6.57 10.5
5/18/2021 1:45:00 AM 16.08 60.944 0.183 8.35 8.25 10.45
5/18/2021 2:00:00 AM 16.09 60.962 0.256 8.34 6.64 10.42
5/18/2021 2:15:00 AM 16.1 60.98 0.257 8.33 5.72 10.38
5/18/2021 2:30:00 AM 16.1 60.98 0.262 8.32 6.56 10.33
5/18/2021 2:45:00 AM 16.11 60.998 0.231 8.31 8.41 10.28
5/18/2021 3:00:00 AM 16.12 61.016 0.261 8.3 6.47 10.24
5/18/2021 3:15:00 AM 16.12 61.016 0.263 8.29 6.81 10.19
5/18/2021 3:30:00 AM 16.11 60.998 0.255 8.28 6.94 10.11
5/18/2021 3:45:00 AM 16.11 60.998 0.462 8.27 6.05 10.06
5/18/2021 4:00:00 AM 16.1 60.98 0.281 8.26 6.74 10.04
5/18/2021 4:15:00 AM 16.09 60.962 0.218 8.24 6.8 9.98
5/18/2021 4:30:00 AM 16.08 60.944 0.203 8.23 5.96 9.92
5/18/2021 4:45:00 AM 16.06 60.908 0.28 8.22 6.78 9.88
5/18/2021 5:00:00 AM 16.04 60.872 0.206 8.2 6.25 9.82
5/18/2021 5:15:00 AM 16.01 60.818 0.199 8.18 6.51 9.78
5/18/2021 5:30:00 AM 15.99 60.782 0.464 8.17 9.93 9.73
5/18/2021 5:45:00 AM 15.96 60.728 0.287 8.15 5.97 9.68
5/18/2021 6:00:00 AM 15.93 60.674 0.237 8.14 6.62 9.65
5/18/2021 6:15:00 AM 15.89 60.602 0.309 8.13 6.26 9.61
5/18/2021 6:30:00 AM 15.86 60.548 0.259 8.12 6.82 9.59
5/18/2021 6:45:00 AM 15.83 60.494 0.319 8.11 5.98 9.57
5/18/2021 7:00:00 AM 15.81 60.458 0.268 8.08 8.03 9.54
5/18/2021 7:15:00 AM 15.78 60.404 0.458 8.08 5.59 9.52
5/18/2021 7:30:00 AM 15.76 60.368 0.194 8.06 7.25 9.51
5/18/2021 7:45:00 AM 15.74 60.332 0.297 8.06 6.43 9.49
5/18/2021 8:00:00 AM 15.72 60.296 0.264 8.06 8.04 9.48
5/18/2021 8:15:00 AM 15.71 60.278 0.299 8.06 7.36 9.49
5/18/2021 8:30:00 AM 15.69 60.242 0.273 8.06 7.37 9.51
5/18/2021 8:45:00 AM 15.7 60.26 0.293 8.06 7.23 9.54
5/18/2021 9:00:00 AM 15.71 60.278 0.248 8.05 7.05 9.58
5/18/2021 9:15:00 AM 15.75 60.35 0.248 8.05 7.03 9.63
5/18/2021 9:30:00 AM 15.79 60.422 0.271 8.06 6.75 9.68
5/18/2021 9:45:00 AM 15.84 60.512 0.285 8.06 6.56 9.73
5/18/2021 10:00:00 AM 15.9 60.62 0.283 8.07 6.68 9.79
5/18/2021 10:15:00 AM 15.95 60.71 0.275 8.06 8.34 9.84
5/18/2021 10:30:00 AM 16.01 60.818 0.209 8.07 6.34 9.9
5/18/2021 10:45:00 AM 16.07 60.926 0.268 8.08 6.27 9.95
5/18/2021 11:00:00 AM 16.13 61.034 0.252 8.09 6.88 10.03
5/18/2021 11:15:00 AM 16.19 61.142 0.275 8.11 6.59 10.11
5/18/2021 11:30:00 AM 16.2 61.16 0.237 8.12 6.07 10.17
5/18/2021 11:45:00 AM 16.26 61.268 0.253 8.12 6.45 10.22
5/18/2021 12:00:00 PM 16.37 61.466 0.276 8.13 6.67 10.25
5/18/2021 12:15:00 PM 16.4 61.52 0.306 8.15 6.44 10.32
5/18/2021 12:30:00 PM 16.43 61.574 0.474 8.17 6.66 10.37
5/18/2021 12:45:00 PM 16.45 61.61 0.298 8.17 6.31 10.42
5/18/2021 1:00:00 PM 16.45 61.61 0.285 8.18 6.42 10.47
5/18/2021 1:15:00 PM 16.51 61.718 0.475 8.19 7.7 10.52
5/18/2021 1:30:00 PM 16.58 61.844 0.256 8.21 6.26 10.58
5/18/2021 1:45:00 PM 16.62 61.916 0.475 8.22 6.01 10.62
5/18/2021 2:00:00 PM 16.65 61.97 0.242 8.22 6.28 10.62
5/18/2021 2:15:00 PM 16.75 62.15 0.291 8.24 6.35 10.65
5/18/2021 2:30:00 PM 16.83 62.294 0.287 8.27 7.99 10.68
5/18/2021 2:45:00 PM 16.81 62.258 0.488 8.27 6.42 10.73
5/18/2021 3:00:00 PM 16.85 62.33 0.243 8.28 6.65 10.75
5/18/2021 3:15:00 PM 16.97 62.546 0.277 8.3 6.48 10.77
5/18/2021 3:30:00 PM 17.07 62.726 0.276 8.31 6.52 10.79
5/18/2021 3:45:00 PM 16.97 62.546 0.218 8.33 6.36 10.83
5/18/2021 4:00:00 PM 16.95 62.51 0.31 8.34 5.88 10.88
5/18/2021 4:15:00 PM 17 62.6 0.253 8.35 7.51 10.9
5/18/2021 4:30:00 PM 16.98 62.564 0.256 8.37 7.51 10.94
5/18/2021 4:45:00 PM 16.98 62.564 0.252 8.38 6.08 10.95
5/18/2021 5:00:00 PM 17.07 62.726 0.472 8.39 6.93 10.94
5/18/2021 5:15:00 PM 17.09 62.762 0.299 8.4 6.24 10.92
5/18/2021 5:30:00 PM 17.1 62.78 0.278 8.41 5.71 10.93
5/18/2021 5:45:00 PM 17.13 62.834 0.234 8.42 6.45 10.92
5/18/2021 6:00:00 PM 17.18 62.924 0.243 8.43 5.69 10.9
5/18/2021 6:15:00 PM 17.23 63.014 0.47 8.44 6.78 10.88
5/18/2021 6:30:00 PM 17.29 63.122 0.216 8.45 5.75 10.84
5/18/2021 6:45:00 PM 17.25 63.05 0.255 8.45 5.42 10.83
5/18/2021 7:00:00 PM 17.19 62.942 0.302 8.46 7.57 10.84
5/18/2021 7:15:00 PM 17.17 62.906 0.484 8.45 6.98 10.82
5/18/2021 7:30:00 PM 17.17 62.906 0.245 8.46 7.1 10.8
5/18/2021 7:45:00 PM 17.14 62.852 0.29 8.46 7.59 10.79
5/18/2021 8:00:00 PM 17.11 62.798 0.258 8.45 5.45 10.77
5/18/2021 8:15:00 PM 17.09 62.762 0.274 8.44 6.23 10.73
5/18/2021 8:30:00 PM 17.04 62.672 0.482 8.43 5.83 10.69
5/18/2021 8:45:00 PM 16.96 62.528 0.295 8.42 6.54 10.68
5/18/2021 9:00:00 PM 16.9 62.42 0.279 8.4 5.66 10.67
5/18/2021 9:15:00 PM 16.84 62.312 0.25 8.39 6.26 10.64
5/18/2021 9:30:00 PM 16.8 62.24 0.293 8.37 7.98 10.6
5/18/2021 9:45:00 PM 16.76 62.168 0.262 8.36 186.17 10.59
5/18/2021 10:00:00 PM 16.73 62.114 0.246 8.34 7.82 10.55
5/18/2021 10:15:00 PM 16.72 62.096 0.295 8.34 7.32 10.52
5/18/2021 10:30:00 PM 16.71 62.078 0.271 8.33 7.74 10.49
5/18/2021 10:45:00 PM 16.71 62.078 0.252 8.32 7.67 10.46
5/18/2021 11:00:00 PM 16.72 62.096 0.461 8.32 9.19 10.44
5/18/2021 11:15:00 PM 16.74 62.132 0.203 8.31 5.4 10.4
5/18/2021 11:30:00 PM 16.76 62.168 0.293 8.31 5.88 10.38
5/18/2021 11:45:00 PM 16.78 62.204 0.269 8.3 7.31 10.35
5/19/2021 12:00:00 AM 16.8 62.24 0.29 8.29 5.92 10.31
5/19/2021 12:15:00 AM 16.83 62.294 0.286 8.29 6.63 10.29
5/19/2021 12:30:00 AM 16.86 62.348 0.455 8.3 4.97 10.28
5/19/2021 12:45:00 AM 16.88 62.384 0.469 8.28 6.85 10.22
5/19/2021 1:00:00 AM 16.9 62.42 0.467 8.28 5.32 10.19
5/19/2021 1:15:00 AM 16.93 62.474 0.283 8.28 5.74 10.16
5/19/2021 1:30:00 AM 16.95 62.51 0.22 8.28 5.51 10.14
5/19/2021 1:45:00 AM 16.98 62.564 0.226 8.27 7.6 10.1
5/19/2021 2:00:00 AM 17 62.6 0.466 8.26 6.94 10.06
5/19/2021 2:15:00 AM 17.02 62.636 0.218 8.25 5.58 10.03
5/19/2021 2:30:00 AM 17.02 62.636 0.249 8.24 7.8 9.98
5/19/2021 2:45:00 AM 17.04 62.672 0.23 8.24 5.49 9.94
5/19/2021 3:00:00 AM 17.05 62.69 0.287 8.23 5.41 9.91
5/19/2021 3:15:00 AM 17.05 62.69 0.23 8.22 7.14 9.86
5/19/2021 3:30:00 AM 17.06 62.708 0.272 8.21 5.88 9.82
5/19/2021 3:45:00 AM 17.06 62.708 0.299 8.2 5.54 9.76
5/19/2021 4:00:00 AM 17.06 62.708 0.198 8.19 5.57 9.73
5/19/2021 4:15:00 AM 17.06 62.708 0.456 8.18 5.17 9.68
5/19/2021 4:30:00 AM 17.05 62.69 0.205 8.17 5.83 9.64
5/19/2021 4:45:00 AM 17.04 62.672 0.272 8.15 7.38 9.59
5/19/2021 5:00:00 AM 17.03 62.654 0.191 8.14 5.36 9.55
5/19/2021 5:15:00 AM 17.02 62.636 0.228 8.13 6.29 9.49
5/19/2021 5:30:00 AM 17 62.6 0.264 8.12 6.7 9.46
5/19/2021 5:45:00 AM 16.99 62.582 0.262 8.1 7.64 9.42
5/19/2021 6:00:00 AM 16.97 62.546 0.289 8.1 5.85 9.37
5/19/2021 6:15:00 AM 16.95 62.51 0.244 8.08 6.07 9.36
5/19/2021 6:30:00 AM 16.93 62.474 0.244 8.08 5.87 9.33
5/19/2021 6:45:00 AM 16.92 62.456 0.27 8.07 7.68 9.31
5/19/2021 7:00:00 AM 16.91 62.438 0.3 8.06 5.89 9.29
5/19/2021 7:15:00 AM 16.89 62.402 0.243 8.05 6.19 9.26
5/19/2021 7:30:00 AM 16.88 62.384 0.31 8.04 6.71 9.24
5/19/2021 7:45:00 AM 16.88 62.384 0.239 8.04 7.88 9.22
5/19/2021 8:00:00 AM 16.87 62.366 0.306 8.04 6.29 9.23
5/19/2021 8:15:00 AM 16.88 62.384 0.256 8.04 6.02 9.24
5/19/2021 8:30:00 AM 16.89 62.402 0.261 8.04 5.84 9.26
5/19/2021 8:45:00 AM 16.91 62.438 0.253 8.04 5.92 9.3
5/19/2021 9:00:00 AM 16.95 62.51 0.3 8.04 5.7 9.35
5/19/2021 9:15:00 AM 16.98 62.564 0.498 8.04 7.11 9.37
5/19/2021 9:30:00 AM 17.04 62.672 0.287 8.05 5.48 9.45
5/19/2021 9:45:00 AM 17.1 62.78 0.267 8.05 7.56 9.5
5/19/2021 10:00:00 AM 17.15 62.87 0.267 8.05 5.82 9.56
5/19/2021 10:15:00 AM 17.21 62.978 0.288 8.07 7.3 9.59
5/19/2021 10:30:00 AM 17.26 63.068 0.286 8.07 7.42 9.67
5/19/2021 10:45:00 AM 17.34 63.212 0.286 8.08 7.46 9.74
5/19/2021 11:00:00 AM 17.4 63.32 0.256 8.09 5.31 9.82
5/19/2021 11:15:00 AM 17.47 63.446 0.295 8.1 6.09 9.87
5/19/2021 11:30:00 AM 17.53 63.554 0.296 8.11 5.72 9.94
5/19/2021 11:45:00 AM 17.62 63.716 0.284 8.11 6.33 9.99
5/19/2021 12:00:00 PM 17.69 63.842 0.218 8.13 6.1 10.03
5/19/2021 12:15:00 PM 17.77 63.986 0.293 8.14 6.86 10.08
5/19/2021 12:30:00 PM 17.93 64.274 0.301 8.15 7.45 10.12
5/19/2021 12:45:00 PM 18.13 64.634 0.286 8.17 6.18 10.15
5/19/2021 1:00:00 PM 18.11 64.598 0.215 8.17 5.89 10.19
5/19/2021 1:15:00 PM 18.12 64.616 0.286 8.19 7.64 10.26
5/19/2021 1:30:00 PM 18.06 64.508 0.262 8.2 5.73 10.29
5/19/2021 1:45:00 PM 17.99 64.382 0.261 8.21 7.44 10.38
5/19/2021 2:00:00 PM 17.96 64.328 0.256 8.22 7.22 10.43
5/19/2021 2:15:00 PM 17.94 64.292 0.288 8.23 7 10.45
5/19/2021 2:30:00 PM 18.01 64.418 0.306 8.24 7.33 10.49
5/19/2021 2:45:00 PM 18.12 64.616 0.476 8.25 6.67 10.45
5/19/2021 3:00:00 PM 18.29 64.922 0.259 8.27 5.31 10.51
5/19/2021 3:15:00 PM 18.34 65.012 0.261 8.28 7.23 10.49
5/19/2021 3:30:00 PM 18.31 64.958 0.256 8.28 5.56 10.52
5/19/2021 3:45:00 PM 18.36 65.048 0.282 8.3 7.37 10.54
5/19/2021 4:00:00 PM 18.39 65.102 0.261 8.31 5.67 10.54
5/19/2021 4:15:00 PM 18.43 65.174 0.291 8.33 5.72 10.57
5/19/2021 4:30:00 PM 18.41 65.138 0.287 8.34 5.44 10.61
5/19/2021 4:45:00 PM 18.44 65.192 0.217 8.35 6.47 10.63
5/19/2021 5:00:00 PM 18.54 65.372 0.281 8.36 7.86 10.6
5/19/2021 5:15:00 PM 18.58 65.444 0.259 8.37 7.22 10.58
5/19/2021 5:30:00 PM 18.55 65.39 0.483 8.38 5.2 10.57
5/19/2021 5:45:00 PM 18.58 65.444 0.204 8.38 5.99 10.55
5/19/2021 6:00:00 PM 18.6 65.48 0.261 8.39 6.23 10.53
5/19/2021 6:15:00 PM 18.55 65.39 0.221 8.4 5.21 10.52
5/19/2021 6:30:00 PM 18.54 65.372 0.466 8.4 5.49 10.52
5/19/2021 6:45:00 PM 18.57 65.426 0.251 8.41 5.82 10.54
5/19/2021 7:00:00 PM 18.59 65.462 0.245 8.42 5.59 10.54
5/19/2021 7:15:00 PM 18.57 65.426 0.249 8.43 5.68 10.5
5/19/2021 7:30:00 PM 18.56 65.408 0.293 8.41 5.57 10.46
5/19/2021 7:45:00 PM 18.52 65.336 0.256 8.4 5.48 10.41
5/19/2021 8:00:00 PM 18.45 65.21 0.249 8.39 5.55 10.38
5/19/2021 8:15:00 PM 18.38 65.084 0.461 8.38 4.84 10.35
5/19/2021 8:30:00 PM 18.31 64.958 0.257 8.37 6.31 10.32
5/19/2021 8:45:00 PM 18.25 64.85 0.254 8.35 5.8 10.28
5/19/2021 9:00:00 PM 18.2 64.76 0.245 8.34 5.9 10.27
5/19/2021 9:15:00 PM 18.15 64.67 0.258 8.33 7.1 10.24
5/19/2021 9:30:00 PM 18.11 64.598 0.247 8.32 6 10.22
5/19/2021 9:45:00 PM 18.08 64.544 0.308 8.31 6.21 10.2
5/19/2021 10:00:00 PM 18.05 64.49 0.275 8.3 5.9 10.18
5/19/2021 10:15:00 PM 18.03 64.454 0.24 8.3 6.22 10.16
5/19/2021 10:30:00 PM 18.03 64.454 0.284 8.29 6.8 10.14
5/19/2021 10:45:00 PM 18.02 64.436 0.241 8.28 7.39 10.1
5/19/2021 11:00:00 PM 18.02 64.436 0.211 8.27 7.49 10.07
5/19/2021 11:15:00 PM 18.04 64.472 0.302 8.27 6.16 10.06
5/19/2021 11:30:00 PM 18.04 64.472 0.299 8.26 7.48 10.01
5/19/2021 11:45:00 PM 18.06 64.508 0.217 8.26 6.61 9.99
5/20/2021 12:00:00 AM 18.09 64.562 0.283 8.25 6.2 9.97
5/20/2021 12:15:00 AM 18.1 64.58 0.273 8.25 6.89 9.92
5/20/2021 12:30:00 AM 18.13 64.634 0.25 8.25 6.27 9.92
5/20/2021 12:45:00 AM 18.15 64.67 0.218 8.24 7.02 9.88
5/20/2021 1:00:00 AM 18.18 64.724 0.252 8.24 6.72 9.85
5/20/2021 1:15:00 AM 18.2 64.76 0.463 8.23 6.68 9.82
5/20/2021 1:30:00 AM 18.22 64.796 0.247 8.23 7.34 9.78
5/20/2021 1:45:00 AM 18.24 64.832 0.477 8.23 5.66 9.75
5/20/2021 2:00:00 AM 18.27 64.886 0.209 8.22 6.73 9.74
5/20/2021 2:15:00 AM 18.29 64.922 0.226 8.22 6.76 9.68
5/20/2021 2:30:00 AM 18.31 64.958 0.286 8.22 6.73 9.66
5/20/2021 2:45:00 AM 18.32 64.976 0.234 8.21 7.81 9.64
5/20/2021 3:00:00 AM 18.34 65.012 0.291 8.2 2.66 9.61
5/20/2021 3:15:00 AM 18.35 65.03 0.462 8.19 6.07 9.57
5/20/2021 3:30:00 AM 18.36 65.048 0.245 8.18 5.97 9.53
5/20/2021 3:45:00 AM 18.37 65.066 0.309 8.17 7.2 9.49
5/20/2021 4:00:00 AM 18.38 65.084 0.196 8.17 6.63 9.44
5/20/2021 4:15:00 AM 18.38 65.084 0.271 8.16 6.9 9.4
5/20/2021 4:30:00 AM 18.38 65.084 0.46 8.15 6.93 9.35
5/20/2021 4:45:00 AM 18.38 65.084 0.31 8.14 7.67 9.31
5/20/2021 5:00:00 AM 18.37 65.066 0.245 8.13 2.37 9.26
5/20/2021 5:15:00 AM 18.37 65.066 0.298 8.12 8.44 9.22
5/20/2021 5:30:00 AM 18.36 65.048 0.452 8.11 7.28 9.17
5/20/2021 5:45:00 AM 18.35 65.03 0.242 8.1 6.83 9.12
5/20/2021 6:00:00 AM 18.34 65.012 0.239 8.09 6.77 9.11
5/20/2021 6:15:00 AM 18.33 64.994 0.247 8.08 2.53 9.09
5/20/2021 6:30:00 AM 18.32 64.976 0.267 8.06 9.37 9.07
5/20/2021 6:45:00 AM 18.32 64.976 0.273 8.06 7.18 9.06
5/20/2021 7:00:00 AM 18.32 64.976 0.209 8.06 6.82 9.06
5/20/2021 7:15:00 AM 18.32 64.976 0.268 8.05 8.27 9.02
5/20/2021 7:30:00 AM 18.32 64.976 0.267 8.05 9.33 9.01
5/20/2021 7:45:00 AM 18.34 65.012 0.277 8.05 6.25 9.05
5/20/2021 8:00:00 AM 18.34 65.012 0.256 8.05 6.13 9.04
5/20/2021 8:15:00 AM 18.35 65.03 0.256 8.04 7.31 9
5/20/2021 8:30:00 AM 18.36 65.048 0.465 8.04 6.58 9.03
5/20/2021 8:45:00 AM 18.39 65.102 0.272 8.04 6.37 9.09
5/20/2021 9:00:00 AM 18.42 65.156 0.292 8.05 7.18 9.11
5/20/2021 9:15:00 AM 18.47 65.246 0.298 8.05 8.06 9.17
5/20/2021 9:30:00 AM 18.56 65.408 0.277 8.06 7.78 9.26
5/20/2021 9:45:00 AM 18.64 65.552 0.248 8.06 2.03 9.32
5/20/2021 10:00:00 AM 18.71 65.67799 0.249 8.07 5.41 9.39
5/20/2021 10:15:00 AM 18.8 65.84 0.254 8.08 5.54 9.46
5/20/2021 10:30:00 AM 18.85 65.93 0.296 8.09 4.94 9.5
5/20/2021 10:45:00 AM 18.92 66.056 0.293 8.1 5.46 9.57
5/20/2021 11:00:00 AM 19.01 66.218 0.246 8.1 5.39 9.62
5/20/2021 11:15:00 AM 19.06 66.308 0.468 8.11 5.15 9.64
5/20/2021 11:30:00 AM 19.06 66.308 0.262 8.1 7.17 9.59
5/20/2021 11:45:00 AM 19.14 66.452 0.266 8.11 6.04 9.7
5/20/2021 12:00:00 PM 19.2 66.56 0.255 8.11 6.29 9.73
5/20/2021 12:15:00 PM 19.27 66.686 0.26 8.11 5.23 9.81
5/20/2021 12:30:00 PM 19.3 66.74 0.262 8.14 5.83 9.87
5/20/2021 12:45:00 PM 19.39 66.902 0.257 8.16 5.83 9.98
5/20/2021 1:00:00 PM 19.5 67.1 0.244 8.16 5.69 9.98
5/20/2021 1:15:00 PM 19.61 67.298 0.271 8.18 7.04 10.03
5/20/2021 1:30:00 PM 19.62 67.316 0.213 8.19 6.03 10.06
5/20/2021 1:45:00 PM 19.7 67.46 0.274 8.2 5.68 10.09
5/20/2021 2:00:00 PM 19.68 67.424 0.477 8.21 6.78 10.13
5/20/2021 2:15:00 PM 19.76 67.568 0.272 8.22 5.21 10.19
5/20/2021 2:30:00 PM 19.77 67.586 0.269 8.23 6.41 10.19
5/20/2021 2:45:00 PM 19.76 67.568 0.264 8.24 6.41 10.19
5/20/2021 3:00:00 PM 19.75 67.55 0.293 8.25 6.11 10.23
5/20/2021 3:15:00 PM 19.8 67.64 0.269 8.27 5.54 10.3
5/20/2021 3:30:00 PM 19.9 67.82 0.264 8.28 6.46 10.28
5/20/2021 3:45:00 PM 19.89 67.802 0.257 8.29 8.61 10.28
5/20/2021 4:00:00 PM 19.9 67.82 0.225 8.29 5.67 10.3
5/20/2021 4:15:00 PM 19.94 67.892 0.289 8.31 6.01 10.3
5/20/2021 4:30:00 PM 19.95 67.91 0.293 8.32 7.75 10.31
5/20/2021 4:45:00 PM 19.94 67.892 0.472 8.32 5.77 10.29
5/20/2021 5:00:00 PM 19.91 67.838 0.293 8.33 7.57 10.26
5/20/2021 5:15:00 PM 19.91 67.838 0.269 8.33 5.97 10.25
5/20/2021 5:30:00 PM 19.87 67.766 0.476 8.34 7.17 10.23
5/20/2021 5:45:00 PM 19.84 67.712 0.273 8.35 7.56 10.23
5/20/2021 6:00:00 PM 19.84 67.712 0.271 8.36 7.67 10.22
5/20/2021 6:15:00 PM 19.82 67.676 0.27 8.36 6.02 10.19
5/20/2021 6:30:00 PM 19.77 67.586 0.225 8.36 7.26 10.14
5/20/2021 6:45:00 PM 19.71 67.478 0.292 8.35 5.71 10.11
5/20/2021 7:00:00 PM 19.66 67.388 0.262 8.36 5.13 10.09
5/20/2021 7:15:00 PM 19.59 67.262 0.275 8.36 5 10.08
5/20/2021 7:30:00 PM 19.53 67.154 0.302 8.35 7.5 10.07
5/20/2021 7:45:00 PM 19.48 67.064 0.236 8.35 7.56 10.07
5/20/2021 8:00:00 PM 19.43 66.974 0.297 8.35 7.39 10.05
5/20/2021 8:15:00 PM 19.37 66.866 0.29 8.34 6.14 10.02
5/20/2021 8:30:00 PM 19.31 66.758 0.258 8.33 7.6 10
5/20/2021 8:45:00 PM 19.26 66.668 0.274 8.32 8.02 9.99
5/20/2021 9:00:00 PM 19.21 66.578 0.239 8.31 7.65 9.97
5/20/2021 9:15:00 PM 19.16 66.488 0.29 8.3 6.72 9.93
5/20/2021 9:30:00 PM 19.1 66.38 0.476 8.29 5.7 9.92
5/20/2021 9:45:00 PM 19.06 66.308 0.263 8.28 6.46 9.88
5/20/2021 10:00:00 PM 19.01 66.218 0.288 8.26 7.43 9.86
5/20/2021 10:15:00 PM 18.97 66.146 0.263 8.25 7.9 9.82
5/20/2021 10:30:00 PM 18.93 66.074 0.245 8.24 7.25 9.8
5/20/2021 10:45:00 PM 18.89 66.002 0.242 8.23 5.82 9.77
5/20/2021 11:00:00 PM 18.86 65.948 0.304 8.22 6.98 9.75
5/20/2021 11:15:00 PM 18.84 65.912 0.261 8.21 6.71 9.72
5/20/2021 11:30:00 PM 18.82 65.876 0.22 8.21 7.92 9.69
5/20/2021 11:45:00 PM 18.8 65.84 0.246 8.21 6.25 9.69
5/21/2021 12:00:00 AM 18.79 65.82201 0.247 8.2 6.89 9.69
5/21/2021 12:15:00 AM 18.78 65.804 0.298 8.2 7.06 9.68
5/21/2021 12:30:00 AM 18.77 65.786 0.268 8.2 7.61 9.68
5/21/2021 12:45:00 AM 18.77 65.786 0.247 8.21 6.95 9.67
5/21/2021 1:00:00 AM 18.76 65.768 0.222 8.2 7.65 9.65
5/21/2021 1:15:00 AM 18.76 65.768 0.258 8.21 7.63 9.65
5/21/2021 1:30:00 AM 18.76 65.768 0.294 8.2 7.04 9.63
5/21/2021 1:45:00 AM 18.77 65.786 0.255 8.2 6.77 9.61
5/21/2021 2:00:00 AM 18.77 65.786 0.214 8.2 7.14 9.59
5/21/2021 2:15:00 AM 18.77 65.786 0.254 8.2 6.15 9.57
5/21/2021 2:30:00 AM 18.77 65.786 0.222 8.2 6.64 9.55
5/21/2021 2:45:00 AM 18.77 65.786 0.249 8.19 6.83 9.51
5/21/2021 3:00:00 AM 18.77 65.786 0.299 8.19 6.75 9.49
5/21/2021 3:15:00 AM 18.77 65.786 0.258 8.19 7.02 9.45
5/21/2021 3:30:00 AM 18.77 65.786 0.245 8.18 6.73 9.43
5/21/2021 3:45:00 AM 18.76 65.768 0.296 8.17 6.64 9.39
5/21/2021 4:00:00 AM 18.76 65.768 0.24 8.16 6.8 9.36
5/21/2021 4:15:00 AM 18.75 65.75 0.262 8.17 7.55 9.31
5/21/2021 4:30:00 AM 18.74 65.732 0.206 8.14 2.71 9.27
5/21/2021 4:45:00 AM 18.74 65.732 0.281 8.13 6.18 9.23
5/21/2021 5:00:00 AM 18.71 65.67799 0.277 8.13 7.81 9.17
5/21/2021 5:15:00 AM 18.7 65.66 0.274 8.12 6.74 9.12
5/21/2021 5:30:00 AM 18.69 65.642 0.218 8.11 8.48 9.09
5/21/2021 5:45:00 AM 18.66 65.588 0.272 8.1 6.11 9.04
5/21/2021 6:00:00 AM 18.65 65.57 0.24 8.09 6.54 9.02
5/21/2021 6:15:00 AM 18.63 65.534 0.298 8.1 7.79 8.99
5/21/2021 6:30:00 AM 18.6 65.48 0.247 8.08 6.47 8.97
5/21/2021 6:45:00 AM 18.59 65.462 0.234 8.08 6.51 8.95
5/21/2021 7:00:00 AM 18.58 65.444 0.205 8.07 8.72 8.94
5/21/2021 7:15:00 AM 18.56 65.408 0.242 8.07 8.26 8.91
5/21/2021 7:30:00 AM 18.54 65.372 0.257 8.06 6.72 8.9
5/21/2021 7:45:00 AM 18.52 65.336 0.237 8.06 7.93 8.9
5/21/2021 8:00:00 AM 18.52 65.336 0.258 8.05 8.94 8.9
5/21/2021 8:15:00 AM 18.51 65.318 0.275 8.05 7.91 8.91
5/21/2021 8:30:00 AM 18.51 65.318 0.247 8.05 6.43 8.93
5/21/2021 8:45:00 AM 18.52 65.336 0.244 8.05 7.23 8.98
5/21/2021 9:00:00 AM 18.54 65.372 0.261 8.05 6.36 9.04
5/21/2021 9:15:00 AM 18.57 65.426 0.274 8.06 7.95 9.09
5/21/2021 9:30:00 AM 18.62 65.516 0.252 8.06 8.2 9.14
5/21/2021 9:45:00 AM 18.67 65.606 0.215 8.06 7.01 9.19
5/21/2021 10:00:00 AM 18.73 65.714 0.294 8.07 6.67 9.25
5/21/2021 10:15:00 AM 18.77 65.786 0.294 8.08 6.1 9.3
5/21/2021 10:30:00 AM 18.85 65.93 0.298 8.09 5.46 9.39
5/21/2021 10:45:00 AM 18.91 66.038 0.298 8.09 7.56 9.44
5/21/2021 11:00:00 AM 18.98 66.164 0.217 8.1 6.67 9.5
5/21/2021 11:15:00 AM 19.03 66.254 0.285 8.11 6.1 9.56
5/21/2021 11:30:00 AM 19.09 66.362 0.27 8.13 6.39 9.65
5/21/2021 11:45:00 AM 19.17 66.506 0.24 8.14 6.47 9.72
5/21/2021 12:00:00 PM 19.2 66.56 0.285 8.14 6.2 9.8
5/21/2021 12:15:00 PM 19.24 66.632 0.3 8.15 5.72 9.82
5/21/2021 12:30:00 PM 19.26 66.668 0.254 8.16 7.03 9.81
5/21/2021 12:45:00 PM 19.36 66.848 0.241 8.17 6.2 9.92
5/21/2021 1:00:00 PM 19.36 66.848 0.479 8.19 6.09 9.94
5/21/2021 1:15:00 PM 19.37 66.866 0.27 8.2 6.34 9.98
5/21/2021 1:30:00 PM 19.4 66.92 0.243 8.19 7.78 9.97
5/21/2021 1:45:00 PM 19.46 67.028 0.238 8.21 6.53 10.02
5/21/2021 2:00:00 PM 19.46 67.028 0.239 8.21 5.97 10.05
5/21/2021 2:15:00 PM 19.44 66.992 0.24 8.22 6.67 10.05
5/21/2021 2:30:00 PM 19.44 66.992 0.243 8.23 6.08 10.11
5/21/2021 2:45:00 PM 19.45 67.01 0.288 8.24 6.62 10.15
5/21/2021 3:00:00 PM 19.44 66.992 0.237 8.25 8.19 10.17
5/21/2021 3:15:00 PM 19.45 67.01 0.264 8.26 6.49 10.16
5/21/2021 3:30:00 PM 19.5 67.1 0.234 8.27 6.46 10.19
5/21/2021 3:45:00 PM 19.54 67.172 0.264 8.28 8.14 10.18
5/21/2021 4:00:00 PM 19.6 67.28 0.251 8.29 6.56 10.16
5/21/2021 4:15:00 PM 19.72 67.496 0.278 8.3 8.66 10.18
5/21/2021 4:30:00 PM 19.73 67.514 0.275 8.3 6.67 10.15
5/21/2021 4:45:00 PM 19.7 67.46 0.235 8.31 6.46 10.14
5/21/2021 5:00:00 PM 19.69 67.442 0.269 8.31 6.49 10.14
5/21/2021 5:15:00 PM 19.69 67.442 0.244 8.33 6.23 10.12
5/21/2021 5:30:00 PM 19.63 67.334 0.274 8.33 6.46 10.15
5/21/2021 5:45:00 PM 19.67 67.406 0.267 8.34 6.79 10.15
5/21/2021 6:00:00 PM 19.72 67.496 0.278 8.34 6.69 10.12
5/21/2021 6:15:00 PM 19.75 67.55 0.277 8.34 6.24 10.05
5/21/2021 6:30:00 PM 19.72 67.496 0.251 8.36 6.29 10.07
5/21/2021 6:45:00 PM 19.69 67.442 0.291 8.36 6.06 10.03
5/21/2021 7:00:00 PM 19.65 67.37 0.243 8.36 6.3 9.98
5/21/2021 7:15:00 PM 19.59 67.262 0.276 8.35 8.06 9.98
5/21/2021 7:30:00 PM 19.52 67.136 0.291 8.35 7.55 9.96
5/21/2021 7:45:00 PM 19.47 67.046 0.255 8.34 7.68 9.96
5/21/2021 8:00:00 PM 19.42 66.956 0.297 8.35 8.33 9.97
5/21/2021 8:15:00 PM 19.38 66.884 0.262 8.34 7.46 9.93
5/21/2021 8:30:00 PM 19.33 66.794 0.302 8.33 2.43 9.91
5/21/2021 8:45:00 PM 19.26 66.668 0.238 8.31 8.15 9.91
5/21/2021 9:00:00 PM 19.2 66.56 0.243 8.31 8.96 9.89
5/21/2021 9:15:00 PM 19.14 66.452 0.27 8.29 7.48 9.88
5/21/2021 9:30:00 PM 19.08 66.344 0.262 8.28 9.57 9.84
5/21/2021 9:45:00 PM 19.02 66.236 0.262 8.28 7.29 9.82
5/21/2021 10:00:00 PM 18.97 66.146 0.239 8.26 8.29 9.79
5/21/2021 10:15:00 PM 18.93 66.074 0.269 8.25 7.13 9.78
5/21/2021 10:30:00 PM 18.88 65.984 0.248 8.24 7.54 9.75
5/21/2021 10:45:00 PM 18.84 65.912 0.295 8.22 7.73 9.7
5/21/2021 11:00:00 PM 18.81 65.858 0.26 8.21 7.22 9.68
5/21/2021 11:15:00 PM 18.77 65.786 0.248 8.2 7.39 9.65
5/21/2021 11:30:00 PM 18.75 65.75 0.483 8.19 8.25 9.63
5/21/2021 11:45:00 PM 18.74 65.732 0.302 8.19 7.54 9.61
5/22/2021 12:00:00 AM 18.73 65.714 0.301 8.18 7.37 9.58
5/22/2021 12:15:00 AM 18.74 65.732 0.484 8.18 8.15 9.58
5/22/2021 12:30:00 AM 18.74 65.732 0.483 8.17 8.15 9.56
5/22/2021 12:45:00 AM 18.73 65.714 0.479 8.18 3.22 9.54
5/22/2021 1:00:00 AM 18.74 65.732 0.484 8.17 7.6 9.54
5/22/2021 1:15:00 AM 18.75 65.75 0.256 8.17 7.88 9.52
5/22/2021 1:30:00 AM 18.76 65.768 0.249 8.17 8.28 9.51
5/22/2021 1:45:00 AM 18.77 65.786 0.305 8.16 8.09 9.48
5/22/2021 2:00:00 AM 18.78 65.804 0.277 8.16 8.54 9.47
5/22/2021 2:15:00 AM 18.8 65.84 0.299 8.16 7.73 9.46
5/22/2021 2:30:00 AM 18.81 65.858 0.484 8.16 8.95 9.43
5/22/2021 2:45:00 AM 18.83 65.894 0.271 8.16 7.79 9.41
5/22/2021 3:00:00 AM 18.85 65.93 0.239 8.16 8.81 9.39
5/22/2021 3:15:00 AM 18.86 65.948 0.267 8.15 7.63 9.38
5/22/2021 3:30:00 AM 18.87 65.966 0.213 8.15 4.01 9.33
5/22/2021 3:45:00 AM 18.88 65.984 0.252 8.15 7.37 9.3
5/22/2021 4:00:00 AM 18.89 66.002 0.244 8.14 7.58 9.27
5/22/2021 4:15:00 AM 18.89 66.002 0.242 8.14 7.79 9.24
5/22/2021 4:30:00 AM 18.91 66.038 0.222 8.13 8.67 9.2
5/22/2021 4:45:00 AM 18.91 66.038 0.484 8.13 7.97 9.16
5/22/2021 5:00:00 AM 18.91 66.038 0.483 8.12 8.75 9.13
5/22/2021 5:15:00 AM 18.91 66.038 0.26 8.12 7.05 9.1
5/22/2021 5:30:00 AM 18.91 66.038 0.244 8.11 7.37 9.05
5/22/2021 5:45:00 AM 18.91 66.038 0.252 8.11 7.57 9.01
5/22/2021 6:00:00 AM 18.91 66.038 0.483 8.1 7.48 8.99
5/22/2021 6:15:00 AM 18.91 66.038 0.247 8.09 8.63 8.98
5/22/2021 6:30:00 AM 18.91 66.038 0.239 8.09 7.84 8.97
5/22/2021 6:45:00 AM 18.91 66.038 0.245 8.08 9.02 8.96
5/22/2021 7:00:00 AM 18.92 66.056 0.264 8.08 8.45 8.96
5/22/2021 7:15:00 AM 18.93 66.074 0.261 8.07 7.82 8.92
5/22/2021 7:30:00 AM 18.94 66.092 0.27 8.07 8.75 8.93
5/22/2021 7:45:00 AM 18.96 66.128 0.254 8.07 6.99 8.95
5/22/2021 8:00:00 AM 18.97 66.146 0.259 8.07 7.08 8.97
5/22/2021 8:15:00 AM 19.01 66.218 0.238 8.08 3.94 9.04
5/22/2021 8:30:00 AM 19.03 66.254 0.301 8.08 7.36 9.05
5/22/2021 8:45:00 AM 19.05 66.29 0.247 8.08 8.81 9.07
5/22/2021 9:00:00 AM 19.06 66.308 0.248 8.07 8.61 9.02
5/22/2021 9:15:00 AM 19.12 66.416 0.242 8.08 8.63 9.16
5/22/2021 9:30:00 AM 19.15 66.47 0.275 8.08 8.29 9.19
5/22/2021 9:45:00 AM 19.2 66.56 0.273 8.09 7.84 9.25
5/22/2021 10:00:00 AM 19.24 66.632 0.224 8.09 8.39 9.26
5/22/2021 10:15:00 AM 19.28 66.704 0.483 8.09 8.04 9.28
5/22/2021 10:30:00 AM 19.34 66.812 0.483 8.1 7.42 9.34
5/22/2021 10:45:00 AM 19.43 66.974 0.233 8.11 8.1 9.44
5/22/2021 11:00:00 AM 19.48 67.064 0.294 8.11 8.78 9.45
5/22/2021 11:15:00 AM 19.59 67.262 0.261 8.12 8.68 9.58
5/22/2021 11:30:00 AM 19.64 67.352 0.252 8.14 6.59 9.57
5/22/2021 11:45:00 AM 19.63 67.334 0.255 8.14 7.82 9.58
5/22/2021 12:00:00 PM 19.63 67.334 0.48 8.14 7.89 9.58
5/22/2021 12:15:00 PM 19.64 67.352 0.298 8.14 8.42 9.6
5/22/2021 12:30:00 PM 19.7 67.46 0.299 8.16 8.69 9.71
5/22/2021 12:45:00 PM 19.81 67.658 0.237 8.18 8.3 9.84
5/22/2021 1:00:00 PM 19.93 67.874 0.276 8.2 6.13 9.93
5/22/2021 1:15:00 PM 20 68 0.235 8.21 7.38 9.96
5/22/2021 1:30:00 PM 19.94 67.892 0.276 8.2 7.89 9.81
5/22/2021 1:45:00 PM 19.92 67.856 0.28 8.21 7.84 9.79
5/22/2021 2:00:00 PM 19.89 67.802 0.234 8.2 8 9.77
5/22/2021 2:15:00 PM 19.89 67.802 0.279 8.21 7.35 9.78
5/22/2021 2:30:00 PM 19.95 67.91 0.242 8.23 7.72 9.91
5/22/2021 2:45:00 PM 20.01 68.018 0.267 8.24 7.85 9.95
5/22/2021 3:00:00 PM 20.03 68.054 0.245 8.25 7.8 9.95
5/22/2021 3:15:00 PM 20.01 68.018 0.484 8.24 8.44 9.8
5/22/2021 3:30:00 PM 20.07 68.126 0.488 8.24 7.68 9.78
5/22/2021 3:45:00 PM 20.09 68.162 0.484 8.24 6.95 9.75
5/22/2021 4:00:00 PM 20.09 68.162 0.278 8.24 7.13 9.76
5/22/2021 4:15:00 PM 20.07 68.126 0.274 8.25 5.82 9.77
5/22/2021 4:30:00 PM 20.09 68.162 0.297 8.27 7.73 9.88
5/22/2021 4:45:00 PM 20.09 68.162 0.277 8.27 7.41 9.85
5/22/2021 5:00:00 PM 20.07 68.126 0.254 8.26 7.35 9.8
5/22/2021 5:15:00 PM 20.11 68.198 0.28 8.27 6.94 9.76
5/22/2021 5:30:00 PM 20.11 68.198 0.259 8.26 7.5 9.7
5/22/2021 5:45:00 PM 20.06 68.108 0.282 8.25 7.18 9.63
5/22/2021 6:00:00 PM 20.05 68.09 0.243 8.25 7.27 9.61
5/22/2021 6:15:00 PM 20.04 68.07201 0.227 8.25 7.26 9.66
5/22/2021 6:30:00 PM 20.05 68.09 0.229 8.26 6.68 9.68
5/22/2021 6:45:00 PM 20.06 68.108 0.229 8.25 7.43 9.62
5/22/2021 7:00:00 PM 20.03 68.054 0.252 8.25 7.39 9.56
5/22/2021 7:15:00 PM 19.99 67.982 0.249 8.24 7.13 9.5
5/22/2021 7:30:00 PM 19.96 67.92799 0.275 8.23 7.07 9.46
5/22/2021 7:45:00 PM 19.93 67.874 0.278 8.22 7.35 9.42
5/22/2021 8:00:00 PM 19.9 67.82 0.274 8.22 6.98 9.41
5/22/2021 8:15:00 PM 19.88 67.784 0.249 8.22 7.08 9.39
5/22/2021 8:30:00 PM 19.85 67.73 0.486 8.21 7.07 9.39
5/22/2021 8:45:00 PM 19.81 67.658 0.492 8.2 6.79 9.37
5/22/2021 9:00:00 PM 19.76 67.568 0.25 8.21 7.33 9.4
5/22/2021 9:15:00 PM 19.71 67.478 0.256 8.21 8.16 9.38
5/22/2021 9:30:00 PM 19.68 67.424 0.244 8.2 9.11 9.38
5/22/2021 9:45:00 PM 19.66 67.388 0.247 8.2 8.71 9.37
5/22/2021 10:00:00 PM 19.64 67.352 0.298 8.19 7.72 9.36
5/22/2021 10:15:00 PM 19.62 67.316 0.267 8.19 9.25 9.35
5/22/2021 10:30:00 PM 19.6 67.28 0.487 8.18 9.35 9.34
5/22/2021 10:45:00 PM 19.59 67.262 0.494 8.18 8.52 9.34
5/22/2021 11:00:00 PM 19.59 67.262 0.489 8.18 9.61 9.34
5/22/2021 11:15:00 PM 19.59 67.262 0.258 8.17 10.19 9.31
5/22/2021 11:30:00 PM 19.6 67.28 0.291 8.17 8.98 9.32
5/22/2021 11:45:00 PM 19.61 67.298 0.254 8.17 9 9.29
5/23/2021 12:00:00 AM 19.62 67.316 0.287 8.16 9.52 9.27
5/23/2021 12:15:00 AM 19.62 67.316 0.495 8.16 8.95 9.26
5/23/2021 12:30:00 AM 19.6 67.28 0.491 8.16 6.58 9.27
5/23/2021 12:45:00 AM 19.58 67.244 0.234 8.16 10.13 9.24
5/23/2021 1:00:00 AM 19.57 67.226 0.275 8.16 8.93 9.23
5/23/2021 1:15:00 AM 19.58 67.244 0.498 8.16 8.72 9.24
5/23/2021 1:30:00 AM 19.58 67.244 0.235 8.15 8.78 9.21
5/23/2021 1:45:00 AM 19.6 67.28 0.292 8.15 7.67 9.21
5/23/2021 2:00:00 AM 19.61 67.298 0.235 8.15 7.38 9.19
5/23/2021 2:15:00 AM 19.63 67.334 0.245 8.15 10.23 9.16
5/23/2021 2:30:00 AM 19.65 67.37 0.495 8.15 8.55 9.17
5/23/2021 2:45:00 AM 19.66 67.388 0.244 8.15 9.91 9.13
5/23/2021 3:00:00 AM 19.68 67.424 0.276 8.15 9.75 9.12
5/23/2021 3:15:00 AM 19.69 67.442 0.288 8.15 8.48 9.1
5/23/2021 3:30:00 AM 19.71 67.478 0.278 8.15 8.86 9.08
5/23/2021 3:45:00 AM 19.72 67.496 0.29 8.15 8.83 9.06
5/23/2021 4:00:00 AM 19.73 67.514 0.285 8.14 9.78 9.02
5/23/2021 4:15:00 AM 19.73 67.514 0.267 8.15 10.2 9
5/23/2021 4:30:00 AM 19.74 67.532 0.266 8.15 8.57 8.96
5/23/2021 4:45:00 AM 19.74 67.532 0.284 8.14 9.24 8.93
5/23/2021 5:00:00 AM 19.74 67.532 0.288 8.13 8.46 8.92
5/23/2021 5:15:00 AM 19.75 67.55 0.284 8.12 9.11 8.89
5/23/2021 5:30:00 AM 19.75 67.55 0.289 8.12 8.61 8.84
5/23/2021 5:45:00 AM 19.74 67.532 0.234 8.11 10.03 8.82
5/23/2021 6:00:00 AM 19.73 67.514 0.284 8.1 9.42 8.78
5/23/2021 6:15:00 AM 19.73 67.514 0.29 8.1 8.48 8.79
5/23/2021 6:30:00 AM 19.72 67.496 0.287 8.1 9.27 8.77
5/23/2021 6:45:00 AM 19.72 67.496 0.279 8.1 8.06 8.76
5/23/2021 7:00:00 AM 19.72 67.496 0.293 8.09 7.69 8.75
5/23/2021 7:15:00 AM 19.72 67.496 0.241 8.08 7.72 8.73
5/23/2021 7:30:00 AM 19.73 67.514 0.238 8.08 6.72 8.71
5/23/2021 7:45:00 AM 19.73 67.514 0.263 8.08 7.78 8.69
5/23/2021 8:00:00 AM 19.74 67.532 0.236 8.07 8.55 8.69
5/23/2021 8:15:00 AM 19.75 67.55 0.248 8.07 8.41 8.69
5/23/2021 8:30:00 AM 19.77 67.586 0.281 8.08 3.88 8.72
5/23/2021 8:45:00 AM 19.8 67.64 0.273 8.07 7.69 8.76
5/23/2021 9:00:00 AM 19.83 67.694 0.248 8.07 8.17 8.79
5/23/2021 9:15:00 AM 19.87 67.766 0.499 8.07 7.84 8.81
5/23/2021 9:30:00 AM 19.92 67.856 0.275 8.08 7.68 8.85
5/23/2021 9:45:00 AM 19.99 67.982 0.267 8.08 7.86 8.9
5/23/2021 10:00:00 AM 20.06 68.108 0.28 8.08 7.68 8.95
5/23/2021 10:15:00 AM 20.14 68.252 0.234 8.08 8.56 9
5/23/2021 10:30:00 AM 20.22 68.396 0.244 8.09 6.71 9.03
5/23/2021 10:45:00 AM 20.29 68.522 0.285 8.09 8.86 9.09
5/23/2021 11:00:00 AM 20.35 68.63 0.258 8.1 8.54 9.12
5/23/2021 11:15:00 AM 20.4 68.72 0.267 8.11 7.27 9.13
5/23/2021 11:30:00 AM 20.49 68.882 0.26 8.11 7.54 9.23
5/23/2021 11:45:00 AM 20.54 68.972 0.27 8.12 7 9.22
5/23/2021 12:00:00 PM 20.6 69.08 0.494 8.12 7.31 9.22
5/23/2021 12:15:00 PM 20.66 69.188 0.258 8.13 7.99 9.3
5/23/2021 12:30:00 PM 20.75 69.35 0.497 8.13 7.58 9.28
5/23/2021 12:45:00 PM 20.85 69.53 0.291 8.15 7.71 9.39
5/23/2021 1:00:00 PM 20.93 69.674 0.279 8.16 8.6 9.4
5/23/2021 1:15:00 PM 20.95 69.71 0.499 8.16 6.32 9.4
5/23/2021 1:30:00 PM 20.95 69.71 0.284 8.17 7.38 9.36
5/23/2021 1:45:00 PM 20.95 69.71 0.283 8.17 10.01 9.37
5/23/2021 2:00:00 PM 21.05 69.89 0.27 8.19 6.26 9.52
5/23/2021 2:15:00 PM 21.06 69.908 0.245 8.18 9.05 9.37
5/23/2021 2:30:00 PM 21.15 70.07 0.503 8.2 7.43 9.47
5/23/2021 2:45:00 PM 21.19 70.142 0.279 8.19 7.02 9.39
5/23/2021 3:00:00 PM 21.23 70.214 0.281 8.18 7.65 9.33
5/23/2021 3:15:00 PM 21.3 70.34 0.257 8.2 7.51 9.37
5/23/2021 3:30:00 PM 21.33 70.394 0.246 8.21 8.89 9.38
5/23/2021 3:45:00 PM 21.35 70.43 0.267 8.2 8.53 9.26
5/23/2021 4:00:00 PM 21.4 70.52 0.267 8.2 7.47 9.28
5/23/2021 4:15:00 PM 21.52 70.736 0.29 8.22 6.88 9.44
5/23/2021 4:30:00 PM 21.59 70.862 0.275 8.23 7.79 9.4
5/23/2021 4:45:00 PM 21.63 70.934 0.288 8.23 7.71 9.41
5/23/2021 5:00:00 PM 21.62 70.916 0.235 8.25 6.88 9.4
5/23/2021 5:15:00 PM 21.6 70.88 0.225 8.24 7.52 9.34
5/23/2021 5:30:00 PM 21.6 70.88 0.286 8.24 6.92 9.31
5/23/2021 5:45:00 PM 21.61 70.898 0.261 8.24 2.43 9.28
5/23/2021 6:00:00 PM 21.63 70.934 0.266 8.24 8.11 9.26
5/23/2021 6:15:00 PM 21.66 70.988 0.281 8.23 6.95 9.23
5/23/2021 6:30:00 PM 21.67 71.006 0.27 8.23 9.5 9.19
5/23/2021 6:45:00 PM 21.65 70.97 0.278 8.23 7 9.13
5/23/2021 7:00:00 PM 21.66 70.988 0.268 8.22 6.22 9.14
5/23/2021 7:15:00 PM 21.68 71.024 0.283 8.23 8.06 9.12
5/23/2021 7:30:00 PM 21.68 71.024 0.278 8.22 6.91 9.08
5/23/2021 7:45:00 PM 21.66 70.988 0.237 8.22 6.86 9.04
5/23/2021 8:00:00 PM 21.64 70.952 0.282 8.21 2.99 9.04
5/23/2021 8:15:00 PM 21.62 70.916 0.254 8.22 8.13 9.03
5/23/2021 8:30:00 PM 21.59 70.862 0.287 8.21 6.91 9.02
5/23/2021 8:45:00 PM 21.56 70.808 0.267 8.21 8.26 8.99
5/23/2021 9:00:00 PM 21.5 70.7 0.26 8.21 7.12 9
5/23/2021 9:15:00 PM 21.42 70.556 0.249 8.2 8.07 9.01
5/23/2021 9:30:00 PM 21.37 70.466 0.276 8.19 7.75 8.98
5/23/2021 9:45:00 PM 21.34 70.412 0.25 8.18 8.3 8.97
5/23/2021 10:00:00 PM 21.31 70.358 0.243 8.17 8.93 8.92
5/23/2021 10:15:00 PM 21.29 70.32201 0.246 8.16 7.77 8.91
5/23/2021 10:30:00 PM 21.27 70.286 0.242 8.15 5.25 8.87
5/23/2021 10:45:00 PM 21.25 70.25 0.291 8.13 8.3 8.84
5/23/2021 11:00:00 PM 21.21 70.17799 0.268 8.14 6.79 8.81
5/23/2021 11:15:00 PM 21.18 70.124 0.269 8.14 7.86 8.8
5/23/2021 11:30:00 PM 21.15 70.07 0.242 8.13 3.67 8.8
5/23/2021 11:45:00 PM 21.11 69.998 0.278 8.13 9.27 8.81
5/24/2021 12:00:00 AM 21.08 69.944 0.271 8.13 10.66 8.79
5/24/2021 12:15:00 AM 21.06 69.908 0.235 8.12 8.12 8.76
5/24/2021 12:30:00 AM 21.06 69.908 0.228 8.12 9.07 8.78
5/24/2021 12:45:00 AM 21.06 69.908 0.292 8.12 9.2 8.76
5/24/2021 1:00:00 AM 21.06 69.908 0.239 8.11 10.38 8.72
5/24/2021 1:15:00 AM 21.06 69.908 0.5 8.11 8.48 8.68
5/24/2021 1:30:00 AM 21.06 69.908 0.292 8.1 7.9 8.68
5/24/2021 1:45:00 AM 21.05 69.89 0.236 8.1 8.73 8.67
5/24/2021 2:00:00 AM 21.05 69.89 0.234 8.1 4.2 8.64
5/24/2021 2:15:00 AM 21.05 69.89 0.502 8.1 8.85 8.63
5/24/2021 2:30:00 AM 21.05 69.89 0.271 8.1 5.78 8.62
5/24/2021 2:45:00 AM 21.05 69.89 0.262 8.09 8.24 8.61
5/24/2021 3:00:00 AM 21.05 69.89 0.284 8.09 8.28 8.57
5/24/2021 3:15:00 AM 21.04 69.872 0.255 8.09 8.76 8.59
5/24/2021 3:30:00 AM 21.05 69.89 0.503 8.09 9.27 8.56
5/24/2021 3:45:00 AM 21.05 69.89 0.267 8.08 7.51 8.55
5/24/2021 4:00:00 AM 21.04 69.872 0.254 8.08 8.48 8.53
5/24/2021 4:15:00 AM 21.04 69.872 0.248 8.08 7.62 8.48
5/24/2021 4:30:00 AM 21.03 69.854 0.235 8.07 7.81 8.46
5/24/2021 4:45:00 AM 21.02 69.836 0.501 8.07 6.53 8.41
5/24/2021 5:00:00 AM 21.01 69.818 0.283 8.06 7.86 8.42
5/24/2021 5:15:00 AM 21 69.8 0.241 8.06 8.24 8.37
5/24/2021 5:30:00 AM 20.98 69.764 0.281 8.05 7.91 8.35
5/24/2021 5:45:00 AM 20.97 69.746 0.257 8.04 7.82 8.33
5/24/2021 6:00:00 AM 20.96 69.728 0.502 8.04 7.32 8.3
5/24/2021 6:15:00 AM 20.95 69.71 0.228 8.04 10 8.31
5/24/2021 6:30:00 AM 20.92 69.656 0.277 8.03 8.04 8.29
5/24/2021 6:45:00 AM 20.91 69.638 0.251 8.04 7.68 8.3
5/24/2021 7:00:00 AM 20.89 69.602 0.267 8.03 7.64 8.31
5/24/2021 7:15:00 AM 20.87 69.566 0.24 8.03 7.81 8.24
5/24/2021 7:30:00 AM 20.85 69.53 0.29 8.02 7.33 8.23
5/24/2021 7:45:00 AM 20.84 69.512 0.278 8.01 7.81 8.21
5/24/2021 8:00:00 AM 20.8 69.44 0.266 8.01 7.25 8.18
5/24/2021 8:15:00 AM 20.78 69.404 0.258 8 7.52 8.15
5/24/2021 8:30:00 AM 20.75 69.35 0.256 7.99 7.32 8.12
5/24/2021 8:45:00 AM 20.73 69.314 0.284 8 8.07 8.12
5/24/2021 9:00:00 AM 20.71 69.278 0.259 7.99 6.83 8.11
5/24/2021 9:15:00 AM 20.68 69.224 0.496 7.98 7.28 8.08
5/24/2021 9:30:00 AM 20.67 69.206 0.239 7.98 7.61 8.1
5/24/2021 9:45:00 AM 20.65 69.17 0.282 7.98 7.99 8.05
5/24/2021 10:00:00 AM 20.62 69.116 0.24 7.97 7.92 8.02
5/24/2021 10:15:00 AM 20.59 69.062 0.247 7.97 7.75 7.97
5/24/2021 10:30:00 AM 20.57 69.026 0.276 7.96 8.01 7.94
5/24/2021 10:45:00 AM 20.55 68.99 0.236 7.95 7.1 7.95
5/24/2021 11:00:00 AM 20.55 68.99 0.268 7.96 7.33 8.02
5/24/2021 11:15:00 AM 20.53 68.954 0.245 7.96 7.49 7.95
5/24/2021 11:30:00 AM 20.52 68.936 0.285 7.95 7.81 8
5/24/2021 11:45:00 AM 20.49 68.882 0.254 7.95 8.04 7.98
5/24/2021 12:00:00 PM 20.45 68.81 0.282 7.95 7.58 7.97
5/24/2021 12:15:00 PM 20.43 68.774 0.243 7.95 7.37 7.97
5/24/2021 12:30:00 PM 20.4 68.72 0.487 7.95 7.01 8.02
5/24/2021 12:45:00 PM 20.37 68.666 0.253 7.95 7.41 8.02
5/24/2021 1:00:00 PM 20.36 68.648 0.275 7.95 6.79 8.01
5/24/2021 1:15:00 PM 20.33 68.594 0.26 7.93 10.02 7.98
5/24/2021 1:30:00 PM 20.3 68.54 0.235 7.93 7.33 8
5/24/2021 1:45:00 PM 20.26 68.468 0.262 7.94 7.53 7.98
5/24/2021 2:00:00 PM 20.23 68.414 0.23 7.93 7.74 7.98
5/24/2021 2:15:00 PM 20.2 68.36 0.276 7.93 7.01 7.9
5/24/2021 2:30:00 PM 20.15 68.27 0.298 7.92 8.83 7.93
5/24/2021 2:45:00 PM 20.11 68.198 0.277 7.92 7.58 7.93
5/24/2021 3:00:00 PM 20.07 68.126 0.266 7.92 7.84 7.92
5/24/2021 3:15:00 PM 20.04 68.07201 0.279 7.92 7.92 8.03
5/24/2021 3:30:00 PM 20.01 68.018 0.241 7.93 8.32 8.04
5/24/2021 3:45:00 PM 19.97 67.946 0.298 7.92 6.68 8.02
5/24/2021 4:00:00 PM 19.93 67.874 0.266 7.93 6.99 8.05
5/24/2021 4:15:00 PM 19.91 67.838 0.265 7.93 6.88 8.12
5/24/2021 4:30:00 PM 19.89 67.802 0.251 7.93 6.29 8.14
5/24/2021 4:45:00 PM 19.85 67.73 0.299 7.93 6.87 8.11
5/24/2021 5:00:00 PM 19.8 67.64 0.254 7.93 7.11 8.09
5/24/2021 5:15:00 PM 19.76 67.568 0.234 7.93 7.47 8.14
5/24/2021 5:30:00 PM 19.73 67.514 0.231 7.94 7.12 8.24
5/24/2021 5:45:00 PM 19.69 67.442 0.248 7.94 7.43 8.21
5/24/2021 6:00:00 PM 19.66 67.388 0.297 7.94 7.19 8.24
5/24/2021 6:15:00 PM 19.62 67.316 0.22 7.94 7.41 8.24
5/24/2021 6:30:00 PM 19.56 67.208 0.299 7.93 6.49 8.17
5/24/2021 6:45:00 PM 19.5 67.1 0.238 7.93 7.77 8.12
5/24/2021 7:00:00 PM 19.45 67.01 0.282 7.92 7.27 8.08
5/24/2021 7:15:00 PM 19.4 66.92 0.265 7.93 7.33 8.09
5/24/2021 7:30:00 PM 19.35 66.83 0.275 7.93 7.28 8.11
5/24/2021 7:45:00 PM 19.3 66.74 0.301 7.92 8.2 8.13
5/24/2021 8:00:00 PM 19.25 66.65 0.262 7.93 7.89 8.13
5/24/2021 8:15:00 PM 19.2 66.56 0.27 7.92 8.66 8.15
5/24/2021 8:30:00 PM 19.15 66.47 0.238 7.93 8.94 8.16
5/24/2021 8:45:00 PM 19.1 66.38 0.282 7.92 8.14 8.18
5/24/2021 9:00:00 PM 19.05 66.29 0.287 7.93 8.59 8.19
5/24/2021 9:15:00 PM 18.99 66.182 0.27 7.94 7.65 8.22
5/24/2021 9:30:00 PM 18.93 66.074 0.262 7.93 9.05 8.26
5/24/2021 9:45:00 PM 18.88 65.984 0.494 7.93 8.01 8.27
5/24/2021 10:00:00 PM 18.81 65.858 0.276 7.94 6.72 8.3
5/24/2021 10:15:00 PM 18.75 65.75 0.243 7.93 7.76 8.31
5/24/2021 10:30:00 PM 18.69 65.642 0.306 7.94 9.92 8.3
5/24/2021 10:45:00 PM 18.63 65.534 0.25 7.93 8.6 8.3
5/24/2021 11:00:00 PM 18.57 65.426 0.28 7.92 8.13 8.3
5/24/2021 11:15:00 PM 18.5 65.3 0.497 7.93 8.97 8.32
5/24/2021 11:30:00 PM 18.44 65.192 0.239 7.92 8.58 8.31
5/24/2021 11:45:00 PM 18.38 65.084 0.503 7.92 10.14 8.31
5/25/2021 12:00:00 AM 18.32 64.976 0.259 7.91 5.97 8.29
5/25/2021 12:15:00 AM 18.26 64.868 0.499 7.91 8.44 8.29
5/25/2021 12:30:00 AM 18.2 64.76 0.272 7.83 7.52 8.28
5/25/2021 12:45:00 AM 18.15 64.67 0.275 7.86 5.39 8.26
5/25/2021 1:00:00 AM 18.09 64.562 0.499 7.9 3.78 8.29
5/25/2021 1:15:00 AM 18.04 64.472 0.258 7.9 8 8.28
5/25/2021 1:30:00 AM 17.98 64.364 0.499 7.9 7.31 8.26
5/25/2021 1:45:00 AM 17.93 64.274 0.286 7.89 7.66 8.28
5/25/2021 2:00:00 AM 17.89 64.202 0.275 7.9 8.27 8.29
5/25/2021 2:15:00 AM 17.84 64.112 0.308 7.9 35.61 8.3
5/25/2021 2:30:00 AM 17.8 64.04 0.506 7.89 7.93 8.31
5/25/2021 2:45:00 AM 17.76 63.968 0.286 7.89 7.1 8.3
5/25/2021 3:00:00 AM 17.72 63.896 0.263 7.9 7.64 8.31
5/25/2021 3:15:00 AM 17.68 63.824 0.313 7.9 10.08 8.33
5/25/2021 3:30:00 AM 17.64 63.752 0.313 7.9 8.07 8.32
5/25/2021 3:45:00 AM 17.6 63.68 0.274 7.9 7.03 8.34
5/25/2021 4:00:00 AM 17.57 63.626 0.259 7.9 7.53 8.35
5/25/2021 4:15:00 AM 17.53 63.554 0.312 7.9 7.2 8.36
5/25/2021 4:30:00 AM 17.5 63.5 0.267 7.9 7.52 8.36
5/25/2021 4:45:00 AM 17.46 63.428 0.504 7.91 6.51 8.39
5/25/2021 5:00:00 AM 17.43 63.374 0.248 7.9 8.26 8.38
5/25/2021 5:15:00 AM 17.4 63.32 0.256 7.91 7.4 8.39
5/25/2021 5:30:00 AM 17.36 63.248 0.51 7.9 7.01 8.4
5/25/2021 5:45:00 AM 17.33 63.194 0.268 7.92 7.87 8.41
5/25/2021 6:00:00 AM 17.29 63.122 0.314 7.91 6.89 8.42
5/25/2021 6:15:00 AM 17.26 63.068 0.256 7.92 5.71 8.45
5/25/2021 6:30:00 AM 17.24 63.032 0.254 7.91 6.68 8.47
5/25/2021 6:45:00 AM 17.21 62.978 0.262 7.93 6.4 8.49
5/25/2021 7:00:00 AM 17.18 62.924 0.254 7.92 6.4 8.52
5/25/2021 7:15:00 AM 17.16 62.888 0.272 7.93 6.44 8.54
5/25/2021 7:30:00 AM 17.13 62.834 0.253 7.93 6.01 8.58
5/25/2021 7:45:00 AM 17.12 62.816 0.281 7.93 5.91 8.64
5/25/2021 8:00:00 AM 17.1 62.78 0.273 7.94 5.99 8.67
5/25/2021 8:15:00 AM 17.09 62.762 0.252 7.93 6.58 8.67
5/25/2021 8:30:00 AM 17.09 62.762 0.509 7.94 6.15 8.73
5/25/2021 8:45:00 AM 17.08 62.744 0.307 7.94 6.73 8.73
5/25/2021 9:00:00 AM 17.07 62.726 0.306 7.95 6.15 8.72
5/25/2021 9:15:00 AM 17.05 62.69 0.238 7.95 7.4 8.7
5/25/2021 9:30:00 AM 17.03 62.654 0.279 7.94 6.34 8.71
5/25/2021 9:45:00 AM 17.03 62.654 0.284 7.94 5.91 8.74
5/25/2021 10:00:00 AM 17.03 62.654 0.251 7.95 6.53 8.77
5/25/2021 10:15:00 AM 17.04 62.672 0.254 7.96 5.89 8.82
5/25/2021 10:30:00 AM 17.05 62.69 0.263 7.91 6.87 8.84
5/25/2021 10:45:00 AM 17.06 62.708 0.278 7.96 7.93 8.88
5/25/2021 11:00:00 AM 17.07 62.726 0.3 7.97 6.09 8.93
5/25/2021 11:15:00 AM 17.12 62.816 0.272 7.98 5.74 8.98
5/25/2021 11:30:00 AM 17.17 62.906 0.24 7.99 5.89 9.06
5/25/2021 11:45:00 AM 17.21 62.978 0.496 8 5.69 9.07
5/25/2021 12:00:00 PM 17.22 62.996 0.269 8 5.63 9.07
5/25/2021 12:15:00 PM 17.24 63.032 0.308 8 5.45 9.11
5/25/2021 12:30:00 PM 17.28 63.104 0.294 8.01 5.43 9.17
5/25/2021 12:45:00 PM 17.3 63.14 0.263 8.01 5.41 9.2
5/25/2021 1:00:00 PM 17.33 63.194 0.263 8.02 5.57 9.25
5/25/2021 1:15:00 PM 17.41 63.338 0.249 8.03 5.86 9.31
5/25/2021 1:30:00 PM 17.5 63.5 0.261 8.05 5.69 9.35
5/25/2021 1:45:00 PM 17.53 63.554 0.485 8.05 5.34 9.38
5/25/2021 2:00:00 PM 17.61 63.698 0.233 8.06 5.25 9.46
5/25/2021 2:15:00 PM 17.73 63.914 0.294 8.08 4.98 9.55
5/25/2021 2:30:00 PM 17.85 64.13 0.49 8.09 5.1 9.54
5/25/2021 2:45:00 PM 17.94 64.292 0.275 8.1 5.33 9.59
5/25/2021 3:00:00 PM 17.93 64.274 0.248 8.1 5.48 9.59
5/25/2021 3:15:00 PM 18.04 64.472 0.269 8.11 5.48 9.59
5/25/2021 3:30:00 PM 18.15 64.67 0.222 8.12 5.6 9.59
5/25/2021 3:45:00 PM 18.19 64.742 0.269 8.13 5.46 9.59
5/25/2021 4:00:00 PM 18.2 64.76 0.299 8.14 5.39 9.61
5/25/2021 4:15:00 PM 18.19 64.742 0.256 8.14 5.18 9.63
5/25/2021 4:30:00 PM 18.29 64.922 0.256 8.16 5.32 9.64
5/25/2021 4:45:00 PM 18.3 64.94 0.293 8.16 5.02 9.66
5/25/2021 5:00:00 PM 18.29 64.922 0.249 8.18 5.59 9.67
5/25/2021 5:15:00 PM 18.27 64.886 0.306 8.19 5.21 9.71
5/25/2021 5:30:00 PM 18.27 64.886 0.25 8.19 5.39 9.71
5/25/2021 5:45:00 PM 18.29 64.922 0.247 8.2 5.13 9.72
5/25/2021 6:00:00 PM 18.37 65.066 0.268 8.21 6.03 9.73
5/25/2021 6:15:00 PM 18.41 65.138 0.491 8.23 6.07 9.74
5/25/2021 6:30:00 PM 18.41 65.138 0.307 8.23 5.73 9.74
5/25/2021 6:45:00 PM 18.34 65.012 0.275 8.23 5.51 9.75
5/25/2021 7:00:00 PM 18.3 64.94 0.259 8.23 7.12 9.76
5/25/2021 7:15:00 PM 18.25 64.85 0.492 8.24 6.3 9.76
5/25/2021 7:30:00 PM 18.2 64.76 0.497 8.23 6.08 9.76
5/25/2021 7:45:00 PM 18.15 64.67 0.263 8.24 5.65 9.75
5/25/2021 8:00:00 PM 18.12 64.616 0.248 8.24 5.73 9.76
5/25/2021 8:15:00 PM 18.07 64.526 0.251 8.24 5.89 9.75
5/25/2021 8:30:00 PM 18.02 64.436 0.276 8.23 6.27 9.75
5/25/2021 8:45:00 PM 17.97 64.346 0.258 8.23 5.84 9.73
5/25/2021 9:00:00 PM 17.92 64.256 0.254 8.22 5.69 9.73
5/25/2021 9:15:00 PM 17.88 64.184 0.497 8.21 6.36 9.72
5/25/2021 9:30:00 PM 17.83 64.094 0.275 8.21 6.59 9.7
5/25/2021 9:45:00 PM 17.79 64.022 0.298 8.2 9.38 9.69
5/25/2021 10:00:00 PM 17.74 63.932 0.266 8.19 6.51 9.66
5/25/2021 10:15:00 PM 17.7 63.86 0.244 8.18 7.05 9.63
5/25/2021 10:30:00 PM 17.67 63.806 0.309 8.18 6.98 9.6
5/25/2021 10:45:00 PM 17.63 63.734 0.28 8.16 6.94 9.58
5/25/2021 11:00:00 PM 17.6 63.68 0.246 8.16 6.58 9.56
5/25/2021 11:15:00 PM 17.56 63.608 0.256 8.15 6.74 9.55
5/25/2021 11:30:00 PM 17.53 63.554 0.309 8.15 7.33 9.54
5/25/2021 11:45:00 PM 17.51 63.518 0.258 8.13 6.56 9.53
5/26/2021 12:00:00 AM 17.49 63.482 0.252 8.14 6.74 9.53
5/26/2021 12:15:00 AM 17.47 63.446 0.274 8.13 13.01 9.51
5/26/2021 12:30:00 AM 17.46 63.428 0.247 8.13 8.52 9.51
5/26/2021 12:45:00 AM 17.45 63.41 0.307 8.14 7.5 9.49
5/26/2021 1:00:00 AM 17.45 63.41 0.251 8.12 7.25 9.48
5/26/2021 1:15:00 AM 17.45 63.41 0.496 8.13 7.4 9.49
5/26/2021 1:30:00 AM 17.45 63.41 0.221 8.12 6.15 9.47
5/26/2021 1:45:00 AM 17.45 63.41 0.278 8.12 5.71 9.46
5/26/2021 2:00:00 AM 17.45 63.41 0.496 8.12 5.91 9.46
5/26/2021 2:15:00 AM 17.45 63.41 0.496 8.12 7.55 9.46
5/26/2021 2:30:00 AM 17.46 63.428 0.299 8.12 6.12 9.44
5/26/2021 2:45:00 AM 17.46 63.428 0.274 8.12 6.1 9.43
5/26/2021 3:00:00 AM 17.48 63.464 0.303 8.12 6.08 9.44
5/26/2021 3:15:00 AM 17.49 63.482 0.301 8.12 6.02 9.42
5/26/2021 3:30:00 AM 17.51 63.518 0.305 8.13 5.88 9.41
5/26/2021 3:45:00 AM 17.53 63.554 0.304 8.13 5.9 9.42
5/26/2021 4:00:00 AM 17.55 63.59 0.267 8.12 5.98 9.4
5/26/2021 4:15:00 AM 17.57 63.626 0.259 8.12 7.03 9.39
5/26/2021 4:30:00 AM 17.59 63.662 0.27 8.13 6.24 9.35
5/26/2021 4:45:00 AM 17.61 63.698 0.271 8.12 7.26 9.34
5/26/2021 5:00:00 AM 17.64 63.752 0.493 8.12 5.76 9.32
5/26/2021 5:15:00 AM 17.66 63.788 0.272 8.12 10.56 9.29
5/26/2021 5:30:00 AM 17.69 63.842 0.305 8.11 7.42 9.25
5/26/2021 5:45:00 AM 17.72 63.896 0.31 8.11 9.05 9.23
5/26/2021 6:00:00 AM 17.74 63.932 0.299 8.11 5.61 9.21
5/26/2021 6:15:00 AM 17.76 63.968 0.254 8.1 5.49 9.17
5/26/2021 6:30:00 AM 17.78 64.004 0.309 8.1 5.93 9.15
5/26/2021 6:45:00 AM 17.81 64.058 0.226 8.09 6.06 9.14
5/26/2021 7:00:00 AM 17.84 64.112 0.299 8.09 10.49 9.12
5/26/2021 7:15:00 AM 17.87 64.166 0.246 8.08 6.4 9.09
5/26/2021 7:30:00 AM 17.91 64.238 0.245 8.08 5.85 9.08
5/26/2021 7:45:00 AM 17.95 64.31 0.482 8.1 5.98 9.1
5/26/2021 8:00:00 AM 17.98 64.364 0.29 8.08 6.19 9.07
5/26/2021 8:15:00 AM 18.01 64.418 0.266 8.08 6.21 9.02
5/26/2021 8:30:00 AM 18.02 64.436 0.274 8.07 5.63 8.95
5/26/2021 8:45:00 AM 18.03 64.454 0.261 8.07 6.11 8.92
5/26/2021 9:00:00 AM 18.05 64.49 0.254 8.05 10.58 8.92
5/26/2021 9:15:00 AM 18.08 64.544 0.221 8.06 8.86 8.96
5/26/2021 9:30:00 AM 18.12 64.616 0.262 8.05 6.5 8.96
5/26/2021 9:45:00 AM 18.2 64.76 0.235 8.06 6.81 9.06
5/26/2021 10:00:00 AM 18.3 64.94 0.238 8.07 6.57 9.13
5/26/2021 10:15:00 AM 18.41 65.138 0.226 8.07 6.65 9.12
5/26/2021 10:30:00 AM 18.51 65.318 0.479 8.07 6.06 9.12
5/26/2021 10:45:00 AM 18.6 65.48 0.299 8.07 5.69 9.12
5/26/2021 11:00:00 AM 18.72 65.696 0.293 8.07 6.34 9.13
5/26/2021 11:15:00 AM 18.83 65.894 0.252 8.07 5.85 9.15
5/26/2021 11:30:00 AM 18.9 66.02 0.271 8.07 5.35 9.15
5/26/2021 11:45:00 AM 18.99 66.182 0.256 8.08 5.32 9.16
5/26/2021 12:00:00 PM 19.09 66.362 0.267 8.08 6.42 9.18
5/26/2021 12:15:00 PM 19.2 66.56 0.277 8.09 5.7 9.21
5/26/2021 12:30:00 PM 19.32 66.776 0.25 8.1 5.18 9.2
5/26/2021 12:45:00 PM 19.39 66.902 0.264 8.1 6.01 9.22
5/26/2021 1:00:00 PM 19.51 67.118 0.245 8.11 5.5 9.24
5/26/2021 1:15:00 PM 19.54 67.172 0.486 8.11 5.47 9.28
5/26/2021 1:30:00 PM 19.73 67.514 0.253 8.12 8.59 9.3
5/26/2021 1:45:00 PM 19.78 67.604 0.234 8.13 4.84 9.31
5/26/2021 2:00:00 PM 19.88 67.784 0.232 8.14 5.13 9.32
5/26/2021 2:15:00 PM 19.96 67.92799 0.248 8.15 4.94 9.36
5/26/2021 2:30:00 PM 19.9 67.82 0.279 8.15 5.05 9.38
5/26/2021 2:45:00 PM 20.06 68.108 0.241 8.17 4.95 9.4
5/26/2021 3:00:00 PM 20.1 68.18 0.266 8.17 5.05 9.4
5/26/2021 3:15:00 PM 20.11 68.198 0.251 8.18 4.85 9.43
5/26/2021 3:30:00 PM 20.11 68.198 0.277 8.19 5.16 9.44
5/26/2021 3:45:00 PM 20.2 68.36 0.249 8.19 5.22 9.45
5/26/2021 4:00:00 PM 20.22 68.396 0.286 8.2 4.98 9.46
5/26/2021 4:15:00 PM 20.08 68.144 0.289 8.19 4.97 9.25
5/26/2021 4:30:00 PM 19.82 67.676 0.244 8.17 6.95 9.09
5/26/2021 4:45:00 PM 19.53 67.154 0.271 8.16 6.14 9.15
5/26/2021 5:00:00 PM 19.43 66.974 0.266 8.16 5.68 9.21
5/26/2021 5:15:00 PM 19.53 67.154 0.489 8.17 4.94 9.23
5/26/2021 5:30:00 PM 19.72 67.496 0.485 8.19 5.17 9.4
5/26/2021 5:45:00 PM 19.96 67.92799 0.275 8.21 4.87 9.44
5/26/2021 6:00:00 PM 20.14 68.252 0.295 8.22 5.28 9.41
5/26/2021 6:15:00 PM 20.22 68.396 0.235 8.22 4.94 9.29
5/26/2021 6:30:00 PM 20.24 68.432 0.231 8.21 5.12 9.2
5/26/2021 6:45:00 PM 20.19 68.342 0.279 8.21 5.07 9.21
5/26/2021 7:00:00 PM 20.09 68.162 0.229 8.21 4.86 9.22
5/26/2021 7:15:00 PM 20.03 68.054 0.299 8.21 5.03 9.23
5/26/2021 7:30:00 PM 19.96 67.92799 0.279 8.2 5.16 9.27
5/26/2021 7:45:00 PM 19.9 67.82 0.287 8.2 5.23 9.31
5/26/2021 8:00:00 PM 19.86 67.748 0.279 8.19 4.89 9.27
5/26/2021 8:15:00 PM 19.79 67.622 0.241 8.18 5.53 9.2
5/26/2021 8:30:00 PM 19.73 67.514 0.266 8.16 5.18 9.15
5/26/2021 8:45:00 PM 19.68 67.424 0.278 8.15 5.11 9.13
5/26/2021 9:00:00 PM 19.65 67.37 0.269 8.14 6.12 9.12
5/26/2021 9:15:00 PM 19.63 67.334 0.256 8.14 6.87 9.09
5/26/2021 9:30:00 PM 19.62 67.316 0.247 8.14 5.96 9.08
5/26/2021 9:45:00 PM 19.59 67.262 0.26 8.14 11.18 9.05
5/26/2021 10:00:00 PM 19.52 67.136 0.459 8.14 11.22 9.07
5/26/2021 10:15:00 PM 19.52 67.136 0.474 8.12 9.75 9.08
5/26/2021 10:30:00 PM 19.52 67.136 0.258 8.11 11.65 9.04
5/26/2021 10:45:00 PM 19.54 67.172 0.265 8.11 10.03 9.06
5/26/2021 11:00:00 PM 19.55 67.19 0.233 8.11 12.16 9.06
5/26/2021 11:15:00 PM 19.57 67.226 0.272 8.11 11.42 9.06
5/26/2021 11:30:00 PM 19.6 67.28 0.264 8.1 11.15 9.06
5/26/2021 11:45:00 PM 19.64 67.352 0.232 8.1 8.63 9.05
5/27/2021 12:00:00 AM 19.71 67.478 0.254 8.09 8.29 9.04
5/27/2021 12:15:00 AM 19.78 67.604 0.485 8.09 7.3 8.98
5/27/2021 12:30:00 AM 19.85 67.73 0.268 8.08 7.32 8.94
5/27/2021 12:45:00 AM 19.91 67.838 0.29 8.08 4.56 8.88
5/27/2021 1:00:00 AM 19.96 67.92799 0.241 8.08 8.37 8.81
5/27/2021 1:15:00 AM 20.01 68.018 0.218 8.07 7.48 8.77
5/27/2021 1:30:00 AM 20.04 68.07201 0.266 8.07 7.83 8.7
5/27/2021 1:45:00 AM 20.06 68.108 0.258 8.05 6.95 8.66
5/27/2021 2:00:00 AM 20.07 68.126 0.243 8.04 7.21 8.57
5/27/2021 2:15:00 AM 20.07 68.126 0.297 8.02 6.23 8.5
5/27/2021 2:30:00 AM 20.06 68.108 0.483 8.01 6.52 8.44
5/27/2021 2:45:00 AM 20.04 68.07201 0.476 8 7.39 8.37
5/27/2021 3:00:00 AM 20.01 68.018 0.291 7.97 8.42 8.31
5/27/2021 3:15:00 AM 19.98 67.964 0.263 7.95 8.18 8.27
5/27/2021 3:30:00 AM 19.96 67.92799 0.26 7.94 9.55 8.22
5/27/2021 3:45:00 AM 19.94 67.892 0.27 7.92 9.44 8.18
5/27/2021 4:00:00 AM 19.92 67.856 0.217 7.91 10.39 8.11
5/27/2021 4:15:00 AM 19.89 67.802 0.223 7.89 11.65 8.09
5/27/2021 4:30:00 AM 19.85 67.73 0.265 7.88 10.5 8.04
5/27/2021 4:45:00 AM 19.83 67.694 0.256 7.86 11.49 8.01
5/27/2021 5:00:00 AM 19.81 67.658 0.279 7.86 11.42 7.97
5/27/2021 5:15:00 AM 19.79 67.622 0.274 7.85 12.76 7.92
5/27/2021 5:30:00 AM 19.78 67.604 0.273 7.85 10.06 7.91
5/27/2021 5:45:00 AM 19.77 67.586 0.444 7.84 9.96 7.9
5/27/2021 6:00:00 AM 19.77 67.586 0.3 7.84 9.13 7.9
5/27/2021 6:15:00 AM 19.76 67.568 0.256 7.84 8.51 7.9
5/27/2021 6:30:00 AM 19.75 67.55 0.253 7.84 9.26 7.9
5/27/2021 6:45:00 AM 19.74 67.532 0.254 7.84 8.48 7.9
5/27/2021 7:00:00 AM 19.73 67.514 0.437 7.84 8.57 7.9
5/27/2021 7:15:00 AM 19.71 67.478 0.259 7.84 7.84 7.9
5/27/2021 7:30:00 AM 19.7 67.46 0.29 7.84 7.72 7.93
5/27/2021 7:45:00 AM 19.69 67.442 0.236 7.84 7.83 7.91
5/27/2021 8:00:00 AM 19.67 67.406 0.301 7.84 8.25 7.93
5/27/2021 8:15:00 AM 19.66 67.388 0.437 7.84 8.18 7.95
5/27/2021 8:30:00 AM 19.66 67.388 0.257 7.84 7.88 7.98
5/27/2021 8:45:00 AM 19.66 67.388 0.203 7.84 7.72 8.01
5/27/2021 9:00:00 AM 19.68 67.424 0.447 7.84 8.01 8.06
5/27/2021 9:15:00 AM 19.7 67.46 0.254 7.84 7.84 8.04
5/27/2021 9:30:00 AM 19.76 67.568 0.273 7.85 8.9 8.13
5/27/2021 9:45:00 AM 19.78 67.604 0.261 7.85 8.36 8.14
5/27/2021 10:00:00 AM 19.84 67.712 0.259 7.86 8.41 8.18
5/27/2021 10:15:00 AM 19.86 67.748 0.259 7.86 8.56 8.22
5/27/2021 10:30:00 AM 19.85 67.73 0.262 7.85 7.94 8.15
5/27/2021 10:45:00 AM 19.92 67.856 0.25 7.86 7.88 8.27
5/27/2021 11:00:00 AM 19.98 67.964 0.259 7.87 8.03 8.33
5/27/2021 11:15:00 AM 20.04 68.07201 0.263 7.88 8.23 8.38
5/27/2021 11:30:00 AM 20.08 68.144 0.258 7.89 8.81 8.39
5/27/2021 11:45:00 AM 20.12 68.216 0.26 7.89 8.49 8.41
5/27/2021 12:00:00 PM 20.19 68.342 0.258 7.9 8.09 8.48
5/27/2021 12:15:00 PM 20.23 68.414 0.258 7.91 8.04 8.52
5/27/2021 12:30:00 PM 20.28 68.504 0.277 7.92 8.07 8.54
5/27/2021 12:45:00 PM 20.34 68.612 0.288 7.93 8.1 8.57
5/27/2021 1:00:00 PM 20.39 68.702 0.253 7.94 8.23 8.62
5/27/2021 1:15:00 PM 20.45 68.81 0.291 7.95 7.95 8.65
5/27/2021 1:30:00 PM 20.5 68.9 0.22 7.96 7.88 8.69
5/27/2021 1:45:00 PM 20.6 69.08 0.272 7.98 7.88 8.73
5/27/2021 2:00:00 PM 20.71 69.278 0.269 7.99 7.54 8.75
5/27/2021 2:15:00 PM 20.78 69.404 0.257 8 7.7 8.8
5/27/2021 2:30:00 PM 20.85 69.53 0.269 8.02 7.86 8.81
5/27/2021 2:45:00 PM 20.93 69.674 0.26 8.03 7.29 8.87
5/27/2021 3:00:00 PM 21.04 69.872 0.26 8.05 7.34 8.9
5/27/2021 3:15:00 PM 21.15 70.07 0.26 8.06 7.5 8.92
5/27/2021 3:30:00 PM 21.24 70.232 0.199 8.08 7.53 8.93
5/27/2021 3:45:00 PM 21.35 70.43 0.264 8.09 7.26 8.94
5/27/2021 4:00:00 PM 21.44 70.592 0.261 8.11 6.91 8.95
5/27/2021 4:15:00 PM 21.52 70.736 0.266 8.12 7.73 8.97
5/27/2021 4:30:00 PM 21.58 70.844 0.27 8.13 7.6 9
5/27/2021 4:45:00 PM 21.62 70.916 0.26 8.15 7.62 9
5/27/2021 5:00:00 PM 21.7 71.06 0.217 8.15 7.43 9.01
5/27/2021 5:15:00 PM 21.75 71.15 0.272 8.16 6.87 8.95
5/27/2021 5:30:00 PM 21.76 71.168 0.257 8.16 7.77 8.94
5/27/2021 5:45:00 PM 21.77 71.186 0.27 8.15 8.24 8.93
5/27/2021 6:00:00 PM 21.77 71.186 0.249 8.16 7.46 8.92
5/27/2021 6:15:00 PM 21.79 71.222 0.258 8.15 7.29 8.91
5/27/2021 6:30:00 PM 21.74 71.132 0.264 8.13 8.11 8.82
5/27/2021 6:45:00 PM 21.73 71.114 0.273 8.13 7.58 8.8
5/27/2021 7:00:00 PM 21.71 71.078 0.264 8.11 9.02 8.76
5/27/2021 7:15:00 PM 21.69 71.042 0.413 8.1 9.62 8.7
5/27/2021 7:30:00 PM 21.66 70.988 0.256 8.08 9.23 8.64
5/27/2021 7:45:00 PM 21.64 70.952 0.266 8.06 4.86 8.57
5/27/2021 8:00:00 PM 21.62 70.916 0.162 8.05 9.17 8.54
5/27/2021 8:15:00 PM 21.61 70.898 0.245 8.04 7.89 8.49
5/27/2021 8:30:00 PM 21.58 70.844 0.203 8.02 7.02 8.44
5/27/2021 8:45:00 PM 21.56 70.808 0.25 8 6.81 8.4
5/27/2021 9:00:00 PM 21.53 70.754 0.275 7.99 6.86 8.37
5/27/2021 9:15:00 PM 21.52 70.736 0.274 7.99 7.7 8.34
5/27/2021 9:30:00 PM 21.51 70.718 0.241 7.97 6.86 8.3
5/27/2021 9:45:00 PM 21.49 70.682 0.269 7.97 7.77 8.27
5/27/2021 10:00:00 PM 21.47 70.646 0.186 7.96 7.4 8.23
5/27/2021 10:15:00 PM 21.46 70.628 0.272 7.94 7.06 8.21
5/27/2021 10:30:00 PM 21.43 70.574 0.258 7.93 7.29 8.17
5/27/2021 10:45:00 PM 21.41 70.538 0.382 7.91 6.41 8.15
5/27/2021 11:00:00 PM 21.38 70.484 0.203 7.9 8.35 8.12
5/27/2021 11:15:00 PM 21.36 70.448 0.262 7.9 7.5 8.1
5/27/2021 11:30:00 PM 21.34 70.412 0.391 7.89 7.26 8.08
5/27/2021 11:45:00 PM 21.32 70.376 0.266 7.89 6.39 8.06
5/28/2021 12:00:00 AM 21.29 70.32201 0.195 7.89 6.52 8.02
5/28/2021 12:15:00 AM 21.26 70.268 0.376 7.88 6.4 8.01
5/28/2021 12:30:00 AM 21.24 70.232 0.388 7.88 6.94 7.99
5/28/2021 12:45:00 AM 21.21 70.17799 0.208 7.87 6.79 7.98
5/28/2021 1:00:00 AM 21.17 70.106 0.262 7.87 6.64 7.94
5/28/2021 1:15:00 AM 21.14 70.052 0.261 7.86 6.17 7.92
5/28/2021 1:30:00 AM 21.1 69.98 0.252 7.86 6.02 7.9
5/28/2021 1:45:00 AM 21.05 69.89 0.248 7.86 5.99 7.9
5/28/2021 2:00:00 AM 21.01 69.818 0.224 7.85 6.77 7.87
5/28/2021 2:15:00 AM 20.98 69.764 0.22 7.85 9.31 7.89
5/28/2021 2:30:00 AM 20.94 69.692 0.246 7.85 5.96 7.86
5/28/2021 2:45:00 AM 20.9 69.62 0.26 7.84 6.95 7.84
5/28/2021 3:00:00 AM 20.86 69.548 0.388 7.84 6.45 7.81
5/28/2021 3:15:00 AM 20.82 69.476 0.226 7.83 5.63 7.76
5/28/2021 3:30:00 AM 20.78 69.404 0.266 7.83 6.42 7.78
5/28/2021 3:45:00 AM 20.74 69.332 0.23 7.82 6.03 7.74
5/28/2021 4:00:00 AM 20.7 69.26 0.268 7.82 6.76 7.75
5/28/2021 4:15:00 AM 20.65 69.17 0.236 7.82 7.08 7.76
5/28/2021 4:30:00 AM 20.6 69.08 0.274 7.81 6.46 7.75
5/28/2021 4:45:00 AM 20.56 69.008 0.227 7.81 6.31 7.74
5/28/2021 5:00:00 AM 20.5 68.9 0.232 7.81 6.32 7.74
5/28/2021 5:15:00 AM 20.45 68.81 0.237 7.81 5.71 7.73
5/28/2021 5:30:00 AM 20.4 68.72 0.278 7.81 6.24 7.69
5/28/2021 5:45:00 AM 20.35 68.63 0.239 7.81 5.92 7.71
5/28/2021 6:00:00 AM 20.29 68.522 0.279 7.81 5.97 7.71
5/28/2021 6:15:00 AM 20.25 68.45 0.17 7.8 5.74 7.71
5/28/2021 6:30:00 AM 20.2 68.36 0.391 7.81 5.22 7.71
5/28/2021 6:45:00 AM 20.15 68.27 0.247 7.81 6.16 7.75
5/28/2021 7:00:00 AM 20.1 68.18 0.234 7.81 7.09 7.77
5/28/2021 7:15:00 AM 20.06 68.108 0.271 7.81 7.54 7.77
5/28/2021 7:30:00 AM 19.99 67.982 0.267 7.81 5.88 7.77
5/28/2021 7:45:00 AM 19.94 67.892 0.23 7.8 6.19 7.78
5/28/2021 8:00:00 AM 19.9 67.82 0.276 7.82 7.14 7.84
5/28/2021 8:15:00 AM 19.87 67.766 0.247 7.82 6.34 7.89
5/28/2021 8:30:00 AM 19.84 67.712 0.278 7.82 6.62 7.91
5/28/2021 8:45:00 AM 19.79 67.622 0.216 7.82 6.56 7.88
5/28/2021 9:00:00 AM 19.75 67.55 0.273 7.82 5.66 7.88
5/28/2021 9:15:00 AM 19.72 67.496 0.413 7.83 5.47 7.96
5/28/2021 9:30:00 AM 19.72 67.496 0.282 7.84 6.57 8.04
5/28/2021 9:45:00 AM 19.73 67.514 0.241 7.84 5.16 8.08
5/28/2021 10:00:00 AM 19.76 67.568 0.284 7.85 5.45 8.12
5/28/2021 10:15:00 AM 19.71